logo
Games released in 2015
# Game Release date
Price
Score rank
(Userscore / Metascore)
Owners
Playtime (Median)
Developer(s)
Publisher(s)
1 Grand Theft Auto V Apr 14, 2015 $29.98N/A (N/A/96%)50,000,000 .. 100,000,00009:45 (01:48)Rockstar NorthRockstar Games
2 Divinity: Original Sin - Enhanced Edition Oct 27, 2015 $39.99N/A (N/A/94%)1,000,000 .. 2,000,00010:02 (06:41)Larian StudiosLarian Studios
3 The Witcher 3: Wild Hunt May 18, 2015 $39.99N/A (N/A/93%)10,000,000 .. 20,000,00007:34 (01:52)CD PROJEKT REDCD PROJEKT RED
4 Undertale Sep 15, 2015 $9.99N/A (N/A/92%)2,000,000 .. 5,000,00000:40 (00:26)tobyfoxtobyfox
5 METAL GEAR SOLID V: THE PHANTOM PAIN Sep 1, 2015 $19.99N/A (N/A/91%)2,000,000 .. 5,000,00003:32 (05:25)Konami Digital EntertainmentKonami Digital Entertainment
6 Fallout: A Post Nuclear Role Playing Game Nov 1, 2015 $9.99N/A (N/A/89%)2,000,000 .. 5,000,00004:12 (01:24)Interplay Inc.Bethesda Softworks
7 Nuclear Throne Dec 5, 2015 $11.99N/A (N/A/89%)500,000 .. 1,000,00003:23 (01:07)VlambeerVlambeer
8 Pillars of Eternity Mar 26, 2015 $29.99N/A (N/A/89%)1,000,000 .. 2,000,00006:43 (02:14)Obsidian EntertainmentParadox Interactive
9 Ori and the Blind Forest Mar 11, 2015 N/AN/A (N/A/88%)2,000,000 .. 5,000,00000:07 (00:04)Moon Studios GmbHXbox Game Studios
10 Kerbal Space Program Apr 27, 2015 $9.99N/A (N/A/88%)2,000,000 .. 5,000,00005:45 (10:50)SquadPrivate Division
11 Dying Light Jan 26, 2015 $29.99N/A (N/A/87%)0 .. 20,00000:00 (00:00)TechlandTechland
12 Crypt of the NecroDancer Apr 23, 2015 $14.99N/A (N/A/87%)2,000,000 .. 5,000,00000:30 (00:10)Brace Yourself GamesBrace Yourself Games, Klei Entertainment
13 Mushihimesama Nov 12, 2015 $19.99N/A (N/A/86%)50,000 .. 100,00000:00 (00:00)CAVE Interactive CO.,LTD.Komodo
14 Oddworld: New 'n' Tasty Feb 25, 2015 $19.99N/A (N/A/86%)200,000 .. 500,00000:00 (00:00)Just Add Water (Developments), Ltd.Oddworld Inhabitants, Inc.
15 Her Story Jun 24, 2015 $9.99N/A (N/A/86%)1,000,000 .. 2,000,00000:00 (00:00)Sam BarlowSam Barlow
16 Homeworld Remastered Collection Feb 25, 2015 $34.99N/A (N/A/86%)1,000,000 .. 2,000,00002:38 (01:43)Gearbox Software, Aspyr (Mac)Gearbox Publishing, Aspyr (Mac)
17 DiRT Rally Dec 7, 2015 N/AN/A (N/A/86%)2,000,000 .. 5,000,00000:32 (00:10)Codemasters, Feral Interactive (Linux), Feral Interactive (Mac)Codemasters, Feral Interactive (Linux), Feral Interactive (Mac), Electronic Arts
18 Rocket League Jul 7, 2015 N/AN/A (N/A/86%)10,000,000 .. 20,000,00009:30 (04:25)Psyonix LLCPsyonix LLC
19 Zenzizenzic Jul 23, 2015 $9.99N/A (N/A/85%)20,000 .. 50,00000:00 (00:00)bitHuffelAdult Swim Games
20 Roche Fusion Jan 23, 2015 $5.99N/A (N/A/85%)0 .. 20,00000:00 (00:00)amulwareamulware
21 Mighty Switch Force! Hyper Drive Edition Jun 25, 2015 $9.99N/A (N/A/85%)20,000 .. 50,00000:00 (00:00)WayForwardWayForward
22 Chaos Reborn Oct 26, 2015 $9.99N/A (N/A/85%)50,000 .. 100,00000:00 (00:00)Snapshot Games Inc.Snapshot Games Inc.
23 System Shock: Enhanced Edition Sep 22, 2015 $9.99N/A (N/A/85%)200,000 .. 500,00000:00 (00:00)Looking Glass Studios, Nightdive StudiosNightdive Studios
24 Mega Man Legacy Collection Aug 24, 2015 $5.99N/A (N/A/85%)200,000 .. 500,00000:00 (00:00)CapcomCapcom
25 Cities: Skylines Mar 10, 2015 $29.99N/A (N/A/85%)5,000,000 .. 10,000,00004:21 (01:58)Colossal Order Ltd.Paradox Interactive
26 Bulb Boy Oct 29, 2015 $8.99N/A (N/A/84%)100,000 .. 200,00000:00 (00:00)BulbwareBulbware
27 80 Days Sep 28, 2015 $12.99N/A (N/A/84%)100,000 .. 200,00000:00 (00:00)inkle Ltd, Cape Guy Ltdinkle Ltd
28 GUILTY GEAR Xrd -SIGN- Dec 9, 2015 $29.99N/A (N/A/84%)200,000 .. 500,00000:00 (00:00)Arc System WorksArc System Works
29 Grim Fandango Remastered Jan 26, 2015 $4.49N/A (N/A/84%)200,000 .. 500,00000:00 (00:00)Double Fine ProductionsDouble Fine Productions
30 SOMA Sep 21, 2015 $29.99N/A (N/A/84%)1,000,000 .. 2,000,00000:00 (00:00)Frictional GamesFrictional Games
31 Mortal Kombat X Apr 13, 2015 $19.99N/A (N/A/84%)2,000,000 .. 5,000,00001:31 (01:00)NetherRealm Studios, QLOCWarner Bros. Interactive Entertainment
32 Fallout 4 Nov 9, 2015 $6.59N/A (N/A/84%)5,000,000 .. 10,000,00011:38 (02:35)Bethesda Game StudiosBethesda Softworks
33 Beyond Sol Jun 30, 2015 $9.99N/A (N/A/83%)0 .. 20,00000:00 (00:00)Praxia Entertainment IncPraxia Entertainment Inc
34 Divide By Sheep Jul 2, 2015 $4.99N/A (N/A/83%)2,000,000 .. 5,000,00000:00 (00:00)Victor Solodilov, Denis NovikovtinyBuild
35 CLANNAD Nov 23, 2015 $44.99N/A (N/A/83%)200,000 .. 500,00000:00 (00:00)VisualArts/KeySekai Project
36 Project CARS May 6, 2015 N/AN/A (N/A/83%)1,000,000 .. 2,000,00001:27 (00:29)Slightly Mad StudiosCodemasters, Slightly Mad Studios, Electronic Arts
37 HELLDIVERS Dive Harder Edition Dec 7, 2015 $4.99N/A (N/A/83%)2,000,000 .. 5,000,00006:45 (02:15)Arrowhead Game StudiosPlayStation PC LLC
38 Broforce Oct 15, 2015 $14.99N/A (N/A/83%)2,000,000 .. 5,000,00000:57 (00:49)Free LivesDevolver Digital
39 Prison Architect Oct 6, 2015 $29.99N/A (N/A/83%)5,000,000 .. 10,000,00002:08 (02:50)Double Eleven, Introversion SoftwareParadox Interactive
40 SMITE Sep 8, 2015 FreeN/A (N/A/83%)10,000,000 .. 20,000,00007:33 (08:18)Titan Forge GamesHi-Rez Studios
41 The Next Penelope May 29, 2015 $2.59N/A (N/A/82%)20,000 .. 50,00000:00 (00:00)Aurelien RegardPlug In Digital
42 Ninja Pizza Girl Sep 30, 2015 $6.99N/A (N/A/82%)50,000 .. 100,00000:00 (00:00)Disparity GamesDisparity Games
43 OlliOlli2: Welcome to Olliwood Aug 11, 2015 $14.99N/A (N/A/82%)50,000 .. 100,00000:00 (00:00)Roll7Devolver Digital
44 BLACKHOLE Feb 27, 2015 $8.99N/A (N/A/82%)200,000 .. 500,00000:00 (00:00)FiolaSoft StudioFulqrum Publishing
45 Kero Blaster Nov 11, 2015 $2.99N/A (N/A/82%)200,000 .. 500,00000:00 (00:00)Studio PixelPLAYISM
46 Technobabylon May 2015 $14.99N/A (N/A/82%)100,000 .. 200,00000:00 (00:00)Technocrat GamesWadjet Eye Games
47 Invisible, Inc. May 12, 2015 $19.99N/A (N/A/82%)500,000 .. 1,000,00000:00 (00:00)Klei EntertainmentKlei Entertainment
48 Resident Evil Jan 19, 2015 $4.99N/A (N/A/82%)1,000,000 .. 2,000,00000:00 (00:00)CAPCOM Co., Ltd.CAPCOM Co., Ltd.
49 Hacknet Aug 12, 2015 $1.49N/A (N/A/82%)1,000,000 .. 2,000,00005:16 (01:45)Team Fractal AlligatorFellow Traveller
50 Duck Game Jun 4, 2015 $12.99N/A (N/A/82%)1,000,000 .. 2,000,00003:53 (03:40)Landon PodbielskiAdult Swim Games
51 Vietnam ‘65 Mar 5, 2015 $9.99N/A (N/A/81%)20,000 .. 50,00000:00 (00:00)Every Single SoldierEvery Single Soldier
52 Kalimba Apr 22, 2015 $2.49N/A (N/A/81%)50,000 .. 100,00000:00 (00:00)Press PlayXbox Game Studios
53 Order of Battle: World War II Apr 30, 2015 FreeN/A (N/A/81%)200,000 .. 500,00000:00 (00:00)The ArtistocratsSlitherine Ltd.
54 The Age of Decadence Oct 14, 2015 $12.99N/A (N/A/81%)200,000 .. 500,00000:00 (00:00)Iron Tower StudioIron Tower Studio
55 Shadowrun: Hong Kong - Extended Edition Aug 20, 2015 $19.99N/A (N/A/81%)500,000 .. 1,000,00000:00 (00:00)Harebrained SchemesParadox Interactive
56 Downwell Oct 15, 2015 $2.99N/A (N/A/81%)200,000 .. 500,00000:00 (00:00)MoppinDevolver Digital
57 SUNLESS SEA Feb 6, 2015 $18.99N/A (N/A/81%)1,000,000 .. 2,000,00000:00 (00:00)Failbetter GamesFailbetter Games
58 Galactic Civilizations III May 14, 2015 $39.99N/A (N/A/81%)1,000,000 .. 2,000,00000:00 (00:00)Stardock EntertainmentStardock Entertainment
59 Bowl Bound College Football Sep 3, 2015 $19.99N/A (N/A/80%)20,000 .. 50,00000:00 (00:00)Grey Dog SoftwareViva Meda
60 Circa Infinity Sep 9, 2015 $11.99N/A (N/A/80%)20,000 .. 50,00000:00 (00:00)Kenny SunKenny Sun
61 Company of Heroes 2 - The British Forces Sep 2, 2015 $12.99N/A (N/A/80%)100,000 .. 200,00000:00 (00:00)Relic Entertainment, Feral Interactive (Mac), Feral Interactive (Linux)SEGA, Feral Interactive (Mac), Feral Interactive (Linux)
62 Penarium Sep 22, 2015 $9.99N/A (N/A/80%)50,000 .. 100,00000:00 (00:00)Self Made MiracleTeam17 Digital Ltd
63 Volume Aug 18, 2015 $19.99N/A (N/A/80%)50,000 .. 100,00000:00 (00:00)Bithell GamesBithell Games
64 DARIUSBURST Chronicle Saviours Dec 3, 2015 $49.99N/A (N/A/80%)100,000 .. 200,00000:00 (00:00)PyramidKomodo, KADOKAWA CORP., TAITO CORP.
65 The Book of Unwritten Tales 2 Feb 19, 2015 $29.99N/A (N/A/80%)50,000 .. 100,00000:00 (00:00)KING ArtTHQ Nordic
66 Odallus: The Dark Call Jul 15, 2015 $9.99N/A (N/A/80%)50,000 .. 100,00000:00 (00:00)JoyMasherJoyMasher
67 2064: Read Only Memories Oct 6, 2015 $19.99N/A (N/A/80%)200,000 .. 500,00000:00 (00:00)MidBoss, LLC.MidBoss, LLC.
68 Dropsy Sep 10, 2015 $9.99N/A (N/A/80%)50,000 .. 100,00000:00 (00:00)Tendershoot, A Jolly CorpseDevolver Digital
69 The Legend of Heroes: Trails in the Sky SC Oct 29, 2015 $29.99N/A (N/A/80%)200,000 .. 500,00000:00 (00:00)Nihon FalcomXSEED Games, Marvelous USA, Inc.
70 Guns, Gore & Cannoli Apr 30, 2015 $9.99N/A (N/A/80%)100,000 .. 200,00001:45 (00:35)Rogueside, ClaeysbrothersRogueside
71 Rampage Knights Sep 4, 2015 $12.99N/A (N/A/80%)200,000 .. 500,00000:00 (00:00)Rake in GrassRake in Grass
72 Lovers in a Dangerous Spacetime Sep 9, 2015 $14.99N/A (N/A/80%)200,000 .. 500,00001:08 (00:22)Asteroid BaseAsteroid Base
73 ArcheAge Mar 26, 2015 FreeN/A (N/A/80%)1,000,000 .. 2,000,00000:00 (00:00)XLGAMESKakao Games Europe B.V.
74 Card Hunter Jul 13, 2015 FreeN/A (N/A/80%)1,000,000 .. 2,000,00000:00 (00:00)The Knights of UnityThe Knights of Unity
75 Axiom Verge May 14, 2015 $19.99N/A (N/A/80%)200,000 .. 500,00000:00 (00:00)Thomas Happ Games LLCThomas Happ Games LLC
76 Total War: ATTILA Feb 17, 2015 $44.99N/A (N/A/80%)2,000,000 .. 5,000,00026:29 (17:39)CREATIVE ASSEMBLYSEGA
77 Elite Dangerous Apr 2, 2015 $29.99N/A (N/A/80%)2,000,000 .. 5,000,00007:42 (09:30)Frontier DevelopmentsFrontier Developments
78 Frozen Cortex Feb 19, 2015 $24.99N/A (N/A/79%)20,000 .. 50,00000:00 (00:00)Mode 7Mode 7
79 Else Heart.Break() Sep 24, 2015 $24.99N/A (N/A/79%)200,000 .. 500,00000:00 (00:00)Erik Svedäng, El Huervo / Niklas Åkerblad, Tobias Sjögren, Oscar "Ratvader" Rydelius, Johannes GotlénErik Svedäng AB
80 The Magic Circle Jul 9, 2015 $19.99N/A (N/A/79%)100,000 .. 200,00000:00 (00:00)QuestionQuestion
81 STASIS Aug 31, 2015 $9.99N/A (N/A/79%)200,000 .. 500,00000:00 (00:00)THE BROTHERHOODTHE BROTHERHOOD
82 Assault Android Cactus+ Sep 23, 2015 $19.99N/A (N/A/79%)200,000 .. 500,00000:00 (00:00)Witch BeamWitch Beam
83 BADLAND: Game of the Year Edition May 26, 2015 $9.99N/A (N/A/79%)200,000 .. 500,00000:00 (00:00)FrogmindFrogmind
84 iRacing Jan 12, 2015 N/AN/A (N/A/79%)200,000 .. 500,00000:00 (00:00)iRacing.com Motorsport Simulations, iRacingiRacing.com Motorsport Simulations, iRacing
85 The Incredible Adventures of Van Helsing: Final Cut Nov 6, 2015 $44.99N/A (N/A/79%)500,000 .. 1,000,00000:00 (00:00)NeocoreGamesNeocoreGames
86 Jotun: Valhalla Edition Sep 29, 2015 $14.99N/A (N/A/79%)2,000,000 .. 5,000,00000:00 (00:00)Thunder Lotus GamesThunder Lotus Games
87 Warhammer: End Times - Vermintide Oct 23, 2015 $29.99N/A (N/A/79%)1,000,000 .. 2,000,00000:00 (00:00)FatsharkFatshark
88 DARK SOULS II: Scholar of the First Sin Apr 1, 2015 $29.99N/A (N/A/79%)2,000,000 .. 5,000,00005:25 (07:58)FromSoftware, IncBandai Namco Entertainment, FromSoftware, Inc
89 AR-K: The Great Escape Jul 14, 2015 $7.99N/A (N/A/78%)0 .. 20,00000:00 (00:00)GATO STUDIOGATO STUDIO
90 Avernum 2: Crystal Souls Jan 14, 2015 $5.99N/A (N/A/78%)50,000 .. 100,00000:00 (00:00)Spiderweb SoftwareSpiderweb Software
91 GALAK-Z Oct 29, 2015 $19.99N/A (N/A/78%)200,000 .. 500,00000:00 (00:00)17-BIT17-BIT
92 Mushroom 11 Oct 15, 2015 $14.99N/A (N/A/78%)100,000 .. 200,00000:00 (00:00)UntameUntame
93 Apotheon Feb 3, 2015 $14.99N/A (N/A/78%)200,000 .. 500,00000:00 (00:00)AlientrapAlientrap
94 Human Resource Machine Oct 15, 2015 $14.99N/A (N/A/78%)500,000 .. 1,000,00000:00 (00:00)Tomorrow CorporationTomorrow Corporation
95 Hand of Fate Feb 17, 2015 $19.99N/A (N/A/78%)500,000 .. 1,000,00000:00 (00:00)Defiant DevelopmentDefiant Development
96 RUNNING WITH RIFLES Apr 2, 2015 $14.99N/A (N/A/78%)1,000,000 .. 2,000,00004:21 (04:13)Osumia GamesOsumia Games
97 Three Fourths Home: Extended Edition Mar 20, 2015 $0.74N/A (N/A/77%)20,000 .. 50,00000:00 (00:00)[bracket]gamesDigerati
98 Pix the Cat Jan 29, 2015 $4.99N/A (N/A/77%)100,000 .. 200,00000:00 (00:00)PastagamesFocus Entertainment
99 Interloper May 21, 2015 FreeN/A (N/A/77%)20,000 .. 50,00000:00 (00:00)Monogon GamesMonogon Games
100 Lords of the Realm II Dec 3, 2015 $2.99N/A (N/A/77%)50,000 .. 100,00000:00 (00:00)Impressions GamesRebellion
101 Deathtrap Feb 4, 2015 $19.99N/A (N/A/77%)200,000 .. 500,00000:00 (00:00)NeocoreGamesNeocoreGames
102 Aviary Attorney Dec 21, 2015 $14.99N/A (N/A/77%)20,000 .. 50,00000:00 (00:00)Sketchy LogicSketchy Logic
103 Grey Goo Jan 23, 2015 $29.99N/A (N/A/77%)200,000 .. 500,00000:00 (00:00)Petroglyph, Six FootSix Foot, Grey Box
104 Tales of Zestiria Oct 19, 2015 $49.99N/A (N/A/77%)500,000 .. 1,000,00000:00 (00:00)BANDAI NAMCO Studio Inc.BANDAI NAMCO Entertainment
105 Mini Metro Nov 6, 2015 $9.99N/A (N/A/77%)500,000 .. 1,000,00000:34 (00:24)Dinosaur Polo ClubDinosaur Polo Club
106 Evolve Stage 2 Feb 10, 2015 N/AN/A (N/A/77%)5,000,000 .. 10,000,00001:40 (00:33)Turtle Rock Studios2K
107 Gunpowder Jul 8, 2015 $1.99N/A (N/A/76%)20,000 .. 50,00000:00 (00:00)Rogue Rocket GamesRogue Rocket Games
108 Galacide Jul 28, 2015 $9.99N/A (N/A/76%)20,000 .. 50,00000:00 (00:00)Puny HumanPuny Human
109 Luckslinger Jul 16, 2015 $9.99N/A (N/A/76%)20,000 .. 50,00000:00 (00:00)DuckbridgeDuckbridge
110 JumpJet Rex Apr 21, 2015 $9.99N/A (N/A/76%)50,000 .. 100,00000:00 (00:00)TreeFortress GamesTreeFortress Games
111 Concrete Jungle Sep 23, 2015 $6.99N/A (N/A/76%)100,000 .. 200,00000:00 (00:00)ColePowered GamesColePowered Games
112 Ys VI: The Ark of Napishtim Apr 28, 2015 $19.99N/A (N/A/76%)100,000 .. 200,00000:00 (00:00)Nihon FalcomXSEED Games, Marvelous USA, Inc.
113 Castle In The Darkness Feb 5, 2015 $9.99N/A (N/A/76%)50,000 .. 100,00000:00 (00:00)Matt Kap, Nicalis, Inc.Nicalis, Inc.
114 Overture Jan 1, 2015 $0.49N/A (N/A/76%)200,000 .. 500,00000:00 (00:00)Black Shell GamesPlug In Digital
115 Pathologic Classic HD Oct 29, 2015 $1.29N/A (N/A/76%)100,000 .. 200,00000:00 (00:00)Ice-Pick Lodge, General ArcadeGood Shepherd Entertainment
116 STAR WARS Battlefront Nov 16, 2015 $4.99N/A (N/A/76%)500,000 .. 1,000,00000:00 (00:00)DICEElectronic Arts
117 Audiosurf 2 May 26, 2015 $14.99N/A (N/A/76%)200,000 .. 500,00000:00 (00:00)Dylan FittererDylan Fitterer
118 Blood Bowl 2 Sep 22, 2015 $19.99N/A (N/A/76%)500,000 .. 1,000,00000:00 (00:00)Cyanide StudiosNacon
119 DISTRAINT: Deluxe Edition Oct 21, 2015 $4.99N/A (N/A/76%)2,000,000 .. 5,000,00000:00 (00:00)Jesse MakkonenJesse Makkonen
120 Wolfenstein: The Old Blood May 4, 2015 $19.99N/A (N/A/76%)500,000 .. 1,000,00000:00 (00:00)MachineGamesBethesda Softworks
121 Extreme Exorcism Sep 23, 2015 $5.99N/A (N/A/75%)0 .. 20,00000:00 (00:00)Golden Ruby GamesRipstone
122 Ravenmark: Scourge of Estellion Sep 10, 2015 $14.99N/A (N/A/75%)20,000 .. 50,00000:00 (00:00)Witching Hour StudiosSlitherine Ltd.
123 Serpent in the Staglands May 28, 2015 $13.99N/A (N/A/75%)50,000 .. 100,00000:00 (00:00)Whalenought StudiosWhalenought Studios
124 Gravity Ghost Jan 26, 2015 $14.99N/A (N/A/75%)20,000 .. 50,00000:00 (00:00)Ivy GamesIvy Games
125 Ironcast Mar 26, 2015 $14.99N/A (N/A/75%)50,000 .. 100,00000:00 (00:00)DreadbitRipstone
126 MIND: Path to Thalamus Enhanced Edition Nov 3, 2015 $14.99N/A (N/A/75%)100,000 .. 200,00000:00 (00:00)Pantumaca Barcelona, @CarlosGameDev, Dani Navarro, Luka NietoTalking About Media
127 Rebuild 3: Gangs of Deadsville May 29, 2015 $9.99N/A (N/A/75%)200,000 .. 500,00000:00 (00:00)Northway Games, Sarah NorthwayNorthway Games
128 Satellite Reign Aug 28, 2015 $29.99N/A (N/A/75%)1,000,000 .. 2,000,00000:11 (00:03)5 Lives Studios5 Lives Studios
129 Chroma Squad Apr 30, 2015 $14.99N/A (N/A/75%)100,000 .. 200,00000:00 (00:00)Behold StudiosBehold Studios
130 Grow Home Feb 4, 2015 $7.99N/A (N/A/75%)200,000 .. 500,00000:04 (00:01)Reflections, a Ubisoft StudioUbisoft
131 Victor Vran ARPG Jul 24, 2015 $19.99N/A (N/A/75%)500,000 .. 1,000,00000:00 (00:00)Haemimont GamesHaemimont Games, EuroVideo Medien
132 Armello Sep 1, 2015 $19.99N/A (N/A/75%)200,000 .. 500,00000:00 (00:00)League of GeeksLeague of Geeks
133 A Pixel Story Mar 30, 2015 $11.99N/A (N/A/74%)0 .. 20,00000:00 (00:00)Lamplight Studios
134 Ceres Oct 16, 2015 $2.99N/A (N/A/74%)20,000 .. 50,00000:00 (00:00)Jötunn GamesIceberg Interactive
135 Niko: Through The Dream Jul 10, 2015 $9.99N/A (N/A/74%)0 .. 20,00000:00 (00:00)Studio PaintStudio Paint
136 Zombie Vikings Dec 7, 2015 $11.99N/A (N/A/74%)20,000 .. 50,00000:00 (00:00)Zoink GamesZoink Games
137 Crookz - The Big Heist Aug 25, 2015 $9.99N/A (N/A/74%)20,000 .. 50,00000:00 (00:00)Skilltree StudiosKalypso Media Digital
138 Warhammer 40,000: Deathwatch - Enhanced Edition Oct 16, 2015 N/AN/A (N/A/74%)50,000 .. 100,00000:00 (00:00)Rodeo GamesRodeo Games
139 Blackguards 2 Jan 20, 2015 $9.99N/A (N/A/74%)100,000 .. 200,00000:00 (00:00)Daedalic EntertainmentDaedalic Entertainment
140 Action Henk May 11, 2015 $14.99N/A (N/A/74%)100,000 .. 200,00000:00 (00:00)RageSquidRageSquid
141 Oceanhorn: Monster of Uncharted Seas Mar 17, 2015 $14.99N/A (N/A/74%)200,000 .. 500,00000:00 (00:00)Cornfox & Brothers Ltd.Cornfox & Brothers Ltd.
142 The Red Solstice Jul 9, 2015 $9.99N/A (N/A/74%)1,000,000 .. 2,000,00000:00 (00:00)IronwardIronward
143 Anna's Quest Jul 2, 2015 $19.99N/A (N/A/74%)200,000 .. 500,00000:00 (00:00)Daedalic EntertainmentDaedalic Entertainment
144 12 is Better Than 6 Nov 20, 2015 $9.99N/A (N/A/74%)500,000 .. 1,000,00000:00 (00:00)Ink Stains GamesHypeTrain Digital
145 Mordheim: City of the Damned Nov 19, 2015 $1.99N/A (N/A/74%)500,000 .. 1,000,00000:00 (00:00)Rogue FactorNacon
146 Titan Souls Apr 14, 2015 $14.99N/A (N/A/74%)500,000 .. 1,000,00000:16 (00:05)Acid NerveDevolver Digital
147 Assassin’s Creed Rogue Mar 9, 2015 $19.99N/A (N/A/74%)1,000,000 .. 2,000,00005:39 (03:46)Ubisoft Sofia, Ubisoft KievUbisoft
148 Kingdom: Classic Oct 21, 2015 FreeN/A (N/A/74%)2,000,000 .. 5,000,00000:00 (00:00)Noio, LicoriceRaw Fury
149 Assassin's Creed Syndicate Nov 18, 2015 $29.99N/A (N/A/74%)1,000,000 .. 2,000,00001:17 (00:25)Ubisoft Quebec, in collaboration with Ubisoft Annecy, Bucharest, Kiev, Montreal, Montpellier, Shanghai, Singapore, Sofia, Toronto studiosUbisoft
150 Just Cause 3 Nov 30, 2015 $19.99N/A (N/A/74%)2,000,000 .. 5,000,00005:07 (03:24)Avalanche StudiosSquare Enix
151 Lemma May 12, 2015 $14.99N/A (N/A/73%)20,000 .. 50,00000:00 (00:00)Helvetica ScenarioHelvetica Scenario
152 0RBITALIS May 28, 2015 $9.99N/A (N/A/73%)50,000 .. 100,00000:00 (00:00)Alan ZucconiMastertronic
153 Blues and Bullets Jul 23, 2015 $4.99N/A (N/A/73%)100,000 .. 200,00000:00 (00:00)A Crowd of MonstersA Crowd of Monsters
154 MASSIVE CHALICE Jun 1, 2015 $6.79N/A (N/A/73%)50,000 .. 100,00000:00 (00:00)Double Fine ProductionsDouble Fine Productions
155 Thea: The Awakening Nov 20, 2015 $6.79N/A (N/A/73%)200,000 .. 500,00000:00 (00:00)MuHa GamesMuHa Games
156 Hard West Nov 18, 2015 $19.99N/A (N/A/73%)200,000 .. 500,00000:00 (00:00)CreativeForge GamesGood Shepherd Entertainment
157 Mad Max Sep 1, 2015 $19.99N/A (N/A/73%)2,000,000 .. 5,000,00000:46 (00:15)Avalanche StudiosWarner Bros. Games, Warner Bros. Interactive Entertainment
158 Call of Duty: Black Ops III Nov 5, 2015 $19.79N/A (N/A/73%)5,000,000 .. 10,000,00002:27 (01:30)Treyarch, Aspyr (Mac)Activision, Aspyr (Mac)
159 LOST ORBIT May 12, 2015 $11.99N/A (N/A/72%)0 .. 20,00000:00 (00:00)PixelNAUTSPixelNAUTS
160 Homesick May 28, 2015 $14.99N/A (N/A/72%)50,000 .. 100,00000:00 (00:00)Lucky PauseLucky Pause
161 Convoy Apr 21, 2015 $14.99N/A (N/A/72%)200,000 .. 500,00000:00 (00:00)Convoy GamesIndietopia Games
162 Warhammer 40,000: Regicide Sep 8, 2015 N/AN/A (N/A/72%)200,000 .. 500,00000:00 (00:00)Hammerfall PublishingHammerfall Publishing
163 Way of the Samurai 4 Jul 23, 2015 $24.99N/A (N/A/72%)200,000 .. 500,00000:00 (00:00)ACQUIRE Corp.Spike Chunsoft Co., Ltd.
164 Big Pharma Aug 27, 2015 $24.99N/A (N/A/72%)200,000 .. 500,00000:21 (00:07)Twice CircledPositech Games
165 Impossible Creatures Steam Edition Nov 11, 2015 $2.49N/A (N/A/72%)100,000 .. 200,00000:00 (00:00)Relic Entertainment, THQ NordicTHQ Nordic
166 Guild of Dungeoneering Ultimate Edition Jul 14, 2015 $19.99N/A (N/A/72%)200,000 .. 500,00000:00 (00:00)GambrinousGambrinous
167 Tormentum - Dark Sorrow Mar 4, 2015 $11.99N/A (N/A/72%)100,000 .. 200,00000:00 (00:00)OhNoo StudioOhNoo Studio
168 Anno 2205 Nov 3, 2015 $39.99N/A (N/A/72%)500,000 .. 1,000,00000:00 (00:00)Blue ByteUbisoft
169 UnderRail Dec 18, 2015 $14.99N/A (N/A/72%)200,000 .. 500,00000:00 (00:00)Stygian SoftwareStygian Software
170 LEGO Jurassic World Jun 11, 2015 $19.99N/A (N/A/72%)500,000 .. 1,000,00000:00 (00:00)TT Games LtdWarner Bros. Interactive Entertainment
171 Hyperdimension Neptunia Re;Birth1 Jan 28, 2015 $5.24N/A (N/A/72%)200,000 .. 500,00000:00 (00:00)IDEA FACTORY Co., Ltd., COMPILE HEART Co., Ltd., FELISTELLA Co., Ltd.Idea Factory International, Inc., IDEA FACTORY Co., Ltd.
172 Block N Load Apr 30, 2015 FreeN/A (N/A/72%)2,000,000 .. 5,000,00000:00 (00:00)Toadman Interactive, ArtplantToadman Interactive
173 Zombie Army Trilogy Mar 6, 2015 $44.99N/A (N/A/72%)1,000,000 .. 2,000,00000:08 (00:02)RebellionRebellion
174 Dyscourse Mar 25, 2015 $14.99N/A (N/A/71%)50,000 .. 100,00000:00 (00:00)Owlchemy LabsOwlchemy Labs
175 Sublevel Zero Redux Oct 8, 2015 $14.99N/A (N/A/71%)20,000 .. 50,00000:00 (00:00)SigtrapSigtrap
176 Cibele Nov 2, 2015 $8.99N/A (N/A/71%)50,000 .. 100,00000:00 (00:00)Star Maid GamesN/A
177 You Must Build A Boat Jun 4, 2015 $4.99N/A (N/A/71%)100,000 .. 200,00000:00 (00:00)EightyEightGamesEightyEightGames
178 Legends of Eisenwald Jul 2, 2015 $19.99N/A (N/A/71%)100,000 .. 200,00000:00 (00:00)Aterdux EntertainmentAterdux Entertainment
179 Battlefield Hardline Mar 16, 2015 $39.99N/A (N/A/71%)200,000 .. 500,00000:00 (00:00)DICEElectronic Arts
180 Act of Aggression - Reboot Edition Sep 2, 2015 $29.99N/A (N/A/71%)100,000 .. 200,00000:00 (00:00)Eugen SystemsEugen Systems
181 Keep Talking and Nobody Explodes Oct 8, 2015 $14.99N/A (N/A/71%)1,000,000 .. 2,000,00001:14 (00:49)Steel Crate GamesSteel Crate Games
182 The Escapists Feb 13, 2015 $6.24N/A (N/A/71%)1,000,000 .. 2,000,00000:00 (00:00)Mouldy Toof StudiosTeam17
183 Harold Feb 12, 2015 $9.99N/A (N/A/70%)0 .. 20,00000:00 (00:00)Moon Spider StudioMoon Spider Studio
184 Bunker - The Underground Game May 21, 2015 $3.99N/A (N/A/70%)0 .. 20,00000:00 (00:00)Nightly Studios2tainment GmbH
185 Shiftlings Mar 3, 2015 N/AN/A (N/A/70%)50,000 .. 100,00000:00 (00:00)Rock Pocket GamesSierra
186 A Druid's Duel Feb 25, 2015 $7.99N/A (N/A/70%)20,000 .. 50,00000:00 (00:00)Thoughtshelter GamesSurprise Attack
187 Steel Armor: Blaze of War Mar 5, 2015 $29.99N/A (N/A/70%)20,000 .. 50,00000:00 (00:00)GraviteamGraviteam
188 Shadow Blade: Reload Aug 10, 2015 $9.99N/A (N/A/70%)20,000 .. 50,00000:00 (00:00)Dead MageDead Mage
189 The Swindle Jul 28, 2015 $14.99N/A (N/A/70%)50,000 .. 100,00000:00 (00:00)Size Five GamesSize Five Games
190 NOBUNAGA'S AMBITION: Sphere of Influence Sep 1, 2015 $59.99N/A (N/A/70%)50,000 .. 100,00000:00 (00:00)KOEI TECMO GAMES CO., LTD.KOEI TECMO GAMES CO., LTD.
191 Dead Synchronicity: Tomorrow Comes Today Apr 10, 2015 $9.99N/A (N/A/70%)100,000 .. 200,00000:00 (00:00)Fictiorama StudiosDaedalic Entertainment
192 StarDrive 2 Apr 9, 2015 $4.99N/A (N/A/70%)50,000 .. 100,00000:00 (00:00)Zero Sum GamesIceberg Interactive
193 RONIN Jun 30, 2015 $12.99N/A (N/A/70%)100,000 .. 200,00000:00 (00:00)Tomasz WacławekDevolver Digital
194 Lakeview Cabin Collection Mar 25, 2015 $9.99N/A (N/A/70%)200,000 .. 500,00000:00 (00:00)Roope TamminenRoope Tamminen
195 Dungeons 2 Apr 24, 2015 $19.99N/A (N/A/70%)1,000,000 .. 2,000,00000:00 (00:00)Realmforge StudiosKalypso Media Digital
196 Fran Bow Aug 27, 2015 $14.99N/A (N/A/70%)500,000 .. 1,000,00000:00 (00:00)Killmonday Games ABKillmonday Games AB
197 Verdun Apr 28, 2015 $19.99N/A (N/A/70%)1,000,000 .. 2,000,00002:02 (00:40)M2H, Blackmill GamesM2H
198 Mayan Death Robots Nov 20, 2015 $6.99N/A (N/A/69%)0 .. 20,00000:00 (00:00)Sileni Studios
199 Oblitus Feb 27, 2015 $14.99N/A (N/A/69%)20,000 .. 50,00000:00 (00:00)Connor UllmannAdult Swim Games
200 Star Hammer: The Vanguard Prophecy Jun 4, 2015 $19.99N/A (N/A/69%)0 .. 20,00000:00 (00:00)Black Lab GamesSlitherine Ltd.
201 Lumini Sep 3, 2015 $12.99N/A (N/A/69%)0 .. 20,00000:00 (00:00)Speelbaars2Awesome Studio
202 Freaking Meatbags Feb 4, 2015 $1.99N/A (N/A/69%)20,000 .. 50,00000:00 (00:00)Wild FactorPlug In Digital
203 The Coma: Cutting Class Oct 19, 2015 N/AN/A (N/A/69%)0 .. 20,00000:00 (00:00)Devespresso GamesDevespresso Games
204 Clandestine Nov 5, 2015 $19.99N/A (N/A/69%)50,000 .. 100,00000:00 (00:00)Logic ArtistsLogic Artists
205 Albert and Otto Oct 28, 2015 $4.99N/A (N/A/69%)200,000 .. 500,00000:00 (00:00)K Bros GamesK Bros Games
206 Bloodsports.TV Mar 30, 2015 $9.99N/A (N/A/69%)100,000 .. 200,00000:00 (00:00)Toadman Interactive, FatsharkFatshark
207 Valhalla Hills Dec 2, 2015 $0.69N/A (N/A/69%)200,000 .. 500,00000:00 (00:00)Funatics SoftwareDaedalic Entertainment
208 Holy Potatoes! A Weapon Shop?! Jul 13, 2015 $9.99N/A (N/A/69%)200,000 .. 500,00000:00 (00:00)Daylight StudiosDaedalic Entertainment, Daylight Studios
209 FINAL FANTASY TYPE-0 HD Aug 18, 2015 $29.99N/A (N/A/69%)200,000 .. 500,00000:00 (00:00)Square EnixSquare Enix
210 Train Valley Sep 16, 2015 $9.99N/A (N/A/69%)200,000 .. 500,00000:00 (00:00)Alexey Davydov, Sergey Dvoynikov, Timofey ShargorodskiyFlazm, META Publishing
211 DEAD OR ALIVE 5 Last Round: Core Fighters Mar 30, 2015 FreeN/A (N/A/69%)500,000 .. 1,000,00000:50 (00:33)Team NINJA, KOEI TECMO GAMES CO., LTD.KOEI TECMO GAMES CO., LTD.
212 SimplePlanes Dec 17, 2015 $12.99N/A (N/A/69%)500,000 .. 1,000,00000:00 (00:00)Jundroo, LLCJundroo, LLC
213 Paperbound Mar 31, 2015 $9.99N/A (N/A/68%)0 .. 20,00000:00 (00:00)Dissident LogicDissident Logic
214 Parallax Mar 10, 2015 $4.99N/A (N/A/68%)0 .. 20,00000:00 (00:00)Toasty GamesToasty Games
215 Nova-111 Aug 25, 2015 $4.99N/A (N/A/68%)20,000 .. 50,00000:00 (00:00)Funktronic LabsFunktronic Labs
216 Pixel Galaxy Oct 2, 2015 $2.99N/A (N/A/68%)20,000 .. 50,00000:00 (00:00)Serenity ForgeSerenity Forge
217 Warlocks vs Shadows Aug 19, 2015 $13.99N/A (N/A/68%)50,000 .. 100,00000:00 (00:00)Frozen DistrictONE MORE LEVEL
218 White Night Mar 3, 2015 $3.74N/A (N/A/68%)0 .. 20,00000:00 (00:00)OSome StudioPlug In Digital
219 Master Spy Sep 8, 2015 $9.99N/A (N/A/68%)50,000 .. 100,00000:00 (00:00)TURBOGUNTURBOGUN
220 The Masterplan Jun 4, 2015 $19.99N/A (N/A/68%)50,000 .. 100,00000:00 (00:00)Shark PunchShark Punch
221 Masochisia Oct 9, 2015 $7.99N/A (N/A/68%)20,000 .. 50,00000:00 (00:00)OldbloodOldblood
222 In Between Aug 21, 2015 $11.99N/A (N/A/68%)50,000 .. 100,00000:00 (00:00)GentlymadAssemble Entertainment
223 Inside My Radio May 11, 2015 $0.99N/A (N/A/68%)50,000 .. 100,00000:00 (00:00)Seaven StudioIceberg Interactive
224 The Charnel House Trilogy Apr 16, 2015 $5.99N/A (N/A/68%)50,000 .. 100,00000:00 (00:00)Owl CaveOwl Cave
225 FIM Speedway Grand Prix 15 Nov 30, 2015 N/AN/A (N/A/68%)100,000 .. 200,00000:00 (00:00)SoftPlanetSoftPlanet
226 PixelJunk Nom Nom Galaxy Aug 3, 2015 $9.99N/A (N/A/68%)100,000 .. 200,00000:00 (00:00)Q-Games Ltd.Q-Games Ltd.
227 INK Aug 5, 2015 $4.99N/A (N/A/68%)200,000 .. 500,00000:00 (00:00)ZackBellGamesZackBellGames
228 RIDE Mar 27, 2015 $14.99N/A (N/A/68%)100,000 .. 200,00000:00 (00:00)Milestone S.r.l.Milestone S.r.l.
229 Five Nights at Freddy's 3 Mar 2, 2015 $7.99N/A (N/A/68%)500,000 .. 1,000,00000:00 (00:00)Scott CawthonScott Cawthon
230 Car Mechanic Simulator 2015 Apr 23, 2015 $1.99N/A (N/A/68%)500,000 .. 1,000,00000:00 (00:00)Red Dot GamesPlayWay S.A.
231 ARMED SEVEN Mar 6, 2015 $4.99N/A (N/A/67%)0 .. 20,00000:00 (00:00)ASTRO PORTHenteko Doujin
232 Uncanny Valley Apr 23, 2015 $9.99N/A (N/A/67%)50,000 .. 100,00000:00 (00:00)Cowardly CreationsCowardly Creations
233 Last Word May 8, 2015 $9.99N/A (N/A/67%)20,000 .. 50,00000:00 (00:00)Twelve TilesKomodo
234 Skyshine's BEDLAM Sep 16, 2015 N/AN/A (N/A/67%)100,000 .. 200,00000:00 (00:00)Skyshine GamesVersus Evil
235 Ghost Pirates of Vooju Island Jan 27, 2015 $9.99N/A (N/A/66%)20,000 .. 50,00000:00 (00:00)Autumn MoonViva Media
236 Swords and Sorcery - Underworld - Definitive Edition Dec 15, 2015 $9.99N/A (N/A/66%)50,000 .. 100,00000:00 (00:00)OlderBytesOlderBytes
237 Oscura: Lost Light Feb 24, 2015 $6.99N/A (N/A/66%)20,000 .. 50,00000:00 (00:00)Chocolate Liberation FrontSurprise Attack
238 ROOMS: The Toymaker's Mansion May 1, 2015 $14.99N/A (N/A/66%)0 .. 20,00000:00 (00:00)HandMade GameHandMade Game
239 FIVE: Guardians of David Nov 24, 2015 $9.99N/A (N/A/66%)50,000 .. 100,00000:00 (00:00)Kingdom GamesKingdom Games
240 Hot Tin Roof: The Cat That Wore A Fedora Feb 20, 2015 $14.99N/A (N/A/66%)100,000 .. 200,00000:00 (00:00)Glass Bottom GamesGlass Bottom Games
241 Albedo: Eyes from Outer Space Apr 10, 2015 $14.99N/A (N/A/66%)50,000 .. 100,00000:00 (00:00)Z4G0 and Ivan Venturi ProductionsMerge Publishing
242 Sunset May 21, 2015 $19.99N/A (N/A/66%)0 .. 20,00000:00 (00:00)Tale of TalesTale of Tales
243 Rogue State Oct 16, 2015 $7.99N/A (N/A/66%)20,000 .. 50,00000:00 (00:00)LRDGames, Inc.LRDGames, Inc.
244 Citizens of Earth Jan 20, 2015 $14.99N/A (N/A/66%)100,000 .. 200,00000:00 (00:00)Eden IndustriesSEGA
245 Planet of the Eyes Aug 24, 2015 $9.99N/A (N/A/66%)100,000 .. 200,00000:00 (00:00)CococucumberCococucumber
246 The Escapists: The Walking Dead Sep 30, 2015 $4.99N/A (N/A/66%)50,000 .. 100,00000:00 (00:00)Team17 Digital LtdTeam17 Digital Ltd
247 Fairy Fencer F Aug 4, 2015 $9.99N/A (N/A/66%)200,000 .. 500,00000:00 (00:00)Idea Factory, Compile HeartIdea Factory International
248 Saints Row: Gat out of Hell Jan 20, 2015 $14.99N/A (N/A/66%)500,000 .. 1,000,00000:00 (00:00)Deep Silver Volition, High Voltage SoftwareDeep Silver
249 Lords of the Realm III Dec 3, 2015 $4.99N/A (N/A/65%)0 .. 20,00000:00 (00:00)Impressions GamesRebellion
250 Slow Down, Bull Apr 20, 2015 $1.99N/A (N/A/65%)0 .. 20,00000:00 (00:00)Insomniac GamesInsomniac Games
251 Heroes of Normandie Oct 1, 2015 $29.99N/A (N/A/65%)20,000 .. 50,00000:00 (00:00)Cat RabbitSlitherine Ltd.
252 Stairs Sep 28, 2015 $12.99N/A (N/A/65%)20,000 .. 50,00000:00 (00:00)GreyLight EntertainmentDigital Tribe
253 War, the Game Jan 12, 2015 $6.99N/A (N/A/65%)20,000 .. 50,00000:00 (00:00)GabberGames.comGabberGames.com
254 FEIST Jul 23, 2015 $9.99N/A (N/A/65%)20,000 .. 50,00000:00 (00:00)Bits & BeastsFinji
255 Journey To The Center Of The Earth Sep 23, 2015 N/AN/A (N/A/65%)500,000 .. 1,000,00000:00 (00:00)InSaynInSayn
256 WRC 5 FIA World Rally Championship Oct 8, 2015 $9.99N/A (N/A/65%)50,000 .. 100,00000:00 (00:00)KT RacingNacon
257 Lethis - Path of Progress Jun 25, 2015 $19.99N/A (N/A/65%)100,000 .. 200,00000:00 (00:00)Triskell InteractiveTriskell Interactive
258 Cradle Jul 24, 2015 $12.99N/A (N/A/65%)100,000 .. 200,00000:00 (00:00)Flying Cafe for SemianimalsFlying Cafe for Semianimals
259 ZOMBI Aug 18, 2015 $19.99N/A (N/A/65%)100,000 .. 200,00000:00 (00:00)Straight RightUbisoft
260 Heroes of Might & Magic III - HD Edition Jan 29, 2015 $14.99N/A (N/A/65%)1,000,000 .. 2,000,00002:34 (00:51)DotemuUbisoft Entertainment
261 Legions of Steel Jul 16, 2015 $19.99N/A (N/A/64%)0 .. 20,00000:00 (00:00)Studio NyxSlitherine Ltd.
262 Legend of Kay Anniversary Jul 27, 2015 $19.99N/A (N/A/64%)20,000 .. 50,00000:00 (00:00)KAIKO, Neon StudiosTHQ Nordic
263 Fire: Ungh’s Quest Apr 9, 2015 $9.99N/A (N/A/64%)100,000 .. 200,00000:00 (00:00)Daedalic EntertainmentDaedalic Entertainment
264 The Incredible Adventures of Van Helsing III May 22, 2015 $14.99N/A (N/A/64%)200,000 .. 500,00000:00 (00:00)NeocoreGamesNeocoreGames
265 Oh...Sir! Prototype Dec 21, 2015 N/AN/A (N/A/64%)100,000 .. 200,00000:00 (00:00)Vile MonarchGood Shepherd Entertainment
266 Sid Meier's Starships Mar 12, 2015 $14.99N/A (N/A/64%)100,000 .. 200,00000:00 (00:00)Firaxis Games2K
267 Phantom Breaker: Battle Grounds Jan 23, 2015 $11.99N/A (N/A/64%)200,000 .. 500,00000:00 (00:00)MAGES. Inc.Degica
268 Kholat Jun 9, 2015 $2.99N/A (N/A/64%)2,000,000 .. 5,000,00000:00 (00:00)IMGN.PROIMGN.PRO
269 Party Hard Aug 25, 2015 $9.99N/A (N/A/64%)500,000 .. 1,000,00000:00 (00:00)Pinokl Games, KvertatinyBuild
270 Conflicks - Revolutionary Space Battles Nov 5, 2015 $6.99N/A (N/A/63%)0 .. 20,00000:00 (00:00)Artifice StudioArtifice Studio
271 Pneuma: Breath of Life Feb 27, 2015 $19.99N/A (N/A/63%)0 .. 20,00000:00 (00:00)BULKHEADDeco Digital, Bevel Studios
272 MISSING: An Interactive Thriller - Episode One May 25, 2015 N/AN/A (N/A/63%)50,000 .. 100,00000:00 (00:00)Zandel MediaZandel Media
273 Grand Ages: Medieval Sep 25, 2015 $19.99N/A (N/A/63%)100,000 .. 200,00000:00 (00:00)Gaming Minds StudiosKalypso Media Digital
274 SKYHILL Oct 6, 2015 $9.99N/A (N/A/63%)100,000 .. 200,00000:00 (00:00)MandragoraDaedalic Entertainment
275 Life is Feudal: Your Own Nov 17, 2015 $19.99N/A (N/A/63%)200,000 .. 500,00031:58 (10:39)Bitbox Ltd.Bitbox Ltd.
276 Dirty Bomb Jun 2015 FreeN/A (N/A/63%)5,000,000 .. 10,000,00000:00 (00:00)Splash DamageWarchest Ltd.
277 PONCHO Nov 3, 2015 $5.99N/A (N/A/62%)20,000 .. 50,00000:00 (00:00)Delve InteractiveRising Star Games
278 Euclidean Sep 25, 2015 $4.99N/A (N/A/62%)20,000 .. 50,00000:00 (00:00)Alpha Wave EntertainmentAAD Productions
279 NEON STRUCT May 20, 2015 $17.99N/A (N/A/62%)50,000 .. 100,00000:00 (00:00)Minor Key GamesMinor Key Games
280 Etherium Mar 25, 2015 $9.99N/A (N/A/62%)100,000 .. 200,00000:00 (00:00)Tindalos InteractiveFocus Entertainment
281 Dex May 7, 2015 $19.99N/A (N/A/62%)200,000 .. 500,00000:00 (00:00)Dreadlocks Ltd.Dreadlocks Ltd., Techland, WhisperGames
282 Sym May 7, 2015 $7.99N/A (N/A/61%)0 .. 20,00000:00 (00:00)Atrax GamesMastertronic
283 Disorder Jan 12, 2015 $3.99N/A (N/A/61%)20,000 .. 50,00000:00 (00:00)Swagabyte GamesRooster Teeth Games
284 Traverser Jul 9, 2015 $14.99N/A (N/A/61%)20,000 .. 50,00000:00 (00:00)Gatling Goat StudiosAdult Swim Games
285 Perils of Man Apr 28, 2015 $9.99N/A (N/A/61%)20,000 .. 50,00000:00 (00:00)IF Games, Vertigo GamesVertigo Games
286 Magnetic: Cage Closed May 26, 2015 $0.49N/A (N/A/61%)50,000 .. 100,00000:00 (00:00)Guru GamesGood Shepherd Entertainment
287 Windward May 12, 2015 $9.99N/A (N/A/61%)200,000 .. 500,00000:00 (00:00)Tasharen Entertainment Inc.Tasharen Entertainment Inc.
288 F1 2015 Jul 9, 2015 N/AN/A (N/A/61%)2,000,000 .. 5,000,00000:10 (00:03)Codemasters, Feral Interactive (Linux)Codemasters, Feral Interactive (Linux)
289 Sylvio Jun 5, 2015 $12.99N/A (N/A/60%)0 .. 20,00000:00 (00:00)StroboskopStroboskop
290 A Fistful of Gun Sep 23, 2015 $9.99N/A (N/A/60%)100,000 .. 200,00000:00 (00:00)FarmerGnomeDevolver Digital
291 Beyond Eyes Aug 11, 2015 N/AN/A (N/A/60%)100,000 .. 200,00000:00 (00:00)Tiger and Squid, Team17 Digital LtdTeam17 Digital Ltd
292 Decay: The Mare Feb 13, 2015 $4.99N/A (N/A/60%)100,000 .. 200,00000:00 (00:00)Shining Gate SoftwareDaedalic Entertainment
293 I Am Bread Apr 9, 2015 $12.99N/A (N/A/60%)500,000 .. 1,000,00000:00 (00:00)Bossa StudiostinyBuild
294 Subject 13 May 28, 2015 $9.99N/A (N/A/59%)100,000 .. 200,00000:00 (00:00)Paul CuissetMicroids
295 Cross of the Dutchman Sep 10, 2015 $6.99N/A (N/A/59%)20,000 .. 50,00000:00 (00:00)Triangle StudiosTriangle Studios
296 The Deer God Feb 27, 2015 $14.99N/A (N/A/59%)20,000 .. 50,00000:00 (00:00)Crescent Moon Games, Cinopt StudiosCrescent Moon Games
297 VoidExpanse Apr 2, 2015 $14.99N/A (N/A/59%)50,000 .. 100,00000:00 (00:00)AtomicTorch StudioAtomicTorch Studio
298 Dream Jul 31, 2015 $8.99N/A (N/A/59%)50,000 .. 100,00000:00 (00:00)HyperSlothHyperSloth
299 Blue Estate The Game Apr 8, 2015 $3.24N/A (N/A/59%)50,000 .. 100,00000:00 (00:00)HE SAWHE SAW
300 DiscStorm Aug 20, 2015 $11.99N/A (N/A/58%)0 .. 20,00000:00 (00:00)XMPT GamesXMPT Games
301 The Weaponographist Apr 29, 2015 $9.99N/A (N/A/58%)0 .. 20,00000:00 (00:00)PuubaPuuba
302 Kyn Jul 28, 2015 $19.99N/A (N/A/58%)0 .. 20,00000:00 (00:00)Tangrin EntertainmentVersus Evil
303 Lost Horizon 2 Oct 1, 2015 $14.99N/A (N/A/58%)20,000 .. 50,00000:00 (00:00)Animation Arts GmbHRavenscourt
304 Bard's Gold Aug 14, 2015 $7.99N/A (N/A/58%)0 .. 20,00000:00 (00:00)Pixel LanternPixel Lantern
305 There Came an Echo Feb 24, 2015 $14.99N/A (N/A/58%)20,000 .. 50,00000:00 (00:00)Iridium StudiosIridium Studios
306 Shelter 2 Mar 9, 2015 $24.99N/A (N/A/58%)50,000 .. 100,00000:00 (00:00)Might and DelightMight and Delight
307 Pulse Oct 20, 2015 $7.99N/A (N/A/57%)0 .. 20,00000:00 (00:00)Pixel Pi GamesPixel Pi Games
308 Vector Thrust Jul 2, 2015 $4.49N/A (N/A/57%)200,000 .. 500,00000:00 (00:00)TimeSymmetryIceberg Interactive
309 Armikrog Sep 30, 2015 $9.99N/A (N/A/57%)100,000 .. 200,00000:00 (00:00)Pencil Test StudiosVersus Evil
310 Toren May 11, 2015 $9.99N/A (N/A/57%)100,000 .. 200,00000:00 (00:00)SwordtalesVersus Evil
311 Tengami Jan 15, 2015 $6.99N/A (N/A/57%)100,000 .. 200,00000:00 (00:00)NyamyamNyamyam
312 Supreme League of Patriots Jan 29, 2015 $5.99N/A (N/A/56%)20,000 .. 50,00000:00 (00:00)No Bull IntentionsPhoenix Online Publishing
313 Mushroom Men: Truffle Trouble Mar 10, 2015 $2.99N/A (N/A/55%)0 .. 20,00000:00 (00:00)Red Fly StudioRed Fly Studio
314 Red Game Without A Great Name Dec 9, 2015 N/AN/A (N/A/55%)20,000 .. 50,00000:00 (00:00)iFun4all S.A.iFun4all S.A.
315 Gryphon Knight Epic Aug 20, 2015 $9.99N/A (N/A/55%)20,000 .. 50,00000:00 (00:00)Cyber Rhino StudiosCyber Rhino Studios
316 Calvino Noir Aug 27, 2015 $6.99N/A (N/A/55%)50,000 .. 100,00000:00 (00:00)Calvino NoirCalvino Noir
317 Hektor Mar 13, 2015 $9.99N/A (N/A/55%)200,000 .. 500,00000:00 (00:00)RubyconeRubycone
318 Warhammer Quest Jan 7, 2015 $14.99N/A (N/A/55%)100,000 .. 200,00000:00 (00:00)Rodeo Games, TwistplayChilled Mouse
319 Woolfe - The Red Hood Diaries Mar 17, 2015 $9.99N/A (N/A/55%)200,000 .. 500,00000:00 (00:00)GRINRebellion
320 Son of Nor Apr 27, 2015 $19.99N/A (N/A/54%)20,000 .. 50,00000:00 (00:00)stillalive studiosViva Media
321 Hatoful Boyfriend: Holiday Star Dec 5, 2015 $9.99N/A (N/A/54%)20,000 .. 50,00000:00 (00:00)MediatonicEpic Games
322 Bedlam Oct 13, 2015 N/AN/A (N/A/54%)100,000 .. 200,00000:00 (00:00)RedBedlamKISS ltd
323 Red Goddess: Inner World Sep 1, 2015 $9.99N/A (N/A/53%)0 .. 20,00000:00 (00:00)Yanim StudioYanim Studio
324 Worlds of Magic Mar 19, 2015 $24.99N/A (N/A/52%)20,000 .. 50,00000:00 (00:00)Wastelands InteractiveWastelands Interactive
325 Five Nights at Freddy's 4 Jul 23, 2015 $7.99N/A (N/A/51%)500,000 .. 1,000,00000:24 (00:08)Scott CawthonScott Cawthon
326 Animal Gods Oct 12, 2015 $9.99N/A (N/A/50%)0 .. 20,00000:00 (00:00)Still GamesStill Games
327 Anomaly 1729 Dec 30, 2015 $9.99N/A (N/A/49%)0 .. 20,00000:00 (00:00)Anvil Drop, LLCBlack Shell Media
328 TRISTOY Jan 15, 2015 $6.99N/A (N/A/49%)20,000 .. 50,00000:00 (00:00)Uniworlds Game StudiosHeadup Games
329 Corpse of Discovery Aug 25, 2015 $1.99N/A (N/A/49%)0 .. 20,00000:00 (00:00)Phosphor GamesPhosphor Games
330 theHunter: Primal Mar 31, 2015 N/AN/A (N/A/49%)100,000 .. 200,00000:00 (00:00)Expansive Worlds, Avalanche StudiosExpansive Worlds, Avalanche Studios
331 Epanalepsis May 21, 2015 $3.99N/A (N/A/48%)0 .. 20,00000:00 (00:00)Cameron Kunzelman2tainment GmbH
332 Lucius II Feb 13, 2015 $19.99N/A (N/A/48%)200,000 .. 500,00000:00 (00:00)Shiver GamesShiver Games
333 COAST GUARD Oct 21, 2015 $17.99N/A (N/A/47%)20,000 .. 50,00000:00 (00:00)Reality Twist GmbHastragon Sales & Services GmbH
334 Karmaflow: The Rock Opera Videogame - Act I & Act II May 6, 2015 $4.99N/A (N/A/47%)0 .. 20,00000:00 (00:00)Basecamp GamesBasecamp Games
335 Solarix Apr 30, 2015 $19.99N/A (N/A/47%)100,000 .. 200,00000:00 (00:00)Pulsetense GamesPlaystige Interactive
336 Cities XXL Feb 5, 2015 $9.99N/A (N/A/47%)200,000 .. 500,00000:00 (00:00)Focus EntertainmentFocus Entertainment
337 Submerged Aug 3, 2015 $1.99N/A (N/A/47%)200,000 .. 500,00000:00 (00:00)Uppercut Games Pty LtdUppercut Games Pty Ltd
338 Viridi Aug 19, 2015 FreeN/A (N/A/46%)500,000 .. 1,000,00000:00 (00:00)Zoe Vartanian, Badru, Isa Hutchinson, Michael BellIce Water Games
339 LA Cops Mar 13, 2015 $4.99N/A (N/A/45%)20,000 .. 50,00000:00 (00:00)Modern DreamTeam17 Digital Ltd
340 I Can't Escape: Darkness Sep 17, 2015 $11.99N/A (N/A/43%)0 .. 20,00000:00 (00:00)Fancy Fish GamesFancy Fish Games
341 ENKI Jul 31, 2015 $4.99N/A (N/A/43%)20,000 .. 50,00000:00 (00:00)Storm in a TeacupStorm in a Teacup
342 Hatred Jun 1, 2015 $5.99N/A (N/A/43%)500,000 .. 1,000,00000:01 (00:00)Destructive CreationsDestructive Creations
343 The Flock Aug 21, 2015 $16.99N/A (N/A/36%)20,000 .. 50,00000:00 (00:00)VogelsapVogelsap
344 Zombeer Jan 30, 2015 $4.99N/A (N/A/32%)50,000 .. 100,00000:00 (00:00)Moonbite Games, PadaOne GamesNew Gravity Laws
345 Professor Teaches QuickBooks 2015 Jul 27, 2015 N/AN/A (N/A)0 .. 20,00000:00 (00:00)Individual SoftwareIndividual Software
346 Cliffs of War: Fortress Defenders Nov 3, 2015 N/AN/A (N/A)0 .. 20,00000:00 (00:00)
347 The Final Stand Jul 16, 2015 N/AN/A (N/A)0 .. 20,00000:00 (00:00)Hella Games EntertainmentSteam
348 Dragon Rider Nov 2, 2015 N/AN/A (N/A)0 .. 20,00000:00 (00:00)S.F. Bay Studios, Inc.S.F. Bay Studios, Inc.
349 MasterCook 15 May 29, 2015 N/AN/A (N/A)0 .. 20,00000:00 (00:00)CosmiIndividual Software
350 Forever Lost: Episode 3 Jul 9, 2015 N/AN/A (N/A)0 .. 20,00000:00 (00:00)Glitch Games LtdGlitch Games Ltd
351 Pluck Jul 31, 2015 N/AN/A (N/A)0 .. 20,00000:00 (00:00)Benjamin LapidBenjamin Lapid
352 Blessed Ones: The Magic Wolves Dec 4, 2015 N/AN/A (N/A)0 .. 20,00000:00 (00:00)Wolf Ray StudiosWolf Ray Studios
353 Quicken WillMaker Plus 2016 Oct 15, 2015 N/AN/A (N/A)0 .. 20,00000:00 (00:00)NoloIndividual Software
354 AnyTime Organizer Standard 15 Nov 13, 2015 N/AN/A (N/A)0 .. 20,00000:00 (00:00)Individual SoftwareIndividual Software
355 Convoy Mod Tools Apr 15, 2015 N/AN/A (N/A)0 .. 20,00000:00 (00:00)Convoy GamesIndietopia Games
356 Professor Teaches QuickBooks 2016 Nov 10, 2015 N/AN/A (N/A)0 .. 20,00000:00 (00:00)Individual SoftwareIndividual Software
357 Strange Space Dec 22, 2015 N/AN/A (N/A)0 .. 20,00000:00 (00:00)Mayhem Games USAMayhem Games USA
358 Muvee Reveal 11 Apr 10, 2015 N/AN/A (N/A)20,000 .. 50,00000:00 (00:00)muvee TechnologiesDegica
359 The Facility Sep 3, 2015 N/AN/A (N/A)0 .. 20,00000:00 (00:00)PolyDigitalPolyDigital
360 Relic Alone Nov 26, 2015 N/AN/A (N/A)0 .. 20,00000:00 (00:00)NTT Plala Inc., Roconilo ProjectZoo Corporation
361 Withstand: Apotheosis Jul 31, 2015 N/AN/A (N/A)0 .. 20,00000:00 (00:00)EpicHouse Studios LLCEpicHouse Studios LLC
362 Containment Protocol Aug 31, 2015 N/AN/A (N/A)0 .. 20,00000:00 (00:00)Xiotex Studios LtdXiotex Studios Ltd
363 Magician's Apprentice Nov 9, 2015 N/AN/A (N/A)0 .. 20,00000:00 (00:00)Kosek.comKosek.com
364 Dad Beat Dads Oct 19, 2015 N/AN/A (N/A)0 .. 20,00000:00 (00:00)Stellar Jay StudiosStellar Jay Studios
365 Velocity Stream Oct 5, 2015 N/AN/A (N/A)0 .. 20,00000:00 (00:00)Cavelight EntertainmentCavelight Entertainment
366 Driveby Gangster Sep 8, 2015 N/AN/A (N/A)0 .. 20,00000:00 (00:00)Verto Studio LLCVerto Studio LLC
367 Ramayana May 25, 2015 FreeN/A (N/A)0 .. 20,00000:00 (00:00)Rakesh MalikRakesh Malik
368 Umbra: Shadow of Death Dec 18, 2015 N/AN/A (N/A)0 .. 20,00000:00 (00:00)Colludium LtdColludium Ltd
369 Soccer Legends Aug 5, 2015 N/AN/A (N/A)20,000 .. 50,00000:00 (00:00)ZackBellGames
370 Tiki Galore Oct 5, 2015 N/AN/A (N/A)0 .. 20,00000:00 (00:00)Abyss StudiosAbyss Studios
371 VR Karts Apr 17, 2015 N/AN/A (N/A)0 .. 20,00000:00 (00:00)Viewpoint GamesViewpoint Games
372 Quadle Jul 23, 2015 N/AN/A (N/A)0 .. 20,00000:00 (00:00)GamesareClickteam
373 Eternal Realm May 18, 2015 FreeN/A (N/A)0 .. 20,00000:00 (00:00)Omega GamesOmega Games
374 none Nov 5, 2015 N/AN/A (N/A)50,000 .. 100,00000:00 (00:00)nonenone
375 Bridge Creator 2015 Jan 26, 2015 N/AN/A (N/A)0 .. 20,00000:00 (00:00)Zojoi
376 Colony Assault Dec 15, 2015 N/AN/A (N/A)0 .. 20,00000:00 (00:00)Logic treeLogic tree
377 Rising Runner Nov 1, 2015 N/AN/A (N/A)50,000 .. 100,00000:00 (00:00)MagicbaneMagicbane
378 Crimson Light Jul 28, 2015 FreeN/A (N/A)0 .. 20,00000:00 (00:00)NandeeCrimson Lodge
379 Mystical Jul 31, 2015 N/AN/A (N/A)0 .. 20,00000:00 (00:00)Philippe ForgeurPhilippe Forgeur
380 The Legend of Tango Sep 11, 2015 N/AN/A (N/A)20,000 .. 50,00000:00 (00:00)Spilt Milk Studios LtdSpilt Milk Studios Ltd
381 Dark Storm: VR Missions Aug 19, 2015 N/AN/A (N/A)0 .. 20,00000:00 (00:00)Fenrir StudiosFenrir Studios
382 Reiner Knizia's The Confrontation Sep 21, 2015 N/AN/A (N/A)0 .. 20,00000:00 (00:00)Offworld Games, LLCOffworld Games, LLC
383 Celestial Tear: Demon's Revenge Nov 19, 2015 N/AN/A (N/A)0 .. 20,00000:00 (00:00)White Guardian Studios LLCWhite Guardian Studios LLC
384 A.V. Feb 13, 2015 FreeN/A (N/A)0 .. 20,00000:00 (00:00)FirstForever StudiosMAGIC Spell Studios
385 MAGIX Music Maker 2016 Live Steam Edition Oct 19, 2015 N/AN/A (N/A)0 .. 20,00000:00 (00:00)MAGIX Software GmbHMAGIX Software GmbH
386 Crazy Steam Bros 2 Apr 2, 2015 FreeN/A (N/A)0 .. 20,00000:00 (00:00)Ars CreativaArs Creativa
387 Naught Reawakening Sep 10, 2015 N/AN/A (N/A)0 .. 20,00000:00 (00:00)Wild SphereGenera Games
388 KreisReise Jun 8, 2015 FreeN/A (N/A)0 .. 20,00000:00 (00:00)Twilling Skyeonayu
389 Legena: Union Tides Oct 8, 2015 FreeN/A (N/A)0 .. 20,00000:00 (00:00)Grandpa PixelGrandpa Pixel
390 FranknJohn Mar 4, 2015 N/AN/A (N/A)0 .. 20,00000:00 (00:00)bitSmith GamesbitSmith Games
391 AWAKE Dec 16, 2015 N/AN/A (N/A)0 .. 20,00000:00 (00:00)DiiosYeti Studio©
392 In Space We Brawl Jul 17, 2015 N/AN/A (N/A)0 .. 20,00000:00 (00:00)Forge Reply srlPLAYISM
393 Crystal Picnic Nov 2, 2015 N/AN/A (N/A)0 .. 20,00000:00 (00:00)NooskewlNooskewl
394 Factions: Origins of Malu Mar 23, 2015 N/AN/A (N/A)0 .. 20,00000:00 (00:00)Burning Dog MediaBurning Dog Media
395 IPackThat Oct 6, 2015 N/AN/A (N/A)0 .. 20,00000:00 (00:00)Piranha Bytes Distribution UG&Co KGPiranha Bytes Distribution UG&Co KG
396 Pilot Crusader Jul 3, 2015 N/AN/A (N/A)0 .. 20,00000:00 (00:00)RadLabGamingLudomotion
397 Red Spider2: Exiled Jan 17, 2015 FreeN/A (N/A)0 .. 20,00000:00 (00:00)studio waspstudio wasp
398 Lapland Solitaire Sep 14, 2015 N/AN/A (N/A)0 .. 20,00000:00 (00:00)Lemon MooseNomad Games
399 Advent May 15, 2015 FreeN/A (N/A)0 .. 20,00000:00 (00:00)Omega GamesOmega Games
400 Macabre Jul 6, 2015 N/AN/A (N/A)20,000 .. 50,00000:00 (00:00)MOCBJ SoftwareMOCBJ Software
401 Mech Marines: Steel March Jan 9, 2015 N/AN/A (N/A)0 .. 20,00000:00 (00:00)ByteTrail SoftwareByteTrail Software
402 Wonky Pigeon! Nov 26, 2015 N/AN/A (N/A)0 .. 20,00000:00 (00:00)Carlotta TattiCarlotta Tatti
403 Rapture Session & Pro Apr 28, 2015 N/AN/A (N/A)0 .. 20,00000:00 (00:00)CakewalkCakewalk
404 PeriAreion Feb 19, 2015 FreeN/A (N/A)0 .. 20,00000:00 (00:00)Explorasaurus StudiosExplorasaurus Studios
405 Chronicles of a Dark Lord: Rhapsody Clash Nov 20, 2015 N/AN/A (N/A)20,000 .. 50,00000:00 (00:00)Kisareth StudiosKisareth Studios
406 Pump-Action Captain Aug 20, 2015 N/AN/A (N/A)0 .. 20,00000:00 (00:00)Paradox Interactive
407 The Lost Island Nov 20, 2015 N/AN/A (N/A)50,000 .. 100,00000:00 (00:00)Finalspark GamestudiosFinalspark Gamestudios
408 Rogue Continuum Sep 15, 2015 N/AN/A (N/A)0 .. 20,00000:00 (00:00)Rocktastic GamesRocktastic Games
409 Amihailu in Dreamland Feb 15, 2015 FreeN/A (N/A)0 .. 20,00000:00 (00:00)DelmunsoftDelmunsoft
410 Monster RPG 2 Oct 12, 2015 N/AN/A (N/A)20,000 .. 50,00000:00 (00:00)NooskewlNooskewl
411 Exowar Mar 26, 2015 N/AN/A (N/A)0 .. 20,00000:00 (00:00)Aleksander CiesielskiNeomex-Games
412 Offscreen Colonies: VR Edition Apr 5, 2015 FreeN/A (N/A)0 .. 20,00000:00 (00:00)ConspiracyConspiracy
413 UnSummoning: the Spectral Horde Dec 21, 2015 FreeN/A (N/A)0 .. 20,00000:00 (00:00)Roaming Ground StudioRoaming Ground Studio
414 Naninights Jul 24, 2015 N/AN/A (N/A)0 .. 20,00000:00 (00:00)Maxim MooreAldorlea Games
415 The Architect Jun 4, 2015 N/AN/A (N/A)0 .. 20,00000:00 (00:00)Spooky StarSpooky Star
416 Necromonads Oct 27, 2015 N/AN/A (N/A)0 .. 20,00000:00 (00:00)GamesareClickteam
417 Anti-Opoly Aug 14, 2015 N/AN/A (N/A)0 .. 20,00000:00 (00:00)WebfootViva Media
418 Spy Bugs Jun 26, 2015 N/AN/A (N/A)0 .. 20,00000:00 (00:00)Digital Soul GamesTheGameWall Studios
419 MyRPG Master Feb 9, 2015 N/AN/A (N/A)0 .. 20,00000:00 (00:00)DragonHead StudioPlug In Digital
420 Six F and Six 0 Sep 15, 2015 FreeN/A (N/A)0 .. 20,00000:00 (00:00)うどんぱうどんぱ
421 Cosplay Maker Dec 10, 2015 FreeN/A (N/A)0 .. 20,00000:00 (00:00)Locked Door PuzzleLupus Studios Limited
422 Scott in Space Jul 23, 2015 FreeN/A (N/A)20,000 .. 50,00000:00 (00:00)Ragiva Games e.K.Chris Hopkin
423 Wonky Ship Sep 10, 2015 FreeN/A (N/A)0 .. 20,00000:00 (00:00)Kiz StudiosYou42, Inc.
424 Ted by Dawn Jun 29, 2015 N/AN/A (N/A)0 .. 20,00000:00 (00:00)Proteus PixelProteus Pixel
425 Runes of Brennos Oct 16, 2015 FreeN/A (N/A)0 .. 20,00000:00 (00:00)LuGus StudiosLuGus Studios
426 Damnation City of Death Mar 3, 2015 N/AN/A (N/A)0 .. 20,00000:00 (00:00)AntiprotoAntiproto
427 Hyphen Feb 12, 2015 N/AN/A (N/A)0 .. 20,00000:00 (00:00)FarSpace StudiosFarSpace Studios
428 Shadowrun Chronicles: INFECTED Director's Cut Dec 10, 2015 N/AN/A (N/A)0 .. 20,00000:00 (00:00)Cliffhanger ProductionsCliffhanger Productions
429 SECTOR Jun 29, 2015 FreeN/A (N/A)20,000 .. 50,00000:00 (00:00)UDUD
430 MiniBikers Nov 5, 2015 N/AN/A (N/A)20,000 .. 50,00000:00 (00:00)Ivanovich GamesIvanovich Games
431 Flem Apr 28, 2015 FreeN/A (N/A)0 .. 20,00000:00 (00:00)Henchman & GoonHenchman & Goon
432 Arcane Sorcery Sep 15, 2015 FreeN/A (N/A)200,000 .. 500,00000:00 (00:00)Andrew RoweAndrew Rowe
433 Streets of Chaos Jan 23, 2015 N/AN/A (N/A)50,000 .. 100,00000:00 (00:00)SimProse StudiosSimProse Studios
434 Retaliation Nov 24, 2015 FreeN/A (N/A)0 .. 20,00000:00 (00:00)Cameron Baxter, Billy Jazz Hills StickleyCameron Baxter
435 Shadow of Kingdoms Aug 11, 2015 FreeN/A (N/A)50,000 .. 100,00000:00 (00:00)TernGameAdmax Game
436 Kenney Game Assets May 8, 2015 N/AN/A (N/A)0 .. 20,00000:00 (00:00)KenneyKenney
437 Abomination Tower Feb 13, 2015 N/AN/A (N/A)0 .. 20,00000:00 (00:00)Amethyst QuarterAmethyst Quarter
438 REVERSE SIDE Jul 30, 2015 N/AN/A (N/A)20,000 .. 50,00000:00 (00:00)RED STAR GAMESRED STAR GAMES
439 Command: Northern Inferno Oct 22, 2015 N/AN/A (N/A)0 .. 20,00000:00 (00:00)WarfareSimsSlitherine Ltd.
440 Leadwerks Game Launcher Aug 24, 2015 FreeN/A (N/A)50,000 .. 100,00000:00 (00:00)Leadwerks SoftwareLeadwerks Software
441 Chronicles of a Dark Lord: Episode II War of The Abyss Jan 16, 2015 N/AN/A (N/A)50,000 .. 100,00000:00 (00:00)Kisareth StudiosKisareth Studios
442 Axion Dec 11, 2015 N/AN/A (N/A)0 .. 20,00000:00 (00:00)Droog71Droog71
443 Arclight Cascade Aug 25, 2015 FreeN/A (N/A)0 .. 20,00000:00 (00:00)Hexdragonal GamesHexdragonal Games
444 Butsbal Jun 2, 2015 FreeN/A (N/A)20,000 .. 50,00000:00 (00:00)Xtase StudiosXtase Studios
445 DigiFish Aqua Real 2 Jun 10, 2015 N/AN/A (N/A)0 .. 20,00000:00 (00:00)Formosoft InternationalDegica
446 liquivid Video Improve 2 Apr 21, 2015 N/AN/A (N/A)0 .. 20,00000:00 (00:00)nullplussoftwarenullplussoftware
447 Handball 16 Nov 27, 2015 N/AN/A (N/A)0 .. 20,00000:00 (00:00)Eko SoftwareNacon, Plug In Digital
448 Spheroid Aug 29, 2015 N/AN/A (N/A)20,000 .. 50,00000:00 (00:00)From Soy Sauce LLCFrom Soy Sauce LLC
449 HueBots Aug 26, 2015 FreeN/A (N/A)0 .. 20,00000:00 (00:00)HueboticsHuebotics
450 Lilly and Sasha: Nexus of Souls May 25, 2015 N/AN/A (N/A)20,000 .. 50,00000:00 (00:00)John WizardJohn Wizard
451 Lilly and Sasha: Guardian Angels Jul 7, 2015 N/AN/A (N/A)50,000 .. 100,00000:00 (00:00)John WizardJohn Wizard
452 Gem Wars: Attack of the Jiblets Dec 15, 2015 FreeN/A (N/A)20,000 .. 50,00000:00 (00:00)Queen Birdface ProductionsQueen Birdface Productions
453 Black Island Oct 14, 2015 N/AN/A (N/A)0 .. 20,00000:00 (00:00)Helsinki NoirHelsinki Noir
454 Shadow Hunter Apr 20, 2015 FreeN/A (N/A)20,000 .. 50,00000:00 (00:00)Jeff TrierJeff Trier
455 16 Bit Arena Mar 24, 2015 N/AN/A (N/A)50,000 .. 100,00000:00 (00:00)16bitarena.com16bitarena.com
456 Lovely Weather We're Having Nov 10, 2015 N/AN/A (N/A)0 .. 20,00000:00 (00:00)Julian GlanderGlanderco
457 ACID Music Studio 10 - Steam Powered Jun 2, 2015 N/AN/A (N/A)0 .. 20,00000:00 (00:00)MAGIX Software GmbHMAGIX Software GmbH
458 Servo May 28, 2015 N/AN/A (N/A)0 .. 20,00000:00 (00:00)BonusXPBonusXP
459 Visibility May 25, 2015 FreeN/A (N/A)20,000 .. 50,00000:00 (00:00)ZeritumZeritum
460 Bitweb Jun 3, 2015 FreeN/A (N/A)50,000 .. 100,00000:00 (00:00)practicing01practicing01
461 Force of Elements Dec 29, 2015 N/AN/A (N/A)20,000 .. 50,00000:00 (00:00)Wicked Fun, Inc.Wicked Fun, Inc.
462 Infinitrap Classic: Ohio Jack and The Cup Of Eternity Dec 22, 2015 FreeN/A (N/A)20,000 .. 50,00000:00 (00:00)Shadebob GamesShadebob Games
463 Farm Mechanic Simulator 2015 Apr 23, 2015 N/AN/A (N/A)0 .. 20,00000:00 (00:00)PlayWay, Si7Thomas Gwaltney
464 Rise: Battle Lines Nov 17, 2015 N/AN/A (N/A)20,000 .. 50,00000:00 (00:00)The Secret Games CompanyDigital Tribe
465 Return NULL - Episode 1 Apr 2, 2015 FreeN/A (N/A)20,000 .. 50,00000:00 (00:00)Michael LückgenDigital Tribe, iNDEE SOLO
466 Epsilon Oct 1, 2015 N/AN/A (N/A)50,000 .. 100,00000:00 (00:00)Serellan LLCSerellan LLC
467 Monster Jam Battlegrounds Jun 10, 2015 N/AN/A (N/A)20,000 .. 50,00000:00 (00:00)Team6 game studios B.V.GameMill Entertainment
468 MyDream Feb 20, 2015 FreeN/A (N/A)20,000 .. 50,00000:00 (00:00)MyDream Interactive, IncMyDream Interactive, Inc
469 Badland Bandits Jul 16, 2015 FreeN/A (N/A)20,000 .. 50,00000:00 (00:00)Wild Wolf StdWild Wolf Std
470 Dead Sea Mar 25, 2015 N/AN/A (N/A)50,000 .. 100,00000:00 (00:00)199CentsSTUDIO199CentsSTUDIO
471 ENYO Arcade Nov 9, 2015 FreeN/A (N/A)20,000 .. 50,00000:00 (00:00)James Mearmanwww.dev-zoo.net
472 MiniDrivers Aug 20, 2015 N/AN/A (N/A)50,000 .. 100,00000:00 (00:00)Ivanovich GamesIvanovich Games
473 R.B.I. Baseball 15 Apr 30, 2015 N/AN/A (N/A)0 .. 20,00000:00 (00:00)MLB.comMLB.com
474 I must kill...: Fresh Meat Nov 30, 2015 FreeN/A (N/A)50,000 .. 100,00000:00 (00:00)Gaming Cats StudioGaming Cats Studio
475 Kingdoms CCG Jan 22, 2015 N/AN/A (N/A)200,000 .. 500,00000:00 (00:00)Ganz StudioGanz
476 Foosball: World Tour Dec 11, 2015 N/AN/A (N/A)0 .. 20,00000:00 (00:00)Grip Games, 3DivisionGrip Games
477 Emerland Solitaire: Endless Journey Jan 6, 2015 FreeN/A (N/A)20,000 .. 50,00000:00 (00:00)Rainbow GamesRainbow Games
478 Indie Game Battle Oct 29, 2015 N/AN/A (N/A)50,000 .. 100,00000:00 (00:00)Blob Games StudioBlob Games Studio
479 Shot In The Dark Jun 10, 2015 FreeN/A (N/A)20,000 .. 50,00000:00 (00:00)Technomancy StudiosTechnomancy Studios
480 Jagged Alliance Online: Reloaded Sep 24, 2015 N/AN/A (N/A)0 .. 20,00000:00 (00:00)Cliffhanger ProductionsCliffhanger Productions
481 Glass Wing Jun 24, 2015 FreeN/A (N/A)50,000 .. 100,00000:00 (00:00)From Soy Sauce LLCFrom Soy Sauce LLC
482 Arms Dealer Mar 26, 2015 N/AN/A (N/A)0 .. 20,00000:00 (00:00)Case in Point Studios, LLCCase in Point Studios, LLC
483 Farmocalypse Nov 24, 2015 N/AN/A (N/A)20,000 .. 50,00000:00 (00:00)Glowstick EntertainmentGlowstick Entertainment
484 Your Quest Apr 13, 2015 FreeN/A (N/A)50,000 .. 100,00000:00 (00:00)Oblivionburn ProductionsOblivionburn Productions
485 The Lady Jan 29, 2015 FreeN/A (N/A)50,000 .. 100,00000:00 (00:00)Mikeypoo's Games, Roger LevyMPR ART Hallucinations
486 Elements: Soul of Fire Jan 12, 2015 N/AN/A (N/A)50,000 .. 100,00000:00 (00:00)Soul CatapultNew Reality Games
487 Big Fish Legend Jul 20, 2015 FreeN/A (N/A)0 .. 20,00000:00 (00:00)Igry.ruIgry.ru
488 EV3 - Drag Racing Mar 1, 2015 FreeN/A (N/A)50,000 .. 100,00000:00 (00:00)KABloom InteractiveKABloom Interactive
489 Into The War Dec 2, 2015 N/AN/A (N/A)50,000 .. 100,00000:00 (00:00)Small Town StudiosSmall Town Studios
490 Porradaria 2: Pagode of the Night Mar 12, 2015 N/AN/A (N/A)50,000 .. 100,00000:00 (00:00)CleanWaterSoftCleanWaterSoft
491 Clandestinity of Elsie Jul 8, 2015 FreeN/A (N/A)20,000 .. 50,00000:00 (00:00)COLNELIUS, Albin BernhardssonCOLNELIUS
492 Relive Oct 15, 2015 N/AN/A (N/A)50,000 .. 100,00000:00 (00:00)Studio EvilStudio Evil
493 SickBrick Jan 30, 2015 N/AN/A (N/A)50,000 .. 100,00000:00 (00:00)Maxwolf, FoxMaxwolf, Fox
494 Woof Blaster Sep 22, 2015 FreeN/A (N/A)20,000 .. 50,00000:00 (00:00)Fabian JarrettFabian Jarrett
495 Mold on Pizza Sep 25, 2015 $5.99N/A (N/A)20,000 .. 50,00000:00 (00:00)BTNcafeBTNcafe
496 Pixel Fodder Jul 20, 2015 FreeN/A (N/A)20,000 .. 50,00000:00 (00:00)Wachawacha.ru
497 Selfie : Sisters of the Amniotic Lens May 8, 2015 N/AN/A (N/A)100,000 .. 200,00000:00 (00:00)Rail Slave GamesKISS ltd
498 Legend of Dungeon: Masters Nov 30, 2015 N/AN/A (N/A)100,000 .. 200,00000:00 (00:00)Robot Loves KittyRobot Loves Kitty
499 March of War: FaceOff - XL Nov 18, 2015 N/AN/A (N/A)50,000 .. 100,00000:00 (00:00)ISOTXISOTX
500 Sound Shift Aug 26, 2015 FreeN/A (N/A)20,000 .. 50,00000:00 (00:00)Matthew BrownMatthew Brown
501 Emergency 2016 Oct 15, 2015 N/AN/A (N/A)50,000 .. 100,00000:00 (00:00)Sixteen Tons EntertainmentDeep Silver
502 Freshman Year Apr 20, 2015 FreeN/A (N/A)20,000 .. 50,00000:00 (00:00)Nina Freeman, Laura Knetzger, Stephen Lawrence ClarkN/A
503 Tetris Ultimate Dec 10, 2015 N/AN/A (N/A)50,000 .. 100,00000:00 (00:00)Ubisoft - San FranciscoUbisoft - San Francisco
504 Астролорды: Облако Оорта Sep 29, 2015 FreeN/A (N/A)100,000 .. 200,00000:00 (00:00)Aratog LLCTrinity Project
505 Combat Monsters Jan 20, 2015 N/AN/A (N/A)100,000 .. 200,00000:00 (00:00)Rubicon DevelopmentRubicon Development
506 The Gate Apr 22, 2015 N/AN/A (N/A)50,000 .. 100,00000:00 (00:00)Spicy Horse GamesSpicy Horse Games
507 Legacy of Dorn: Herald of Oblivion Dec 2, 2015 N/AN/A (N/A)20,000 .. 50,00000:00 (00:00)Tin Man GamesTin Man Games
508 Metaverse Construction Kit Dec 6, 2015 FreeN/A (N/A)100,000 .. 200,00000:00 (00:00)MetawareMetaware
509 Curse of Mermos Jun 23, 2015 FreeN/A (N/A)100,000 .. 200,00000:00 (00:00)TEAM101TEAM101
510 Bloodwood Reload Nov 2, 2015 FreeN/A (N/A)100,000 .. 200,00000:00 (00:00)Luminy StudiosLuminy Studios
511 Lethal RPG: War Jul 17, 2015 FreeN/A (N/A)20,000 .. 50,00000:00 (00:00)EyeSpyda GamesEyeSpyda Games
512 Bloop Jan 16, 2015 FreeN/A (N/A)100,000 .. 200,00000:00 (00:00)2SDKISS ltd
513 Affected Zone Tactics Nov 17, 2015 FreeN/A (N/A)100,000 .. 200,00000:00 (00:00)Light Vision InteractiveLight Vision Interactive
514 Escape Apr 20, 2015 FreeN/A (N/A)100,000 .. 200,00000:00 (00:00)Stephane BottinStephane Bottin
515 InCell VR Sep 3, 2015 FreeN/A (N/A)100,000 .. 200,00000:00 (00:00)Luden.ioLuden.io
516 HIT Feb 9, 2015 FreeN/A (N/A)200,000 .. 500,00000:00 (00:00)Shifty Chair GamesShifty Chair Games
517 RFLEX Aug 26, 2015 FreeN/A (N/A)0 .. 20,00000:00 (00:00)Wesley LaFerriereSystem Void Games
518 One Way To Die Sep 1, 2015 FreeN/A (N/A)50,000 .. 100,00000:00 (00:00)CoaguCo IndustriesCoaguCo Industries
519 Red Stone Online Apr 2015 N/AN/A (N/A)100,000 .. 200,00000:00 (00:00)L&K Co., Ltd.L&K Co., Ltd.
520 Gunslingers Dec 17, 2015 N/AN/A (N/A)50,000 .. 100,00000:00 (00:00)KovalimKovalim
521 The Knobbly Crook Jun 9, 2015 FreeN/A (N/A)50,000 .. 100,00000:00 (00:00)Gnarled Scar ManipulationsGnarled Scar Manipulations
522 Krosmaster Arena Nov 9, 2015 N/AN/A (N/A)100,000 .. 200,00000:00 (00:00)Ankama StudioAnkama Games
523 Epic Arena May 5, 2015 FreeN/A (N/A)100,000 .. 200,00000:00 (00:00)Shadow MastersShadow Masters
524 Heroes of SoulCraft - Arcade MOBA Jul 2, 2015 FreeN/A (N/A)200,000 .. 500,00000:00 (00:00)MobileBitsMobileBits
525 Nyctophilia Sep 23, 2015 FreeN/A (N/A)100,000 .. 200,00000:00 (00:00)Cat In A Jar GamesCat In A Jar Games
526 Mainland May 8, 2015 FreeN/A (N/A)100,000 .. 200,00000:00 (00:00)Vasily Voronkov, Ryan Joseph, Peter KosyhINSTEAD Community
527 Hotel Remorse Apr 28, 2015 FreeN/A (N/A)20,000 .. 50,00000:00 (00:00)Charlie Behan, Raddy PeidCharlie Behan
528 Wyrmsun May 22, 2015 FreeN/A (N/A)100,000 .. 200,00000:00 (00:00)AndrettinAndrettin
529 Pregnancy Feb 18, 2015 N/AN/A (N/A)0 .. 20,00000:00 (00:00)LocomotivahLocomotivah
530 Ubinota Mar 4, 2015 FreeN/A (N/A)50,000 .. 100,00000:00 (00:00)RotateamPlug In Digital
531 Sphere III: Rage of the Devastator Aug 18, 2015 FreeN/A (N/A)100,000 .. 200,00000:00 (00:00)GameXP.comGameXP.com
532 Iggy's Egg Adventure Aug 27, 2015 N/AN/A (N/A)20,000 .. 50,00000:00 (00:00)Ginger Labs LLCGinger Labs LLC
533 Immortal Empire Dec 3, 2015 FreeN/A (N/A)100,000 .. 200,00000:00 (00:00)Tactic Studios Inc.Tactic Studios Inc.
534 CroNix Jul 17, 2015 FreeN/A (N/A)200,000 .. 500,00000:00 (00:00)MAGICSMAGICS
535 Magical Otoge Ciel Aug 7, 2015 FreeN/A (N/A)50,000 .. 100,00000:00 (00:00)batensanbatensan
536 Rustbucket Rumble May 4, 2015 FreeN/A (N/A)200,000 .. 500,00000:00 (00:00)Reactor ZeroScrap Yard Productions, LLC
537 Bloop Reloaded Feb 6, 2015 N/AN/A (N/A)100,000 .. 200,00000:00 (00:00)2SDKISS ltd
538 Golden Rush Sep 23, 2015 N/AN/A (N/A)100,000 .. 200,00000:00 (00:00)Forbes Consult LtdELYLAND INVESTMENT COMPANY Ltd
539 Manyland Dec 7, 2015 FreeN/A (N/A)0 .. 20,00000:00 (00:00)Anyland + ManylandMatt Roszak
540 Rats - Time is running out! Aug 19, 2015 N/AN/A (N/A)50,000 .. 100,00000:00 (00:00)Citeremis Inc.Citeremis Inc.
541 Comedy Quest Sep 2, 2015 FreeN/A (N/A)50,000 .. 100,00000:00 (00:00)Trav NashCrothers Games
542 The Secret of Tremendous Corporation Oct 12, 2015 FreeN/A (N/A)100,000 .. 200,00000:00 (00:00)Sebastian Krzyszkowiak, Konrad Burandt, Paweł Radejdosowisko.net
543 Hotline Miami 2: Wrong Number Digital Comic Feb 17, 2015 FreeN/A (N/A)100,000 .. 200,00000:00 (00:00)Dennaton Games, Dayjob StudioDevolver Digital
544 Camtasia - Subscription Aug 29, 2015 N/AN/A (N/A)50,000 .. 100,00000:00 (00:00)TechSmith CorporationTechSmith Corporation
545 Just Survive Test Server Apr 16, 2015 N/AN/A (N/A)100,000 .. 200,00000:00 (00:00)Daybreak Game CompanyDaybreak Game Company
546 War of Beach Oct 15, 2015 FreeN/A (N/A)100,000 .. 200,00000:00 (00:00)LUCKY GIRLS LIMITEDLUCKY GIRLS LIMITED
547 Firefly Online Cortex Jan 29, 2015 N/AN/A (N/A)100,000 .. 200,00000:00 (00:00)Spark Plug GamesQMx Interactive
548 Otherland MMO Sep 10, 2015 N/AN/A (N/A)50,000 .. 100,00000:00 (00:00)Drago EntertainmentGame OL GmbH
549 Invisible Apartment Mar 2, 2015 N/AN/A (N/A)100,000 .. 200,00000:00 (00:00)Milan Kazarka, Jeroen van OostenVysoko Anime Production
550 Dream Of Mirror Online Aug 14, 2015 FreeN/A (N/A)100,000 .. 200,00000:00 (00:00)SoftStarSubaGames
551 Noct Oct 21, 2015 N/AN/A (N/A)50,000 .. 100,00000:00 (00:00)C3SKDevolver Digital
552 Lilly and Sasha: Curse of the Immortals Apr 28, 2015 N/AN/A (N/A)100,000 .. 200,00000:00 (00:00)John WizardJohn Wizard
553 Ruzh Delta Z May 8, 2015 FreeN/A (N/A)50,000 .. 100,00000:00 (00:00)PribuniInterplay Entertainment Corp.
554 Might & Magic Heroes Online Nov 24, 2015 N/AN/A (N/A)200,000 .. 500,00000:00 (00:00)Blue ByteUbisoft
555 Cereal Soup Feb 14, 2015 FreeN/A (N/A)100,000 .. 200,00000:00 (00:00)Wild Arts LLCWild Arts LLC
556 March of War: FaceOff - M Jul 16, 2015 N/AN/A (N/A)100,000 .. 200,00000:00 (00:00)ISOTXISOTX
557 Heroes of Scene Aug 26, 2015 FreeN/A (N/A)200,000 .. 500,00000:00 (00:00)Icy DonutIcy Donut
558 InMind VR Jan 19, 2015 FreeN/A (N/A)200,000 .. 500,00000:00 (00:00)Luden.ioLuden.io
559 Major\Minor Dec 2015 N/AN/A (N/A)20,000 .. 50,00000:00 (00:00)KlaceKlace
560 Spartans Vs Zombies Defense Jan 6, 2015 N/AN/A (N/A)200,000 .. 500,00000:00 (00:00)LeiLei
561 Metal Reaper Online Sep 16, 2015 N/AN/A (N/A)100,000 .. 200,00000:00 (00:00)N2GamesSesisoft, JC Planet
562 Alpha Polaris : A Horror Adventure Game Oct 21, 2015 FreeN/A (N/A)100,000 .. 200,00000:00 (00:00)Turmoil GamesTurmoil Games
563 Burstfire Sep 24, 2015 N/AN/A (N/A)100,000 .. 200,00000:00 (00:00)Nacho GamesNacho Games
564 Soccer Manager 2015 Jul 16, 2015 N/AN/A (N/A)100,000 .. 200,00000:00 (00:00)Soccer Manager LtdSoccer Manager Ltd
565 7,62 Hard Life Oct 1, 2015 $4.99N/A (N/A)50,000 .. 100,00000:00 (00:00)HLA teamFulqrum Publishing
566 GASP Nov 12, 2015 FreeN/A (N/A)200,000 .. 500,00000:00 (00:00)Dark Day InteractiveDark Day Interactive
567 Egg Returns Home May 5, 2015 N/AN/A (N/A)100,000 .. 200,00000:00 (00:00)Egor Olegovich YakovlevEgor Olegovich Yakovlev
568 Epic Cards Battle(TCG) Jul 9, 2015 FreeN/A (N/A)100,000 .. 200,00000:00 (00:00)momoStorm EntertainmentmomoStorm Entertainment
569 Merchant Jan 1, 2015 FreeN/A (N/A)100,000 .. 200,00000:00 (00:00)Retora GamesRetora Games
570 Who Is Mike - A Visual Novel Sep 29, 2015 FreeN/A (N/A)50,000 .. 100,00000:00 (00:00)FerventAfterthought Studios
571 Grey Cubes May 15, 2015 N/AN/A (N/A)50,000 .. 100,00000:00 (00:00)Deion MobileDeion Mobile
572 Deepworld Apr 22, 2015 FreeN/A (N/A)200,000 .. 500,00000:00 (00:00)BytebinBytebin
573 Driver Booster 3 for STEAM Sep 22, 2015 FreeN/A (N/A)100,000 .. 200,00000:00 (00:00)IObitIObit
574 Soccer Manager 2016 Oct 7, 2015 N/AN/A (N/A)200,000 .. 500,00000:00 (00:00)Soccer Manager LtdSoccer Manager Ltd
575 Subspace Continuum Jul 3, 2015 FreeN/A (N/A)50,000 .. 100,00000:00 (00:00)Virgin Interactive Entertainment, PriitKSubspace Continuum
576 War Trigger 2 Sep 15, 2015 FreeN/A (N/A)200,000 .. 500,00000:00 (00:00)Rocketeer Games Studio, LLCRocketeer Games Studio, LLC
577 Silver Creek Falls: Chapter 1 Aug 12, 2015 FreeN/A (N/A)50,000 .. 100,00000:00 (00:00)Sapphire Dragon ProductionsSapphire Dragon Productions
578 Clown House (Palyaço Evi) Jul 14, 2015 FreeN/A (N/A)200,000 .. 500,00000:00 (00:00)gord10, Aslan Game StudioAslan Game Studio
579 Cards and Castles Dec 18, 2015 FreeN/A (N/A)100,000 .. 200,00000:00 (00:00)Red Team GamesRed Team Games
580 Metal War Online: Retribution Dec 11, 2015 FreeN/A (N/A)200,000 .. 500,00000:00 (00:00)GDT LimitedGDT Limited
581 Battle for Blood - Epic battles within 30 seconds! Jul 8, 2015 FreeN/A (N/A)200,000 .. 500,00000:00 (00:00)YFC gamesYFC games
582 All Is Dust Jun 26, 2015 FreeN/A (N/A)200,000 .. 500,00000:00 (00:00)Mannequin Games LLCMannequin Games LLC
583 Genesis Online Nov 5, 2015 FreeN/A (N/A)200,000 .. 500,00000:00 (00:00)Shumkov DmitriyShumkov Dmitriy
584 Navy Field 2 : Conqueror of the Ocean Mar 5, 2015 N/AN/A (N/A)500,000 .. 1,000,00000:00 (00:00)SDEnterNetSDEnterNet
585 Interplanetary May 12, 2015 N/AN/A (N/A)100,000 .. 200,00000:00 (00:00)Team Jolly RogerTeam17 Digital Ltd
586 Pink Heaven Nov 4, 2015 FreeN/A (N/A)100,000 .. 200,00000:00 (00:00)Studio PixelPLAYISM
587 Chip's Challenge 1 May 28, 2015 FreeN/A (N/A)100,000 .. 200,00000:00 (00:00)Niffler Ltd.Niffler Ltd.
588 Close Your Eyes [Old Version] Aug 31, 2015 FreeN/A (N/A)100,000 .. 200,00000:00 (00:00)Yai GameworksYai Gameworks
589 Tap Tap Infinity Jun 26, 2015 FreeN/A (N/A)200,000 .. 500,00000:00 (00:00)Scary Bee LLCScary Bee LLC
590 World of Soccer Aug 26, 2015 N/AN/A (N/A)200,000 .. 500,00000:00 (00:00)WoS Development TeamHuebotics
591 TeraBlaster Jul 10, 2015 FreeN/A (N/A)50,000 .. 100,00000:00 (00:00)Black Shell GamesScreen 7
592 The Mammoth: A Cave Painting Aug 24, 2015 FreeN/A (N/A)20,000 .. 50,00000:00 (00:00)inbetweengamesinbetweengames
593 Let the Cat in Aug 27, 2015 N/AN/A (N/A)200,000 .. 500,00000:00 (00:00)EforbEforb
594 Shadowrun Chronicles - Boston Lockdown Apr 28, 2015 N/AN/A (N/A)200,000 .. 500,00000:00 (00:00)Cliffhanger ProductionsCliffhanger Productions
595 Echoes+ Jan 15, 2015 FreeN/A (N/A)100,000 .. 200,00000:41 (00:13)Binary ZooKikiwik Games
596 SC2VN - The eSports Visual Novel Sep 7, 2015 FreeN/A (N/A)100,000 .. 200,00000:00 (00:00)Team ElevenTeam Eleven
597 CaesarIA Jan 20, 2015 FreeN/A (N/A)500,000 .. 1,000,00000:00 (00:00)rdt.32rdt.32
598 ePic Character Generator Nov 5, 2015 FreeN/A (N/A)200,000 .. 500,00000:00 (00:00)Overhead GamesOverhead Games
599 Apotheon Arena Dec 8, 2015 FreeN/A (N/A)200,000 .. 500,00000:00 (00:00)AlientrapAlientrap
600 Aberoth Jul 17, 2015 FreeN/A (N/A)200,000 .. 500,00000:00 (00:00)Jarbit, Castle art by Yuriy GusevJarbit
601 Pink Hour Oct 28, 2015 FreeN/A (N/A)100,000 .. 200,00000:00 (00:00)Studio PixelPLAYISM
602 Fausts Alptraum Aug 14, 2015 FreeN/A (N/A)100,000 .. 200,00000:00 (00:00)LaboRatStudioLaboRatStudio
603 AX:EL - Air XenoDawn Dec 4, 2015 N/AN/A (N/A)1,000,000 .. 2,000,00000:00 (00:00)Alex PiolaKISS ltd
604 Among Ripples Jan 22, 2015 N/AN/A (N/A)200,000 .. 500,00000:00 (00:00)Eat Create SleepEat Create Sleep
605 VEGAS Movie Studio 13 Platinum - Steam Powered Feb 5, 2015 N/AN/A (N/A)50,000 .. 100,00000:00 (00:00)MAGIX Software GmbHMAGIX Software GmbH
606 METAL SLUG DEFENSE May 1, 2015 FreeN/A (N/A)500,000 .. 1,000,00000:00 (00:00)SNK CORPORATIONSNK CORPORATION
607 Space Pilgrim Episode I: Alpha Centauri Dec 14, 2015 FreeN/A (N/A)1,000,000 .. 2,000,00000:00 (00:00)Pilgrim Adventures, GrabTheGames StudiosGrabTheGames, TheGamesFortress
608 Port of Call Aug 28, 2015 FreeN/A (N/A)100,000 .. 200,00000:00 (00:00)Underdog GamesUnderdog Games
609 FINAL FANTASY V Sep 24, 2015 N/AN/A (N/A)100,000 .. 200,00000:00 (00:00)Square EnixSquare Enix
610 Destination Sol Feb 5, 2015 FreeN/A (N/A)500,000 .. 1,000,00000:00 (00:00)MovingBlocksMovingBlocks
611 Air Brawl Jun 2, 2015 FreeN/A (N/A)100,000 .. 200,00000:00 (00:00)LandfallLandfall
612 Frozen Free Fall: Snowball Fight Sep 15, 2015 N/AN/A (N/A)200,000 .. 500,00000:00 (00:00)SuperVillain StudiosDisney
613 Pool Nation FX Lite Dec 7, 2015 FreeN/A (N/A)500,000 .. 1,000,00000:00 (00:00)Cherry Pop GamesCherry Pop Games
614 Ultimate Tic-Tac-Toe Apr 28, 2015 FreeN/A (N/A)200,000 .. 500,00000:00 (00:00)Tigerish GamesTigerish Games
615 Off-Peak Feb 15, 2015 FreeN/A (N/A)100,000 .. 200,00000:00 (00:00)Cosmo DCosmo D Studios
616 Frosty Kiss Jan 31, 2015 FreeN/A (N/A)100,000 .. 200,00000:00 (00:00)2Chance Projects, IIchan Eroge Team2Chance Projects
617 404Sight Apr 16, 2015 FreeN/A (N/A)200,000 .. 500,00000:01 (00:00)Retro Yeti GamesRetro Yeti Games
618 Dev Guy May 20, 2015 FreeN/A (N/A)100,000 .. 200,00000:00 (00:00)Daniel Jonathan BourkeProject Tranquil
619 Mortal Online Aug 31, 2015 FreeN/A (N/A)500,000 .. 1,000,00000:00 (00:00)Star Vault ABStar Vault AB
620 Jigoku Kisetsukan: Sense of the Seasons May 12, 2015 FreeN/A (N/A)100,000 .. 200,00000:00 (00:00)EmadEmad
621 Written in the Sky Oct 31, 2015 N/AN/A (N/A)100,000 .. 200,00000:00 (00:00)Unwonted Studios
622 Without Within Jan 22, 2015 FreeN/A (N/A)100,000 .. 200,00000:00 (00:00)InvertMouseInvertMouse
623 Seduce Me the Otome Feb 12, 2015 FreeN/A (N/A)200,000 .. 500,00000:00 (00:00)Michaela LawsMichaela Laws
624 Batla May 14, 2015 N/AN/A (N/A)500,000 .. 1,000,00000:00 (00:00)[geim].proAbyss Lights Studio LLP
625 FINAL FANTASY VI Dec 16, 2015 N/AN/A (N/A)200,000 .. 500,00000:00 (00:00)Square EnixSquare Enix
626 RPG MO Aug 18, 2015 FreeN/A (N/A)500,000 .. 1,000,00000:00 (00:00)MarxnetMarxnet
627 King's Quest Jul 28, 2015 $24.99N/A (N/A)200,000 .. 500,00000:00 (00:00)The Odd GentlemenSierra
628 Crusaders of the Lost Idols Oct 13, 2015 FreeN/A (N/A)200,000 .. 500,00000:00 (00:00)Codename Entertainment Inc.Codename Entertainment Inc.
629 Simply Chess Sep 11, 2015 FreeN/A (N/A)500,000 .. 1,000,00000:00 (00:00)BlueLine GamesBlueLine Games
630 The Four Kings Casino and Slots Jun 1, 2015 FreeN/A (N/A)200,000 .. 500,00000:00 (00:00)Digital Leisure Inc.Digital Leisure Inc.
631 Armored Warfare Oct 8, 2015 FreeN/A (N/A)500,000 .. 1,000,00000:00 (00:00)Obsidian Entertainment, Wishlist GamesWishlist Games
632 8BitMMO Jan 26, 2015 FreeN/A (N/A)500,000 .. 1,000,00000:00 (00:00)Archive EntertainmentArchive Entertainment
633 VEGA Conflict Dec 14, 2015 FreeN/A (N/A)500,000 .. 1,000,00000:00 (00:00)KIXEYEKIXEYE
634 Missing Translation Sep 24, 2015 FreeN/A (N/A)200,000 .. 500,00000:00 (00:00)AlPixel Games, Luis Diaz, Gustavo Santos, Albert Fernandez, Tice ThomasonGamesBoosters
635 Saint Seiya: Soldiers' Soul Nov 27, 2015 N/AN/A (N/A)50,000 .. 100,00000:00 (00:00)DIMPSBANDAI NAMCO Entertainment
636 Nomad Jun 26, 2015 FreeN/A (N/A)500,000 .. 1,000,00000:00 (00:00)Diminished StudiosDiminished Studios
637 Dead Realm Aug 3, 2015 N/AN/A (N/A)200,000 .. 500,00000:00 (00:00)Section Studios3BLACKDOT
638 Steel Ocean Nov 12, 2015 N/AN/A (N/A)500,000 .. 1,000,00000:00 (00:00)Changyou.com LimitedChangyou.com Limited
639 Strife May 22, 2015 FreeN/A (N/A)1,000,000 .. 2,000,00000:00 (00:00)S2 GamesS2 Games
640 Higurashi When They Cry Hou - Ch.1 Onikakushi May 15, 2015 FreeN/A (N/A)100,000 .. 200,00000:00 (00:00)07th ExpansionMangaGamer
641 NBA 2K16 Sep 29, 2015 N/AN/A (N/A)500,000 .. 1,000,00000:00 (00:00)Visual Concepts2K
642 Time Clickers Jul 23, 2015 FreeN/A (N/A)500,000 .. 1,000,00000:00 (00:00)Proton Studio Inc
643 the static speaks my name Aug 10, 2015 FreeN/A (N/A)200,000 .. 500,00000:00 (00:00)the whale husbandthe whale husband
644 Lost Lands: A Hidden Object Adventure Sep 24, 2015 FreeN/A (N/A)200,000 .. 500,00000:00 (00:00)FIVE-BN GAMESFIVE-BN GAMES
645 War Trigger 3 Dec 22, 2015 FreeN/A (N/A)1,000,000 .. 2,000,00000:00 (00:00)Rocketeer Games Studio, LLCRocketeer Games Studio, LLC
646 Endless Sky Oct 30, 2015 FreeN/A (N/A)500,000 .. 1,000,00000:00 (00:00)Michael ZahniserMichael Zahniser
647 Romero's Aftermath Sep 24, 2015 N/AN/A (N/A)1,000,000 .. 2,000,00000:00 (00:00)Free Reign EntertainmentOP Productions LLC, Free Reign East LLC
648 Steam Link Nov 10, 2015 N/AN/A (N/A)500,000 .. 1,000,00000:00 (00:00)Anima Locus
649 Minecraft: Story Mode - A Telltale Games Series Oct 13, 2015 N/AN/A (N/A)200,000 .. 500,00000:00 (00:00)Telltale GamesTelltale Games
650 Gear Up Jan 28, 2015 FreeN/A (N/A)1,000,000 .. 2,000,00000:00 (00:00)Doctor Entertainment ABDoctor Entertainment AB
651 Relic Hunters Zero: Remix Aug 18, 2015 FreeN/A (N/A)1,000,000 .. 2,000,00000:00 (00:00)Rogue SnailAkupara Games
652 Carpe Diem Nov 30, 2015 FreeN/A (N/A)200,000 .. 500,00000:00 (00:00)Moonlit WorksMoonlit Works
653 MechWarrior Online Solaris 7 Dec 10, 2015 FreeN/A (N/A)1,000,000 .. 2,000,00000:00 (00:00)Piranha Games Inc.Piranha Games Inc.
654 America's Army: Proving Grounds Oct 1, 2015 N/AN/A (N/A)2,000,000 .. 5,000,00000:01 (00:00)U.S. ArmyU.S. Army
655 Dr. Langeskov, The Tiger, and The Terribly Cursed Emerald: A Whirlwind Heist Dec 4, 2015 FreeN/A (N/A)500,000 .. 1,000,00000:00 (00:00)Crows Crows CrowsCrows Crows Crows
656 Freestyle 2: Street Basketball Apr 1, 2015 FreeN/A (N/A)5,000,000 .. 10,000,00000:00 (00:00)JOYCITYJOYCITY
657 Mitos.is: The Game Jul 29, 2015 FreeN/A (N/A)2,000,000 .. 5,000,00000:00 (00:00)Freakinware StudiosFreakinware Studios
658 Eternal Senia Jun 18, 2015 FreeN/A (N/A)500,000 .. 1,000,00000:00 (00:00)Sanctum GamesSanctum Games
659 Spooky's Jump Scare Mansion Jul 28, 2015 FreeN/A (N/A)1,000,000 .. 2,000,00000:00 (00:00)Lag StudiosLag Studios
660 Sakura Clicker Jul 29, 2015 FreeN/A (N/A)1,000,000 .. 2,000,00000:00 (00:00)Winged CloudWinged Cloud
661 Survarium Apr 2, 2015 N/AN/A (N/A)2,000,000 .. 5,000,00000:00 (00:00)Vostok GamesVostok Games
662 Magic Duels Jul 29, 2015 N/AN/A (N/A)2,000,000 .. 5,000,00000:00 (00:00)Stainless Games Ltd.Wizards of the Coast LLC
663 Transformice Jan 30, 2015 FreeN/A (N/A)2,000,000 .. 5,000,00005:48 (06:42)Atelier 801Atelier 801
664 Emily is Away Nov 20, 2015 FreeN/A (N/A)1,000,000 .. 2,000,00000:00 (00:00)Kyle SeeleyKyle Seeley
665 Fishing Planet Aug 11, 2015 FreeN/A (N/A)2,000,000 .. 5,000,00000:30 (00:20)Fishing Planet LLCFishing Planet LLC
666 Just Survive Jan 15, 2015 N/AN/A (N/A)2,000,000 .. 5,000,00000:00 (00:00)Daybreak Game CompanyDaybreak Game Company
667 AdVenture Capitalist Mar 30, 2015 FreeN/A (N/A)5,000,000 .. 10,000,00000:53 (00:53)Hyper Hippo GamesHyper Hippo Games
668 Clicker Heroes May 13, 2015 FreeN/A (N/A)5,000,000 .. 10,000,00064:58 (43:18)PlaysaurusPlaysaurus
669 Trove Jul 9, 2015 N/AN/A (N/A)10,000,000 .. 20,000,00016:39 (27:14)gamigo US Inc.gamigo US Inc.
670 Life is Strange - Episode 1 Jan 29, 2015 FreeN/A (N/A)5,000,000 .. 10,000,00042:07 (14:02)DONTNOD Entertainment, Feral Interactive (Mac), Feral Interactive (Linux)Square Enix, Feral interactive (Mac), Feral Interactive (Linux)
671 Professor Teaches Word 2013 & 365 Jun 29, 2015 $14.99N/A (N/A)0 .. 20,00000:00 (00:00)Individual SoftwareIndividual Software
672 Deficis Jul 30, 2015 $14.99N/A (N/A)0 .. 20,00000:00 (00:00)Gneu LLCGneu LLC
673 Professor Teaches OneNote 2013 & 365 Jul 22, 2015 $14.99N/A (N/A)0 .. 20,00000:00 (00:00)Individual SoftwareIndividual Software
674 Professor Teaches Outlook 2013 & 365 Jul 22, 2015 $14.99N/A (N/A)0 .. 20,00000:00 (00:00)Individual SoftwareIndividual Software
675 Baxter's Venture: Director's Cut Jul 30, 2015 $0.99N/A (N/A)0 .. 20,00000:00 (00:00)GG-WorksGG-Works
676 Professor Teaches Outlook 2016 Oct 12, 2015 $14.99N/A (N/A)0 .. 20,00000:00 (00:00)Individual SoftwareIndividual Software
677 Professor Teaches Excel 2013 & 365 Jun 29, 2015 $14.99N/A (N/A)0 .. 20,00000:00 (00:00)Individual SoftwareIndividual Software
678 Professor Teaches PowerPoint 2016 Sep 15, 2015 $14.99N/A (N/A)0 .. 20,00000:00 (00:00)Individual SoftwareIndividual Software
679 Temporal Shift Jul 16, 2015 $9.99N/A (N/A)0 .. 20,00000:00 (00:00)Four LightsFour Lights
680 Vol'Talkes - The AI War Nov 11, 2015 $29.99N/A (N/A)0 .. 20,00000:00 (00:00)HyperDrive GamesHyperDrive Games
681 Infinite Game Works Episode 1 Oct 26, 2015 $7.99N/A (N/A)0 .. 20,00000:00 (00:00)Sakura River InteractiveSakura River Interactive
682 Radial Impact Jul 31, 2015 $0.99N/A (N/A)0 .. 20,00000:00 (00:00)Devin SherryDevin Sherry
683 Professor Teaches Access 2013 & 365 Jul 14, 2015 $14.99N/A (N/A)0 .. 20,00000:00 (00:00)Individual SoftwareIndividual Software
684 Fjall Sep 19, 2015 $2.99N/A (N/A)0 .. 20,00000:00 (00:00)dimecoin, BestowDimecoin Games, LLC
685 Fringes of the Empire Nov 16, 2015 $0.99N/A (N/A)0 .. 20,00000:00 (00:00)Lost Astronaut StudiosSelf-Published
686 Save the Creatures Oct 18, 2015 $1.99N/A (N/A)20,000 .. 50,00000:00 (00:00)Michael Porter, Aaron Smith, Andrew ThomasMichael Porter
687 One Bit May 12, 2015 $0.99N/A (N/A)0 .. 20,00000:00 (00:00)VeibynVeibyn
688 Proxyah v3.1 Nov 5, 2015 $3.99N/A (N/A)0 .. 20,00000:00 (00:00)Viktor TimofeevViktor Timofeev
689 Gremlin Invasion: Survivor May 1, 2015 $0.99N/A (N/A)0 .. 20,00000:00 (00:00)CS Squared Games, Among GiantsCS Squared Games
690 Professor Teaches Excel 2016 Sep 15, 2015 $14.99N/A (N/A)0 .. 20,00000:00 (00:00)Individual SoftwareIndividual Software
691 ScudBuster Dec 18, 2015 $4.99N/A (N/A)0 .. 20,00000:00 (00:00)HyperKat GamesHyperKat Games
692 Professor Teaches OneNote 2016 Sep 15, 2015 $14.99N/A (N/A)0 .. 20,00000:00 (00:00)Individual SoftwareIndividual Software
693 Quiz Time Jun 23, 2015 $9.99N/A (N/A)0 .. 20,00000:00 (00:00)Yash Future Tech Solutions Pvt LtdYash Future Tech Solutions Pvt Ltd
694 Family Tree Heritage Platinum 9 May 26, 2015 $29.99N/A (N/A)0 .. 20,00000:00 (00:00)Individual SoftwareIndividual Software
695 Professor Teaches Word 2016 Sep 15, 2015 $14.99N/A (N/A)0 .. 20,00000:00 (00:00)Individual SoftwareIndividual Software
696 Heresy Nov 19, 2015 $19.99N/A (N/A)0 .. 20,00000:00 (00:00)dark made gamesdark made games
697 Perfection of Wisdom Apr 6, 2015 $7.99N/A (N/A)0 .. 20,00000:00 (00:00)14Dimension Enterprise14Dimension Enterprise
698 Unlimited Escape 3 & 4 Double Pack May 21, 2015 $6.99N/A (N/A)0 .. 20,00000:00 (00:00)Carlo D'Apostoli ProjectsStrategy First
699 World Circuit Boxing Jan 24, 2015 $3.99N/A (N/A)0 .. 20,00000:00 (00:00)J3I GamesJ3I Games
700 Valzar Dec 22, 2015 $9.99N/A (N/A)0 .. 20,00000:00 (00:00)Whale NebulaWhale Nebula
701 Egyptian Settlement Gold May 12, 2015 $7.99N/A (N/A)0 .. 20,00000:00 (00:00)magnussoftmagnussoft
702 Production Inc. Dec 31, 2015 $19.99N/A (N/A)0 .. 20,00000:00 (00:00)Solo InstinctSolo Instinct
703 Unlimited Escape 2 Apr 22, 2015 $4.99N/A (N/A)0 .. 20,00000:00 (00:00)Carlo D'Apostoli ProjectsStrategy First
704 Zxill: A Legend of Time Sep 4, 2015 $6.99N/A (N/A)0 .. 20,00000:00 (00:00)ZXDigital Ltd, Polyquest GamesZXDigital Ltd
705 Monkey King Saga Nov 30, 2015 $4.99N/A (N/A)0 .. 20,00000:00 (00:00)T-Rex GamesT-Rex Games
706 RigIT Oct 1, 2015 $8.99N/A (N/A)0 .. 20,00000:00 (00:00)RigITRigIT
707 Hope in Hell Oct 31, 2015 $2.99N/A (N/A)0 .. 20,00000:00 (00:00)Emeryon gamesEmeryon games
708 Nightclub Emporium Aug 7, 2015 $2.99N/A (N/A)20,000 .. 50,00000:00 (00:00)United Independent EntertainmentUnited Independent Entertainment
709 Zone 22 Jun 26, 2015 $7.99N/A (N/A)0 .. 20,00000:00 (00:00)Nordic LegacyNordic Legacy
710 The Light Empire Dec 2, 2015 $5.99N/A (N/A)0 .. 20,00000:00 (00:00)JemyJemy
711 CHARIOT WARS May 25, 2015 $6.99N/A (N/A)0 .. 20,00000:00 (00:00)OM ENTERTAINMENTOM ENTERTAINMENT
712 Caribbean Odyssey Nov 12, 2015 $9.99N/A (N/A)0 .. 20,00000:00 (00:00)Imran ArafatReality Gameware
713 Puzzle Expedition Jun 29, 2015 $7.99N/A (N/A)0 .. 20,00000:00 (00:00)Top3LineTop3Line
714 Professor Teaches PowerPoint 2013 & 365 Jul 14, 2015 $14.99N/A (N/A)0 .. 20,00000:00 (00:00)Individual SoftwareIndividual Software
715 Hauntsters Dec 22, 2015 $4.99N/A (N/A)0 .. 20,00000:00 (00:00)Shark Tree StudiosShark Tree Studios
716 UfoPilot : Astro-Creeps Elite May 5, 2015 $4.99N/A (N/A)0 .. 20,00000:00 (00:00)nornware ABnornware AB
717 Dungeoncraft Jun 5, 2015 $9.99N/A (N/A)0 .. 20,00000:00 (00:00)ZinnuslZinnusl
718 Voxel Blast Oct 22, 2015 $11.99N/A (N/A)0 .. 20,00000:00 (00:00)Ceiba Software and ArtsCeiba Software and Arts
719 Professor Teaches Access 2016 Sep 15, 2015 $14.99N/A (N/A)0 .. 20,00000:00 (00:00)Individual SoftwareIndividual Software
720 Mass Vector Nov 24, 2015 $5.99N/A (N/A)0 .. 20,00000:00 (00:00)Moving Pixel GamesMoving Pixel Games
721 Unlimited Escape Feb 5, 2015 $4.99N/A (N/A)0 .. 20,00000:00 (00:00)Carlo D'Apostoli ProjectsStrategy First
722 Luminoso Apr 17, 2015 $4.99N/A (N/A)0 .. 20,00000:00 (00:00)blizzy Gamesblizzy Games
723 OVERGRAVITY Jul 24, 2015 $2.99N/A (N/A)0 .. 20,00000:00 (00:00)TinycorpTinycorp
724 Coated Aug 25, 2015 $4.99N/A (N/A)0 .. 20,00000:00 (00:00)mamoniem, OwlnightOwlnight
725 Death Pirate Jun 6, 2015 $3.99N/A (N/A)0 .. 20,00000:00 (00:00)Singe StudioSinge Studio
726 Ironkraft - Road to Hell Oct 22, 2015 $9.99N/A (N/A)0 .. 20,00000:00 (00:00)Invoker StudiosInvoker Studios
727 Vortex Jul 17, 2015 $4.99N/A (N/A)0 .. 20,00000:00 (00:00)Displace MediaDisplace Media
728 Datswer Feb 4, 2015 $3.99N/A (N/A)0 .. 20,00000:00 (00:00)Behtam DeveloperBehtam Developer, UK VENUS
729 Prison Tycoon Alcatraz May 11, 2015 $9.99N/A (N/A)0 .. 20,00000:00 (00:00)ValuSoftCosmi Valusoft
730 Band of Drones Mar 25, 2015 $7.99N/A (N/A)0 .. 20,00000:00 (00:00)Kiritsu GamesKiritsu Games
731 DNO Rasa's Journey May 23, 2015 $2.99N/A (N/A)0 .. 20,00000:00 (00:00)EZDesignerEZDesigner
732 Dolguth Oct 20, 2015 $5.99N/A (N/A)0 .. 20,00000:00 (00:00)Boiagames20Tab
733 Questria: Rise of the Robot Skullfaces Nov 9, 2015 $9.99N/A (N/A)0 .. 20,00000:00 (00:00)AltImage GamesAltImage Games
734 Virtual Orator May 1, 2015 $199.99N/A (N/A)0 .. 20,00000:00 (00:00)Virtual Human TechnologiesVirtual Human Technologies
735 House of Nightmares B-Movie Edition Apr 19, 2015 $0.99N/A (N/A)0 .. 20,00000:00 (00:00)Morphodox StudiosMorphodox Studios
736 最強の囲碁 ~名人への道~ / Igo Meijin Jan 30, 2015 $79.99N/A (N/A)0 .. 20,00000:00 (00:00)UNBALANCE CorporationUNBALANCE Corporation
737 Haunted Hotel: Phoenix Collector's Edition Aug 22, 2015 $9.99N/A (N/A)0 .. 20,00000:00 (00:00)Elephant GamesBig Fish Games
738 TNN Motorsports Hardcore TR Aug 10, 2015 $4.99N/A (N/A)0 .. 20,00000:00 (00:00)ASC GamesConsole Classics
739 The Makeshifter Aug 21, 2015 $8.99N/A (N/A)0 .. 20,00000:00 (00:00)Squirrel PhysicsSquirrel Physics
740 SuperBike TT Feb 25, 2015 $12.99N/A (N/A)0 .. 20,00000:00 (00:00)Ghost MachineGhost Machine
741 Snails May 1, 2015 FreeN/A (N/A)20,000 .. 50,00000:00 (00:00)Jorge Lima, Alexandre Fontoura2Brains Games
742 Magnetron Nov 16, 2015 $5.99N/A (N/A)0 .. 20,00000:00 (00:00)Jay-RunJay-Run
743 Revenge: Rhobar's myth Sep 8, 2015 $4.99N/A (N/A)0 .. 20,00000:00 (00:00)Polygon ArtPolygon Art
744 InsanZ - Retro Survival Horror Apr 27, 2015 $6.99N/A (N/A)20,000 .. 50,00000:00 (00:00)SimplexGameStudioSimplexGameStudio
745 CONTASION 2 Nov 29, 2015 $6.99N/A (N/A)0 .. 20,00000:00 (00:00)Alex WoodcockAlex Woodcock
746 The Empty Inn Jul 10, 2015 $3.99N/A (N/A)0 .. 20,00000:00 (00:00)Candlelight StudiosCandlelight Studios
747 Rock, the Tree Hugger Jul 30, 2015 $4.99N/A (N/A)20,000 .. 50,00000:00 (00:00)Machineman1357, Phanom GamesMachineman1357, Phanom Games
748 Terminal Hacker - Into the Deep Oct 30, 2015 $1.99N/A (N/A)0 .. 20,00000:00 (00:00)SecuritySession.comSecuritySession.com
749 Shmup Love Boom Sep 18, 2015 $1.94N/A (N/A)0 .. 20,00000:00 (00:00)Dharker StudiosDharker Studios
750 Luxury Hotel Emporium Aug 7, 2015 $3.99N/A (N/A)0 .. 20,00000:00 (00:00)United Independent EntertainmentUnited Independent Entertainment
751 Evolution II: Fighting for Survival Feb 12, 2015 $1.99N/A (N/A)0 .. 20,00000:00 (00:00)LiveItGames LLCLiveItGames LLC
752 Voodoo Chronicles: The First Sign HD - Director’s Cut Edition May 28, 2015 $6.99N/A (N/A)0 .. 20,00000:00 (00:00)Space Monkey International1C Online Games
753 栄冠は君に レジェンドパック Jan 8, 2015 $34.99N/A (N/A)0 .. 20,00000:00 (00:00)ARTDINKKomodo
754 Gene Jan 30, 2015 $3.99N/A (N/A)0 .. 20,00000:00 (00:00)Vital Games LtdVital Games Ltd
755 Star Balls Aug 18, 2015 $4.99N/A (N/A)0 .. 20,00000:00 (00:00)Bolder GamesBolder Games
756 Spheritis Jun 4, 2015 $4.99N/A (N/A)0 .. 20,00000:00 (00:00)BluestrikeBluestrike
757 Professor Teaches Windows 10 Jul 29, 2015 $14.99N/A (N/A)0 .. 20,00000:00 (00:00)Individual SoftwareIndividual Software
758 Axes and Arrows Sep 29, 2015 $2.99N/A (N/A)20,000 .. 50,00000:00 (00:00)The Net ChampsThe Net Champs
759 Birth of Shadows Nov 5, 2015 $2.49N/A (N/A)0 .. 20,00000:00 (00:00)Precision Games, LLCPrecision Games, LLC
760 Zombien Mar 6, 2015 $6.99N/A (N/A)0 .. 20,00000:00 (00:00)Hosted GamesHosted Games
761 Wildlife Creative Studio Jan 28, 2015 $6.99N/A (N/A)0 .. 20,00000:00 (00:00)Alternative Software LtdAlternative Software Ltd
762 Soda Star May 14, 2015 $3.99N/A (N/A)20,000 .. 50,00000:00 (00:00)Tiny UtopiaTiny Utopia
763 Snapshot - DSLR Camera Control Jul 23, 2015 $2.99N/A (N/A)0 .. 20,00000:00 (00:00)Chris HopkinChris Hopkin
764 Blues and Bullets - Digital Comic Jul 23, 2015 $2.99N/A (N/A)0 .. 20,00000:00 (00:00)A Crowd of MonstersA Crowd of Monsters
765 Tick: The Time Based Puzzle Game Dec 1, 2015 $2.99N/A (N/A)0 .. 20,00000:00 (00:00)Fingertip Games UKFingertip Games UK
766 Maraiyum: Rise of the Setting Sun Aug 1, 2015 $5.99N/A (N/A)0 .. 20,00000:00 (00:00)Humdrum Software LLCHumdrum Software LLC
767 Mystery Trackers: Nightsville Horror Collector's Edition May 28, 2015 $9.99N/A (N/A)20,000 .. 50,00000:00 (00:00)Elephant GamesBig Fish Games
768 Spectrum: First Light Jul 24, 2015 $9.99N/A (N/A)0 .. 20,00000:00 (00:00)Mido Basim, Danny WeiMido Basim
769 Nirvana: The First Travel Jul 31, 2015 $3.99N/A (N/A)0 .. 20,00000:00 (00:00)Jardel EliasJardel Elias
770 Actua Golf 3 Aug 31, 2015 $4.99N/A (N/A)0 .. 20,00000:00 (00:00)UrbanscanConsole Classics
771 The Ultimate Showdown Sep 16, 2015 $2.99N/A (N/A)0 .. 20,00000:00 (00:00)Harrison WaltersSole Propriotership
772 In The Dead Of Night - Urszula's Revenge Dec 18, 2015 $4.99N/A (N/A)0 .. 20,00000:00 (00:00)Axed Game StudioAxed Game Studio
773 SBX: Invasion Jun 1, 2015 $1.99N/A (N/A)20,000 .. 50,00000:00 (00:00)Jason CarterWakeskater Studio
774 Oncoming Death Steam Edition Oct 12, 2015 $0.99N/A (N/A)0 .. 20,00000:00 (00:00)David Vogt, Christoph WinklerShit-Happens-Software
775 Toy Wars Invasion May 28, 2015 $11.99N/A (N/A)0 .. 20,00000:00 (00:00)Web Interactive SolutionsWeb Interactive Solutions
776 Geared May 15, 2015 $2.99N/A (N/A)0 .. 20,00000:00 (00:00)Playful Art, LLCPlayful Art, LLC
777 Fork Truck Challenge Jul 24, 2015 $7.99N/A (N/A)0 .. 20,00000:00 (00:00)Mint Arcade Ltd.Mint Arcade Ltd.
778 Battletank LOBA Mar 17, 2015 $9.99N/A (N/A)0 .. 20,00000:00 (00:00)Five Archers GamesStrategy First
779 STOORM - Full Edition. Apr 28, 2015 $2.99N/A (N/A)0 .. 20,00000:00 (00:00)Garage Monkey StudioGarage Monkey Studio
780 Spellbind Mar 17, 2015 $9.99N/A (N/A)0 .. 20,00000:00 (00:00)Point2Point EntertainmentStrategy First
781 Second Coming: Tactical Training Apr 30, 2015 $4.99N/A (N/A)0 .. 20,00000:00 (00:00)Modern Paradise Media Inc.Modern Paradise Media Inc.
782 Rktcr May 12, 2015 $4.99N/A (N/A)0 .. 20,00000:00 (00:00)TCHOWTCHOW
783 Ongaku May 29, 2015 $2.99N/A (N/A)0 .. 20,00000:00 (00:00)SmashMouth Games LtdSmashMouth Games Ltd
784 Knight & Damsel Aug 20, 2015 $9.99N/A (N/A)0 .. 20,00000:00 (00:00)MK-ULTRA GamesMK-ULTRA Games
785 Fragmentum Dec 2, 2015 $9.99N/A (N/A)0 .. 20,00000:00 (00:00)Lundar GamesLundar Games
786 Prometheus - The Fire Thief Apr 20, 2015 $4.99N/A (N/A)0 .. 20,00000:00 (00:00)Magical HackersMagical Hackers
787 Floors of Discomfort May 26, 2015 $1.99N/A (N/A)0 .. 20,00000:00 (00:00)Three Prong ProductionsThree Prong Productions
788 Ninja Outbreak Sep 20, 2015 $9.99N/A (N/A)0 .. 20,00000:00 (00:00)Renegade Sector GamesRenegade Sector Games
789 Exostorm May 15, 2015 $3.99N/A (N/A)0 .. 20,00000:00 (00:00)Midnight Oil Games, LLCMidnight Oil Games, LLC
790 History in Letters - The Eternal Alchemist Dec 8, 2015 $7.99N/A (N/A)0 .. 20,00000:00 (00:00)Z-SoftwareZ-Software GmbH
791 Nature Defenders Dec 21, 2015 $4.99N/A (N/A)0 .. 20,00000:00 (00:00)Nordic Mist GamesNordic Mist Games
792 Vector Assault Dec 10, 2015 $4.99N/A (N/A)0 .. 20,00000:00 (00:00)WizByte GamesWizByte Games
793 SnarfQuest Tales Sep 15, 2015 $19.99N/A (N/A)0 .. 20,00000:00 (00:00)Cellbloc StudiosCellbloc Studios
794 Rotieer Mar 5, 2015 $2.99N/A (N/A)0 .. 20,00000:00 (00:00)Enzo WhyteEnzo Whyte
795 Trucker 2 Aug 14, 2015 $2.99N/A (N/A)0 .. 20,00000:00 (00:00)SildenPlay Publishing
796 Catorize Nov 11, 2015 $2.99N/A (N/A)0 .. 20,00000:00 (00:00)Anima LocusAnima Locus
797 Man Alive May 25, 2015 $4.99N/A (N/A)0 .. 20,00000:00 (00:00)Global Empire SoftGlobal Empire Soft
798 QuestEvent Mar 24, 2015 $2.99N/A (N/A)0 .. 20,00000:00 (00:00)FivangFivang
799 Legend of Moros May 21, 2015 $4.99N/A (N/A)0 .. 20,00000:00 (00:00)Cannibal InteractiveCannibal Interactive
800 Christmas Mahjong 2 Dec 10, 2015 $4.99N/A (N/A)0 .. 20,00000:00 (00:00)Creobit8floor
801 Mysteries & Nightmares: Morgiana Apr 13, 2015 $7.99N/A (N/A)0 .. 20,00000:00 (00:00)Little Games CompanyLittle Games Company
802 Dr. Bulbaceous Nov 19, 2015 $3.99N/A (N/A)0 .. 20,00000:00 (00:00)WetgenesWetgenes
803 Lucid Awakening 2 Jan 7, 2015 $8.99N/A (N/A)0 .. 20,00000:00 (00:00)Momiji StudiosMomiji Studios
804 Raining Coins Jan 18, 2015 $3.99N/A (N/A)0 .. 20,00000:00 (00:00)Crazysoft LimitedCrazysoft Limited
805 Tower of Eglathia Apr 6, 2015 $3.99N/A (N/A)0 .. 20,00000:00 (00:00)Lord EglathiaEglathia Games
806 Mass Destruction Aug 24, 2015 $4.99N/A (N/A)0 .. 20,00000:00 (00:00)NMS SoftwareConsole Classics
807 Rothschild: The Sheep Will Wake Nov 23, 2015 $9.99N/A (N/A)0 .. 20,00000:00 (00:00)Loudpak StudiosLoudpak Studios
808 CastleAbra Jun 5, 2015 $0.99N/A (N/A)20,000 .. 50,00000:00 (00:00)CastleAbra StudiosCastleAbra Studios
809 The Logomancer Aug 4, 2015 $3.99N/A (N/A)0 .. 20,00000:00 (00:00)Jeffrey Nordin, Justin NordinJeffrey Nordin
810 Fatty Maze's Adventures Feb 19, 2015 $5.99N/A (N/A)0 .. 20,00000:00 (00:00)Five CubedT.G.S. TRUE GAMES STUDIO LIMITED
811 The Worm Sep 29, 2015 $4.99N/A (N/A)0 .. 20,00000:00 (00:00)Carlo D'Apostoli ProjectsStrategy First
812 GravBlocks Dec 15, 2015 $1N/A (N/A)0 .. 20,00000:00 (00:00)From Nothing Game StudiosFrom Nothing Game Studios
813 Cell HD: emergence Feb 19, 2015 $5.99N/A (N/A)0 .. 20,00000:00 (00:00)New Life Interactive, LLCNew Life Interactive, LLC
814 Chronoclysm Nov 12, 2015 $4.99N/A (N/A)0 .. 20,00000:00 (00:00)Zed-exZed-ex
815 A Stroke of Fate: Operation Bunker Aug 24, 2015 $6.99N/A (N/A)0 .. 20,00000:00 (00:00)Spline GamesAkella
816 Super Pixalo Feb 3, 2015 $0.99N/A (N/A)0 .. 20,00000:00 (00:00)Philip RoyerPhilip Royer
817 Doomed'n Damned Jul 13, 2015 $5.99N/A (N/A)0 .. 20,00000:00 (00:00)Arc-genArc-gen
818 Soccer Pinball Thrills Jun 26, 2015 $2.99N/A (N/A)0 .. 20,00000:00 (00:00)Fancy Bytes, ReactorUnited Independent Entertainment
819 Flight Unlimited Las Vegas Jul 6, 2015 $2.99N/A (N/A)0 .. 20,00000:00 (00:00)Flight Systems LLCFlight Systems LLC
820 Witches, Heroes and Magic Jun 29, 2015 $7.99N/A (N/A)0 .. 20,00000:00 (00:00)Michael SwanAweSwan
821 Super Space Meltdown Jul 31, 2015 $3.99N/A (N/A)0 .. 20,00000:00 (00:00)Polyquest Games, ZXDigital LtdZXDigital Ltd
822 The Legend of Candlewind: Nights & Candles Feb 12, 2015 $9.99N/A (N/A)20,000 .. 50,00000:00 (00:00)Atmosphere Entertainment Studios2tainment GmbH
823 Drone Zero Gravity Oct 2, 2015 $9.99N/A (N/A)0 .. 20,00000:00 (00:00)Isaac NicholsIsaac Nichols
824 SLIDE: platformer Jul 16, 2015 $4.99N/A (N/A)0 .. 20,00000:00 (00:00)APAS gamesAPAS games
825 Icebound Aug 5, 2015 $14.99N/A (N/A)0 .. 20,00000:00 (00:00)Fastermind GamesFastermind Games
826 The Electric Shocktopus Jan 25, 2015 $6.99N/A (N/A)0 .. 20,00000:00 (00:00)TestTubeGamesTestTubeGames
827 Amos From Outer Space Oct 5, 2015 $2.99N/A (N/A)0 .. 20,00000:00 (00:00)Poisson Rouge Interactica ltdPoisson Rouge Interactica ltd
828 Warlock's Citadel Oct 9, 2015 N/AN/A (N/A)0 .. 20,00000:00 (00:00)Byte-UP Co., ltd.Byte-UP Co., ltd.
829 Haunted Hotel: Eternity Collector's Edition May 27, 2015 $9.99N/A (N/A)20,000 .. 50,00000:00 (00:00)Elephant GamesBig Fish Games
830 Celestrion Dec 7, 2015 $0.99N/A (N/A)0 .. 20,00000:00 (00:00)dSky9, Inc.dSky9, Inc.
831 MicroRC Simulation Dec 15, 2015 $1.99N/A (N/A)0 .. 20,00000:00 (00:00)Minindustries Game FactoryMinindustries Game Factory
832 FALL Dec 17, 2015 $3.99N/A (N/A)0 .. 20,00000:00 (00:00)NorthbrainNorthbrain
833 Brain Guzzler: The End Is Nigh May 8, 2015 $0.99N/A (N/A)0 .. 20,00000:00 (00:00)Flaming Pumpkin LtdFlaming Pumpkin Ltd
834 Dissonance: An Interactive Novelette Dec 1, 2015 $0.99N/A (N/A)0 .. 20,00000:00 (00:00)Philip RoyerPhilip Royer
835 My Family Creative Studio Jan 28, 2015 $1.39N/A (N/A)0 .. 20,00000:00 (00:00)Alternative Software LtdAlternative Software Ltd
836 Heart of Ember CH1 Jul 27, 2015 $1.99N/A (N/A)0 .. 20,00000:00 (00:00)Animation CatalystAnimation Catalyst
837 Goggles - World of Vaporia Oct 9, 2015 $7.99N/A (N/A)20,000 .. 50,00000:00 (00:00)Bit2Good UgBit2Good Ug
838 Funtoon's World May 1, 2015 $4.99N/A (N/A)0 .. 20,00000:00 (00:00)Yash Future Tech Solutions Pvt LtdYash Future Tech Solutions Pvt Ltd
839 ReLoaded Jul 24, 2015 $4.99N/A (N/A)0 .. 20,00000:00 (00:00)UrbanscanConsole Classics
840 Starlord Nov 13, 2015 $6.99N/A (N/A)0 .. 20,00000:00 (00:00)Third Millenium SoftwareRetroism, Nightdive Studios
841 Mystery Maze Of Balthasar Castle Jul 10, 2015 $4.99N/A (N/A)0 .. 20,00000:00 (00:00)Caipirinha Games, DevQ1Libredia
842 TOTM Feb 3, 2015 $7.99N/A (N/A)0 .. 20,00000:00 (00:00)Juniper GamesJuniper GmbH
843 Pocket God vs Desert Ashes Aug 20, 2015 $4.99N/A (N/A)0 .. 20,00000:00 (00:00)Nine Tales Digital, Bolt CreativeNine Tales Digital
844 Martial Law May 26, 2015 N/AN/A (N/A)0 .. 20,00000:00 (00:00)DropDGamesDropDGames
845 Hatland Adventures Feb 3, 2015 $2.99N/A (N/A)0 .. 20,00000:00 (00:00)Fractal AlligatorFractal Alligator
846 Purgatory: War of the Damned Feb 11, 2015 $14.99N/A (N/A)0 .. 20,00000:00 (00:00)Ironsun StudiosKISS ltd
847 Red Bit Ninja May 4, 2015 $4.99N/A (N/A)0 .. 20,00000:00 (00:00)Seven Sails GamesSeven Sails Games
848 Russian Front Jul 23, 2015 $14.99N/A (N/A)20,000 .. 50,00000:00 (00:00)Electric RuneHexWar Games
849 Island Flight Simulator Apr 17, 2015 $6.99N/A (N/A)0 .. 20,00000:00 (00:00)Caipirinha GamesLibredia
850 Invisible Apartment 2 Sep 24, 2015 $3.99N/A (N/A)0 .. 20,00000:00 (00:00)Milan Kazarka, Jeroen van OostenVysoko Anime Production
851 Grim Tales: The Final Suspect Collector's Edition May 17, 2015 $9.99N/A (N/A)0 .. 20,00000:00 (00:00)Elephant GamesBig Fish Games
852 Dawn of the Plow Nov 3, 2015 $3.99N/A (N/A)0 .. 20,00000:00 (00:00)Dan FitzGerald, TrichotomyDan FitzGerald, Trichotomy
853 inSynch Sep 30, 2015 $4.99N/A (N/A)0 .. 20,00000:00 (00:00)Them GamesThem Games
854 عالم أريب Nov 2, 2015 $54.99N/A (N/A)0 .. 20,00000:00 (00:00)Remal ITRemal IT
855 Lighthockey Oct 30, 2015 $1.99N/A (N/A)0 .. 20,00000:00 (00:00)Aries-LenovAries-Lenov
856 Quatro Luzes Nov 13, 2015 $5.99N/A (N/A)0 .. 20,00000:00 (00:00)Jardel EliasJardel Elias
857 Nulldrifters Dec 14, 2015 $1.99N/A (N/A)0 .. 20,00000:00 (00:00)Cliax GamesCliax Games
858 Louie Cooks Nov 10, 2015 $4.99N/A (N/A)0 .. 20,00000:00 (00:00)starlit studios, http://starlit-studio.com/starlit studios, http://starlit-studio.com/
859 Poppy Kart Oct 9, 2015 $4.99N/A (N/A)0 .. 20,00000:00 (00:00)Stephane Graziano, Franck Graziano, Mathieu LamarcheWebrox
860 All Fall Down Oct 16, 2015 $0.99N/A (N/A)0 .. 20,00000:00 (00:00)khos85khos85
861 Jane's Realty Oct 21, 2015 $2.99N/A (N/A)0 .. 20,00000:00 (00:00)RealoreQumaron
862 Janky Tanks Feb 12, 2015 $4.99N/A (N/A)0 .. 20,00000:00 (00:00)Hyper Hippo GamesHyper Hippo Games
863 Downpour May 14, 2015 $0.99N/A (N/A)0 .. 20,00000:00 (00:00)Modesto A. RabenaDivergent Game Studio
864 Gamefuel Driver Control Dec 10, 2015 $29.99N/A (N/A)20,000 .. 50,00000:00 (00:00)Auslogics SoftwareConsole Classics
865 Atlantic Quest Solitaire Jun 22, 2015 $8.99N/A (N/A)0 .. 20,00000:00 (00:00)familyplay
866 Troubles Land Sep 11, 2015 $4.99N/A (N/A)0 .. 20,00000:00 (00:00)ENKSoftENKSoft
867 Wicked Witches Nov 27, 2015 $9.99N/A (N/A)0 .. 20,00000:00 (00:00)Ectoplasm Studio Inc.Ectoplasm Studio Inc.
868 Unheard Screams - King Leopold II's Rule Over The Congo May 11, 2015 $2.99N/A (N/A)0 .. 20,00000:00 (00:00)LocomotivahLocomotivah
869 Professor Why: The Quantum Eye Dec 1, 2015 $9.99N/A (N/A)0 .. 20,00000:00 (00:00)Professor WhyProfessor Why
870 Dexterity Ball 3D Dec 7, 2015 $6.99N/A (N/A)0 .. 20,00000:00 (00:00)Quandary Solutions LTDQuandary Solutions LTD
871 Orc Slayer Nov 5, 2015 $1.99N/A (N/A)0 .. 20,00000:00 (00:00)Cooply SolutionsCooply Solutions
872 Two Steps Back Aug 6, 2015 $2.99N/A (N/A)0 .. 20,00000:00 (00:00)Kristen CheelyKristen Cheely
873 Shiny Gauntlet Oct 1, 2015 $0.99N/A (N/A)0 .. 20,00000:00 (00:00)SpritewrenchSpritewrench
874 Fruits Inc. Deluxe Pack Feb 19, 2015 $7.99N/A (N/A)0 .. 20,00000:00 (00:00)Manifesto Game StudioStrategy First
875 The Glow Dec 10, 2015 $3.99N/A (N/A)0 .. 20,00000:00 (00:00)Brainwashing gamesBrainwashing games
876 You Are Not The Hero Jun 2, 2015 $14.99N/A (N/A)0 .. 20,00000:00 (00:00)ToMorning ProductionsToMorning Productions
877 TAKEN Jul 7, 2015 $1.99N/A (N/A)0 .. 20,00000:00 (00:00)Undead Yeti SoftwareMath Nerd Productions, LLC
878 Caffeine Oct 12, 2015 $10.99N/A (N/A)0 .. 20,00000:00 (00:00)Incandescent ImagingIncandescent Imaging
879 BEARZERKERS Oct 23, 2015 $12.99N/A (N/A)0 .. 20,00000:00 (00:00)WildgrassWildgrass
880 Mahjong Magic Journey 3 Dec 12, 2015 $4.99N/A (N/A)0 .. 20,00000:00 (00:00)Creobit8floor
881 Marble Muse Aug 14, 2015 $4.99N/A (N/A)0 .. 20,00000:00 (00:00)Ketos Games, Shiny Snail LLCShiny Snail LLC
882 Steamalot: Epoch's Journey Aug 31, 2015 $4.99N/A (N/A)0 .. 20,00000:00 (00:00)Risen Phoenix StudiosRisen Phoenix Studios
883 Everything is Black and White Apr 23, 2015 $1.99N/A (N/A)0 .. 20,00000:00 (00:00)Thomas GwaltneyThomas Gwaltney
884 Freedom Poopie Oct 16, 2015 $2.99N/A (N/A)0 .. 20,00000:00 (00:00)Electroplasmatic GamesElectroplasmatic Games
885 Carrotting Brain Oct 23, 2015 $8.99N/A (N/A)0 .. 20,00000:00 (00:00)Raving BotsRaving Bots
886 Con Amore Nov 28, 2015 $4.99N/A (N/A)0 .. 20,00000:00 (00:00)Team TajuWronghut
887 Super Goo Goo Apr 16, 2015 $2.99N/A (N/A)0 .. 20,00000:00 (00:00)Greg LobanovDonut Games
888 Paparazzi Feb 17, 2015 $1.99N/A (N/A)0 .. 20,00000:00 (00:00)Pringo Dingo GamesPringo Dingo Games
889 Hunter Gatherer Mar 24, 2015 $1.99N/A (N/A)0 .. 20,00000:00 (00:00)Hunter Gatherer GamesHunter Gatherer Games
890 The Sheltered Apr 16, 2015 $1.99N/A (N/A)0 .. 20,00000:00 (00:00)Benjamin FamigliettiPuppet Arcade
891 Galaxy Union Jun 1, 2015 $4.99N/A (N/A)20,000 .. 50,00000:00 (00:00)cybercriticscybercritics
892 Choice of the Petal Throne Apr 10, 2015 $4.99N/A (N/A)0 .. 20,00000:00 (00:00)Choice of GamesChoice of Games
893 Judgement Sep 15, 2015 $4.99N/A (N/A)0 .. 20,00000:00 (00:00)Nathan Archer, Luke Brown, Dan KramerNewfa Games
894 Relativity Wars - A Science Space RTS Apr 10, 2015 $5.99N/A (N/A)20,000 .. 50,00000:00 (00:00)Fungameco LtdFungameco Ltd
895 Raise Your Own Clone Oct 13, 2015 $0.99N/A (N/A)20,000 .. 50,00000:00 (00:00)CoaguCo IndustriesCoaguCo Industries
896 Lonath Online Oct 16, 2015 $6.99N/A (N/A)0 .. 20,00000:00 (00:00)4NetGames4NetGames
897 Alchemist Penguin Jun 6, 2015 $1.99N/A (N/A)0 .. 20,00000:00 (00:00)Foot in the Box, LLCFoot in the Box, LLC
898 MagNets Jan 30, 2015 $7.99N/A (N/A)0 .. 20,00000:00 (00:00)Total MonkeryTotal Monkery
899 Jaques Roque Apr 1, 2015 $8.99N/A (N/A)0 .. 20,00000:00 (00:00)Thomas Schreiter, Dirk Schreiter, Jörg Winterstein, Peer Draeger, Gereon BartelAugusta Software GmbH
900 RED Fuse: Rolling Explosive Device Sep 16, 2015 $4.99N/A (N/A)0 .. 20,00000:00 (00:00)Meteor ShockMeteor Shock
901 Bass Blocks Sep 15, 2015 $4.99N/A (N/A)0 .. 20,00000:00 (00:00)Paul CooneyPaul Cooney
902 Haunted Hotel: The X Collector's Edition Nov 12, 2015 $9.99N/A (N/A)0 .. 20,00000:00 (00:00)Elephant GamesBig Fish Games
903 Tile Rider Jun 4, 2015 $3.99N/A (N/A)0 .. 20,00000:00 (00:00)7 Soft Pillows7 Soft Pillows
904 The Forgotten Forest Nov 11, 2015 $0.99N/A (N/A)0 .. 20,00000:00 (00:00)Dylan WentzDylan Wentz
905 Tank: M1A1 Abrams Battle Simulation Nov 13, 2015 $6.99N/A (N/A)0 .. 20,00000:00 (00:00)Sphere, Inc.Retroism, Nightdive Studios
906 Knight of the Hamsters Apr 15, 2015 $0.99N/A (N/A)0 .. 20,00000:00 (00:00)Johnny Death GamesRed Fly Studio
907 Diamond Deeps Jun 1, 2015 $4.99N/A (N/A)0 .. 20,00000:00 (00:00)BIT-GENBIT-GEN
908 ATLAS レジェンドパック Jan 8, 2015 $24.99N/A (N/A)0 .. 20,00000:00 (00:00)ARTDINKKomodo
909 Icarus-X: Tides of Fire Jun 24, 2015 $4.99N/A (N/A)0 .. 20,00000:00 (00:00)The QuadsphereThe Quadsphere
910 WolfWars Jan 2, 2015 $2.99N/A (N/A)0 .. 20,00000:00 (00:00)Peter HrdyPeter Hrdy
911 Invisible Apartment Zero Sep 24, 2015 $2.99N/A (N/A)0 .. 20,00000:00 (00:00)Jeroen van Oosten, Milan KazarkaVysoko Anime Production
912 Fury Of The Gods Jun 4, 2015 $2.99N/A (N/A)0 .. 20,00000:00 (00:00)Spectral GamesLibredia
913 Rooftop Cop Mar 2, 2015 $2.99N/A (N/A)0 .. 20,00000:00 (00:00)S. L. ClarkIndependent
914 The Hole Story Jul 13, 2015 $4.99N/A (N/A)0 .. 20,00000:00 (00:00)LearnDistrict Inc., The NegativesLearnDistrict Inc.
915 Extreme Formula Championship May 4, 2015 $6.99N/A (N/A)0 .. 20,00000:00 (00:00)Yash Future Tech Solutions Pvt LtdYash Future Tech Solutions Pvt Ltd
916 SkyScrappers Oct 15, 2015 $9.99N/A (N/A)0 .. 20,00000:00 (00:00)Ground ShatterGround Shatter
917 iso-Sphere Nov 13, 2015 $4.99N/A (N/A)0 .. 20,00000:00 (00:00)Mighty Fox StudioMighty Fox Studio
918 3d Engineers Feb 10, 2015 $5.99N/A (N/A)0 .. 20,00000:00 (00:00)Robert DahlenburgDahlenburg
919 Break the Cube Jan 26, 2015 $0.99N/A (N/A)0 .. 20,00000:00 (00:00)Raxi PetrovRaxi Petrov
920 3d Bridges Mar 24, 2015 $3.99N/A (N/A)0 .. 20,00000:00 (00:00)Robert DahlenburgDahlenburg
921 Tactical Soccer The New Season Nov 20, 2015 $9.99N/A (N/A)0 .. 20,00000:00 (00:00)EGCLKISS ltd
922 BattleQuiz Sep 3, 2015 $2.99N/A (N/A)0 .. 20,00000:00 (00:00)Rhema GroupPlay sp. z o. o.
923 CHAOS - In the Darkness Oct 7, 2015 $7.99N/A (N/A)0 .. 20,00000:00 (00:00)4Realms4Realms
924 3D Paraglider Aug 3, 2015 $1.99N/A (N/A)0 .. 20,00000:00 (00:00)khos85khos85
925 ABD: A Beautiful Day Aug 14, 2015 $24.99N/A (N/A)0 .. 20,00000:00 (00:00)Robert Bonner, Jack Hanley, Ben Rawles, Boris BlosseGag A Maggot Entertainment, LLC.
926 Jurassic Island: The Dinosaur Zoo Jun 11, 2015 $3.99N/A (N/A)0 .. 20,00000:00 (00:00)FramelinenetworkFramelinenetwork
927 One Final Chaos Oct 21, 2015 $4.99N/A (N/A)0 .. 20,00000:00 (00:00)Pusselbit, Sweet Studio LabsA Sweet Studio
928 Eczema Angel Orifice Jun 27, 2015 $4.99N/A (N/A)0 .. 20,00000:00 (00:00)Porpentine, NeotenomiePorpentine
929 Daily Espada Sep 30, 2015 $9.99N/A (N/A)0 .. 20,00000:00 (00:00)PidrohPidroh
930 Aqua Panic ! Nov 9, 2015 $7.99N/A (N/A)0 .. 20,00000:00 (00:00)Eko SoftwareEko Software
931 The BoX Dec 3, 2015 $2.99N/A (N/A)0 .. 20,00000:00 (00:00)White Clover WorldsWhite Clover Inc.
932 Impulse Revolution Sep 9, 2015 $6.99N/A (N/A)0 .. 20,00000:00 (00:00)MandlebarMandlebar
933 Professor Why Chemistry 1 Oct 13, 2015 $9.99N/A (N/A)0 .. 20,00000:00 (00:00)Professor WhyProfessor Why
934 Decromancer Oct 13, 2015 $9.99N/A (N/A)0 .. 20,00000:00 (00:00)UNIT9UNIT9
935 Mystery Expedition: Prisoners of Ice Nov 9, 2015 $6.99N/A (N/A)0 .. 20,00000:00 (00:00)Lazy Turtle GamesTri Synergy
936 Sun Dogs Oct 29, 2015 $9.99N/A (N/A)0 .. 20,00000:00 (00:00)Royal PolygonRoyal Polygon
937 The Quivering Jan 28, 2015 $3.99N/A (N/A)0 .. 20,00000:00 (00:00)Charybdis LtdAlternative Software Ltd
938 It's Killing Time Jun 27, 2015 $4.99N/A (N/A)0 .. 20,00000:00 (00:00)Choice of GamesChoice of Games
939 Parallels Nov 13, 2015 $0.99N/A (N/A)0 .. 20,00000:00 (00:00)RisingHighRisingHigh
940 Eisenbahn X Jun 8, 2015 $39.99N/A (N/A)0 .. 20,00000:00 (00:00)TREND, SoftproKoch Media
941 Bernie Needs Love Aug 21, 2015 $2.99N/A (N/A)0 .. 20,00000:00 (00:00)Protomni MultimediaProtomni Multimedia
942 Angels That Kill - The Final Cut Nov 20, 2015 $4.99N/A (N/A)0 .. 20,00000:00 (00:00)Rising Sun InteractiveRising Sun Interactive
943 Isaac the Adventurer Mar 2, 2015 $2.99N/A (N/A)0 .. 20,00000:00 (00:00)Artisiti, Studio VrtinecArtisiti
944 Amygdala Jul 15, 2015 $9.99N/A (N/A)0 .. 20,00000:00 (00:00)MachineSpiritMachineSpirit
945 Red Crow Mysteries: Legion May 28, 2015 $3.99N/A (N/A)20,000 .. 50,00000:00 (00:00)Cateia GamesCateia Games
946 Karma Jul 14, 2015 $0.99N/A (N/A)0 .. 20,00000:00 (00:00)WnMStudioWnMStudio
947 Ice Cream Surfer Jul 21, 2015 $2.99N/A (N/A)0 .. 20,00000:00 (00:00)Dolores EntertainmentDolores Entertainment
948 D/Generation HD Oct 23, 2015 $9.99N/A (N/A)0 .. 20,00000:00 (00:00)West Coast SoftwareWest Coast Software
949 Box Out! May 4, 2015 $6.99N/A (N/A)0 .. 20,00000:00 (00:00)Da Picky MonkeyDa Picky Monkey
950 Bleeding Blocks Sep 5, 2015 $1.99N/A (N/A)0 .. 20,00000:00 (00:00)Killer Teapot GamesKiller Teapot Games
951 Sakura Day Mahjong Jul 15, 2015 $4.99N/A (N/A)0 .. 20,00000:00 (00:00)Creobit8floor
952 Pavel Quest May 13, 2015 N/AN/A (N/A)0 .. 20,00000:00 (00:00)ElevenSeventy, LLCElevenSeventy, LLC
953 The Eigengrau Menagerie Jun 4, 2015 N/AN/A (N/A)0 .. 20,00000:00 (00:00)Ozzie SneddonLibrarium Studios
954 When In Rome Oct 29, 2015 $4.99N/A (N/A)0 .. 20,00000:00 (00:00)RealoreQumaron
955 Helena The 3rd May 1, 2015 $0.99N/A (N/A)0 .. 20,00000:00 (00:00)Only Human StudiosOnly Human Studios
956 Superstar Dance Club Aug 4, 2015 $4.99N/A (N/A)0 .. 20,00000:00 (00:00)Atomic PlanetConsole Classics
957 Ride the Bullet May 22, 2015 $3.99N/A (N/A)0 .. 20,00000:00 (00:00)Jordan SendarJordan Sendar
958 Signal to Noise Nov 20, 2015 $4.99N/A (N/A)0 .. 20,00000:00 (00:00)Solanimus Inc.Solanimus Inc.
959 Usagi Yojimbo: Way of the Ronin Jan 30, 2015 $4.99N/A (N/A)0 .. 20,00000:00 (00:00)HappyGiantHappyGiant
960 Hostile Dimension Jun 25, 2015 $1.99N/A (N/A)0 .. 20,00000:00 (00:00)Alrauna StudiosPlay sp. z o. o.
961 Deliverance Aug 31, 2015 $4.99N/A (N/A)0 .. 20,00000:00 (00:00)TBDTS GamesTBDTS Games
962 Our Nation's Miner Dec 22, 2015 $5.99N/A (N/A)0 .. 20,00000:00 (00:00)Curtis HoltCurtis Holt
963 Fantastic Pinball Thrills Jun 26, 2015 $3.99N/A (N/A)0 .. 20,00000:00 (00:00)Fancy Bytes, ReactorUnited Independent Entertainment
964 Industry Transporters Aug 31, 2015 $9.99N/A (N/A)0 .. 20,00000:00 (00:00)Markus FickMK game production
965 Vindicator: Uprising Jul 3, 2015 $2.99N/A (N/A)0 .. 20,00000:00 (00:00)GamePhaseGamePhase
966 Miko Gakkou Monogatari: Kaede Episode Aug 16, 2015 $8.99N/A (N/A)0 .. 20,00000:00 (00:00)xinoroxinoro
967 JamG Jul 6, 2015 $9.99N/A (N/A)0 .. 20,00000:00 (00:00)Ernő KirályErnő Király
968 XO-Planets Oct 23, 2015 $3.99N/A (N/A)0 .. 20,00000:00 (00:00)BohfamBohfam
969 Destructamundo Jan 28, 2015 $4.99N/A (N/A)0 .. 20,00000:00 (00:00)MiniVisionsChoice Provisions
970 Erwin's Timewarp Sep 21, 2015 $9.99N/A (N/A)0 .. 20,00000:00 (00:00)JayanamJayanam
971 SodaCity Dec 8, 2015 $9.99N/A (N/A)0 .. 20,00000:00 (00:00)Tochas StudiosTochas Studios
972 Titanis Jun 8, 2015 $4.99N/A (N/A)0 .. 20,00000:00 (00:00)Silver Goblet GamesSilver Goblet Games
973 Panda School Browser May 22, 2015 $2.99N/A (N/A)0 .. 20,00000:00 (00:00)Wiseman SoftworksWiseman Softworks
974 Buggy Jul 6, 2015 $4.99N/A (N/A)0 .. 20,00000:00 (00:00)UrbanscanConsole Classics
975 Ghost in the Machine Apr 22, 2015 $4.99N/A (N/A)0 .. 20,00000:00 (00:00)Michael J. Moffitt, Julian J. HammersteinPolar Bunny Ltd
976 Tidal Affair: Before The Storm Nov 24, 2015 $9.99N/A (N/A)0 .. 20,00000:00 (00:00)OvercurfewOvercurfew
977 Slinki Apr 15, 2015 $0.99N/A (N/A)0 .. 20,00000:00 (00:00)Titan Forged GamesTitan Forged Games
978 Frizzy Dec 22, 2015 $2.99N/A (N/A)0 .. 20,00000:00 (00:00)Team FrizzTeam Frizz
979 Navpoint Sep 23, 2015 $0.99N/A (N/A)0 .. 20,00000:00 (00:00)Ross EdgarPlug In Digital
980 Reigning Cats Aug 28, 2015 $1.99N/A (N/A)0 .. 20,00000:00 (00:00)Myra D'AnnMyra D'Ann
981 Hills Of Glory 3D May 28, 2015 $0.99N/A (N/A)0 .. 20,00000:00 (00:00)AMA, Mando ProductionsPlug In Digital
982 Red Goblin: Cursed Forest May 15, 2015 $4.99N/A (N/A)20,000 .. 50,00000:00 (00:00)Eerie GamesFlying Interactive
983 Human Extinction Simulator Jan 21, 2015 $19.99N/A (N/A)20,000 .. 50,00000:00 (00:00)Machine 22Machine 22
984 Solar System Conflict Apr 6, 2015 $9.99N/A (N/A)0 .. 20,00000:00 (00:00)UnexEvoUnexEvo
985 World of Cinema - Movie Tycoon Apr 2, 2015 $4.99N/A (N/A)0 .. 20,00000:00 (00:00)Pepi GamesPepi Games
986 Hush Jul 29, 2015 $9.99N/A (N/A)0 .. 20,00000:00 (00:00)Game Studio 78Game Studio 78
987 Kagura Douchuuki Oct 22, 2015 $13.99N/A (N/A)0 .. 20,00000:00 (00:00)DebonosuWorks Inc.DebonosuWorks Inc.
988 Treasure Hunter Man 2 Oct 24, 2015 $1.99N/A (N/A)0 .. 20,00000:00 (00:00)origamihero gamesorigamihero games
989 BADBLOOD Nov 13, 2015 $7.99N/A (N/A)0 .. 20,00000:00 (00:00)Winnie SongWSONG LLC
990 Operation KREEP Oct 31, 2015 $2.99N/A (N/A)0 .. 20,00000:00 (00:00)Magic Item TechMagic Item Tech
991 Super Mega Bob Dec 3, 2015 $4.99N/A (N/A)0 .. 20,00000:00 (00:00)JenitoJenito
992 Project Green Beat Jan 16, 2015 $4.99N/A (N/A)0 .. 20,00000:00 (00:00)SeattleEggIndie Game - None
993 Voyage to Farland Jun 2, 2015 $2.99N/A (N/A)0 .. 20,00000:00 (00:00)Peculiar GamesPeculiar Games
994 Déjà Vu II: MacVenture Series Jan 26, 2015 $2.99N/A (N/A)0 .. 20,00000:00 (00:00)ZojoiZojoi
995 99 Waves to Die Apr 9, 2015 $2.99N/A (N/A)0 .. 20,00000:00 (00:00)SpookyFish GamesSpookyFish Games
996 Never Ending Night Sep 30, 2015 $0.99N/A (N/A)0 .. 20,00000:00 (00:00)Dot DreamDot Dream
997 Tkl Online Jan 27, 2015 $7.99N/A (N/A)0 .. 20,00000:00 (00:00)KURONEKO SOFTKURONEKO SOFT
998 NeXus: One Core Feb 26, 2015 $4.99N/A (N/A)20,000 .. 50,00000:00 (00:00)Hyde GamesBulkyPix
999 The Language Game Jul 9, 2015 $0.99N/A (N/A)0 .. 20,00000:00 (00:00)Tap To WinTap To Win
1000 Dorke and Ymp Oct 4, 2015 $6.99N/A (N/A)0 .. 20,00000:00 (00:00)Norse, Piko InteractivePiko Interactive LLC, Bleem!
1001 SCHAR: Blue Shield Alliance Mar 3, 2015 $1.99N/A (N/A)0 .. 20,00000:00 (00:00)Brainshape GamesBA Productions LLC
1002 A-Men 2 Jun 24, 2015 $8.99N/A (N/A)0 .. 20,00000:00 (00:00)Bloober Team SABloober Team SA
1003 The Last Dogma - Wilder Wein Edition Jun 30, 2015 $6.99N/A (N/A)0 .. 20,00000:00 (00:00)Sasha DarkoSasha Darko
1004 Get Over Here Aug 20, 2015 $9.99N/A (N/A)0 .. 20,00000:00 (00:00)Reload Games StudioStrategy First
1005 ROGUS - Kingdom of The Lost Souls Jun 30, 2015 $4.99N/A (N/A)0 .. 20,00000:00 (00:00)IronDrop StudiosIronDrop Studios
1006 Hidden Mysteries: Civil War Aug 11, 2015 $0.99N/A (N/A)0 .. 20,00000:00 (00:00)Gunnar GamesGameMill Entertainment
1007 Space Thinger Sep 25, 2015 $0.99N/A (N/A)0 .. 20,00000:00 (00:00)WytchlightWytchlight
1008 Terraformer Expedition to Mars Nov 20, 2015 $24.99N/A (N/A)0 .. 20,00000:00 (00:00)Vermont Software Studios,LLCVermont Software Studios,LLC
1009 Go To Bed: Survive The Night Oct 28, 2015 $4.99N/A (N/A)0 .. 20,00000:00 (00:00)Touchfight Games LLCTouchfight Games LLC
1010 Run Run And Die Sep 11, 2015 $1.99N/A (N/A)0 .. 20,00000:00 (00:00)Pixel Bones StudioHeadup Games
1011 Hot Pinball Thrills Jun 26, 2015 $2.99N/A (N/A)0 .. 20,00000:00 (00:00)Fancy Bytes, ReactorUnited Independent Entertainment
1012 Car Washer: Summer of the Ninja Nov 4, 2015 $4.99N/A (N/A)0 .. 20,00000:00 (00:00)Pen and Sword GamesPen and Sword Games
1013 It's time to get out from the solar system Sep 1, 2015 $2.99N/A (N/A)100,000 .. 200,00000:00 (00:00)WTFOMGamesWTFOMGames
1014 MotorSport Revolution Jan 15, 2015 $14.99N/A (N/A)0 .. 20,00000:00 (00:00)Ghost MachineGhost Machine
1015 10 Years After Jan 30, 2015 $5.99N/A (N/A)0 .. 20,00000:00 (00:00)Rock Paper GamesRock Paper Games
1016 Word Wonders: The Tower of Babel May 8, 2015 $3.99N/A (N/A)0 .. 20,00000:00 (00:00)Chimera EntertainmentGAMES in FLAMES
1017 SUMICO - The Numbers Game Jul 3, 2015 $4.99N/A (N/A)0 .. 20,00000:00 (00:00)LudomotionLudomotion
1018 Space Xonix Sep 17, 2015 $0.99N/A (N/A)0 .. 20,00000:00 (00:00)SRF GamesSRF Games
1019 Expander Dec 1, 2015 $2.99N/A (N/A)0 .. 20,00000:00 (00:00)All Civilized PlanetsAll Civilized Planets
1020 Friendship Club Mar 24, 2015 $11.99N/A (N/A)0 .. 20,00000:00 (00:00)Force Of Habit, Clockwork CuckooForce Of Habit
1021 Pixel: ru² Mar 6, 2015 $9.99N/A (N/A)0 .. 20,00000:00 (00:00)C63 IndustriesC63 Industries
1022 Space Robot Samurai Zombie Slayer May 21, 2015 $1.99N/A (N/A)0 .. 20,00000:00 (00:00)Brandon BrizziBrandon Brizzi
1023 StandPoint Mar 5, 2015 $9.99N/A (N/A)0 .. 20,00000:00 (00:00)Unruly AttractionsBANDAI NAMCO Entertainment, United Independent Entertainment
1024 Beatbuddy: On Tour Dec 4, 2015 $6.99N/A (N/A)0 .. 20,00000:00 (00:00)ThreaksThreaks
1025 Starlight Tactics Apr 7, 2015 $9.99N/A (N/A)0 .. 20,00000:00 (00:00)Escape Hatch Entertainment,LLCEscape Hatch Entertainment, LLC
1026 Barter Empire Feb 6, 2015 $4.99N/A (N/A)0 .. 20,00000:00 (00:00)Mayhem Games USAMayhem Games USA
1027 Vagrant Hearts 2 May 20, 2015 $4.99N/A (N/A)20,000 .. 50,00000:00 (00:00)Warfare StudiosWarfare Studios
1028 Omnipresent Sep 28, 2015 $3.99N/A (N/A)0 .. 20,00000:00 (00:00)Starkey IndustriesStarkey Industries
1029 The Curse of Nordic Cove Apr 23, 2015 $0.99N/A (N/A)0 .. 20,00000:00 (00:00)On The Level Game StudiosOn The Level Game Studios
1030 Empires Of Creation Nov 20, 2015 $4.99N/A (N/A)0 .. 20,00000:00 (00:00)Bundle Of Sticks Studios
1031 Barbarian Brawl Feb 12, 2015 $4.99N/A (N/A)0 .. 20,00000:00 (00:00)ThrillionThrillion
1032 Owys Aug 25, 2015 $0.99N/A (N/A)0 .. 20,00000:00 (00:00)Gameware StudiosGameware Studios
1033 Assault Corps 2 Jul 16, 2015 $2.99N/A (N/A)0 .. 20,00000:00 (00:00)AOS GAMEAOS GAME
1034 Shrooms May 8, 2015 $14.99N/A (N/A)0 .. 20,00000:00 (00:00)Immersive DouroImmersive Douro
1035 Apollo4x May 5, 2015 $1.99N/A (N/A)0 .. 20,00000:00 (00:00)Digital EntertainmentDigital Entertainment
1036 The Tower Aug 15, 2015 $0.99N/A (N/A)20,000 .. 50,00000:00 (00:00)Narrow MonolithNarrow Monolith
1037 Furfly Dec 18, 2015 $4.99N/A (N/A)0 .. 20,00000:00 (00:00)SMD Gaming StudioSMD Gaming Studio
1038 Thundering Skies May 12, 2015 $0.99N/A (N/A)20,000 .. 50,00000:00 (00:00)Flat VoxelFlat Voxel
1039 Green Moon May 15, 2015 $6.99N/A (N/A)0 .. 20,00000:00 (00:00)Absolutist Ltd.Absolutist Ltd.
1040 Demigods Oct 13, 2015 $3.99N/A (N/A)0 .. 20,00000:00 (00:00)RealoreQumaron
1041 Ghost Cleaner Nov 5, 2015 $1.49N/A (N/A)0 .. 20,00000:00 (00:00)LookAtMyGameLookAtMyGame, Plug In Digital
1042 Nightmare on Azathoth Oct 30, 2015 $0.99N/A (N/A)0 .. 20,00000:00 (00:00)Modesto RabenaDivergent Game Studio
1043 Mad Snowboarding Sep 8, 2015 $4.99N/A (N/A)0 .. 20,00000:00 (00:00)Denis LapinerDenis Lapiner
1044 Rise of Keepers Dec 4, 2015 $12.99N/A (N/A)0 .. 20,00000:00 (00:00)Samaritan StudiosSamaritan Studios
1045 DGU: Death God University Jul 15, 2015 $9.99N/A (N/A)0 .. 20,00000:00 (00:00)DSK Studios Pvt. LtdKPL
1046 Epic Showdown Oct 27, 2015 $4.99N/A (N/A)0 .. 20,00000:00 (00:00)NalokiNaloki
1047 Yasai Ninja Jul 21, 2015 $1.99N/A (N/A)0 .. 20,00000:00 (00:00)Recotechnology S.L.Recotechnology S.L.
1048 Taken Souls: Blood Ritual Collector's Edition Mar 23, 2015 $6.99N/A (N/A)0 .. 20,00000:00 (00:00)Space Monkey InternationalShaman Games Studio
1049 Once Bitten, Twice Dead! Jul 7, 2015 $4.99N/A (N/A)20,000 .. 50,00000:00 (00:00)GamestartersGamestarters Publisher, Gamestarter's
1050 Moonstrider Sep 30, 2015 $11.99N/A (N/A)0 .. 20,00000:00 (00:00)Triple LasersTriple Lasers
1051 Shades of Black Aug 10, 2015 $11.99N/A (N/A)0 .. 20,00000:00 (00:00)MDNA GamesTri Synergy, Inc.
1052 ルナティックドーン レジェンドパック Jan 8, 2015 $34.99N/A (N/A)0 .. 20,00000:00 (00:00)ARTDINKKomodo
1053 Carnivore Land Sep 15, 2015 $7.99N/A (N/A)0 .. 20,00000:00 (00:00)dwCrewdwCrew
1054 Subaeria Sep 22, 2015 $12.99N/A (N/A)0 .. 20,00000:00 (00:00)Studios iLLOGIKAStudios iLLOGIKA
1055 Little Cells Jun 4, 2015 $3.99N/A (N/A)0 .. 20,00000:00 (00:00)Fully BuggedFully Bugged
1056 Inventioneers Oct 5, 2015 $6.99N/A (N/A)0 .. 20,00000:00 (00:00)FilimundusFilimundus
1057 Traps N' Gemstones Apr 16, 2015 $4.99N/A (N/A)0 .. 20,00000:00 (00:00)Donut GamesDonut Games
1058 Cheats 4 Hire Jun 25, 2015 $4.99N/A (N/A)0 .. 20,00000:00 (00:00)Travian Games GmbHTravian Games GmbH
1059 Piloteer Sep 25, 2015 $2.99N/A (N/A)0 .. 20,00000:00 (00:00)Fixpoint ProductionsFixpoint Productions
1060 Wildlife Park - Wild Creatures Apr 1, 2015 $5.99N/A (N/A)0 .. 20,00000:00 (00:00)b-alive gmbhb-alive gmbh
1061 SCS deORBIT Aug 17, 2015 $0.99N/A (N/A)0 .. 20,00000:00 (00:00)Zero DollarzZero Dollarz
1062 Haywire on Fuel Station Zeta Sep 24, 2015 $3.99N/A (N/A)20,000 .. 50,00000:00 (00:00)Mad Goblin GamesMad Goblin Games
1063 Robot Exploration Squad Sep 16, 2015 $2.99N/A (N/A)0 .. 20,00000:00 (00:00)Jack DolabanyDolaSoft
1064 Evil Hazard Sep 16, 2015 $2.99N/A (N/A)20,000 .. 50,00000:00 (00:00)Pixel Blitz StudiosPixel Blitz Studios
1065 Spoko and Poko May 18, 2015 $3.99N/A (N/A)0 .. 20,00000:00 (00:00)Volens Nolens GamesVolens Nolens Games
1066 Trap Them - Sniper Edition Oct 9, 2015 $0.79N/A (N/A)0 .. 20,00000:00 (00:00)Juri SchupiloJuri Schupilo
1067 Gamer Simulator Sep 22, 2015 $0.99N/A (N/A)0 .. 20,00000:00 (00:00)Punk Games StudioPunk Games Studio
1068 Spirit Run - Fire vs. Ice Feb 12, 2015 $1.99N/A (N/A)0 .. 20,00000:00 (00:00)LunagamesLibredia
1069 Silicone-2 Jun 3, 2015 $0.99N/A (N/A)0 .. 20,00000:00 (00:00)TortTort
1070 Rumble Oct 14, 2015 $1.99N/A (N/A)20,000 .. 50,00000:00 (00:00)OverflowOverflow
1071 Elements: Epic Heroes Dec 21, 2015 $6.99N/A (N/A)0 .. 20,00000:00 (00:00)Zadzen Games Ltd.Zadzen Games Ltd.
1072 Dark Gates Jan 26, 2015 $3.99N/A (N/A)0 .. 20,00000:00 (00:00)DFour GamesDFour Games
1073 Damned Nation Reborn Feb 12, 2015 $12.99N/A (N/A)0 .. 20,00000:00 (00:00)SinisterSinister
1074 Dream Factory Nov 2, 2015 $9.99N/A (N/A)20,000 .. 50,00000:00 (00:00)The TambourineThe Tambourine
1075 Ludoku May 25, 2015 $4.99N/A (N/A)0 .. 20,00000:00 (00:00)Ludomo GamestudioLudomo Gamestudio
1076 Daydreamer: Awakened Edition Aug 21, 2015 $10.99N/A (N/A)0 .. 20,00000:00 (00:00)RolandStudiosRolandStudios
1077 InnerCube Feb 13, 2015 $3.99N/A (N/A)0 .. 20,00000:00 (00:00)Schell GamesSchell Games
1078 Country Tales Aug 27, 2015 $6.99N/A (N/A)0 .. 20,00000:00 (00:00)Cateia GamesCateia Games
1079 articy:draft 3 - Flex License Oct 5, 2015 N/AN/A (N/A)0 .. 20,00000:00 (00:00)Articy SoftwareArticy Software
1080 PING 1.5+ Aug 13, 2015 $4.99N/A (N/A)0 .. 20,00000:00 (00:00)Nami TentouNami Tentou
1081 The Ables: Freepoint High Dec 16, 2015 $4.99N/A (N/A)0 .. 20,00000:00 (00:00)Qiwi Games, LLC, GraveckQiwi Games, LLC
1082 Spud! Mar 3, 2015 $3.99N/A (N/A)0 .. 20,00000:00 (00:00)Charybdis LtdAlternative Software Ltd
1083 ORBIT Sep 30, 2015 $6.99N/A (N/A)0 .. 20,00000:00 (00:00)4Bit Games4Bit Games
1084 Nandeyanen!? - The 1st Sûtra Jul 22, 2015 $1.99N/A (N/A)0 .. 20,00000:00 (00:00)Tchagata GamesTchagata Games
1085 PD Howler 9.6 Digital Painter and Visual FX box Mar 11, 2015 $4.99N/A (N/A)0 .. 20,00000:00 (00:00)Daniel Ritchie - PDHowler.com, Philip Staiger - TheBest3D.comKPL
1086 Hoven the Sages Spinel Aug 31, 2015 $1.99N/A (N/A)20,000 .. 50,00000:00 (00:00)Bradley Elam, Colton BoneHoven Indies
1087 TableTop Cricket Feb 25, 2015 $9.99N/A (N/A)0 .. 20,00000:00 (00:00)Big Ant StudiosBig Ant Studios
1088 Expert Rifleman - Reloaded Aug 14, 2015 $14.99N/A (N/A)0 .. 20,00000:00 (00:00)BattleByteBattleByte
1089 The Way of the Pixelated Fist Apr 27, 2015 $0.99N/A (N/A)0 .. 20,00000:00 (00:00)Blaze EpicBlaze Epic
1090 Gunslugs 2 Jan 14, 2015 $8.99N/A (N/A)0 .. 20,00000:00 (00:00)OrangepixelOrangepixel
1091 Don'Yoku Jun 29, 2015 $3.99N/A (N/A)0 .. 20,00000:00 (00:00)Dark-Spot StudioDark-Spot Studio
1092 Go Home - Rage incoming Aug 3, 2015 $1.99N/A (N/A)20,000 .. 50,00000:00 (00:00)Synter GamesSynter Games
1093 Arkhelom 3D May 29, 2015 $3.99N/A (N/A)0 .. 20,00000:00 (00:00)DreamsSoftGamesDreamsSoftGames
1094 Playing History: Vikings Jul 1, 2015 $0.99N/A (N/A)20,000 .. 50,00000:00 (00:00)Serious Games InteractiveSerious Games Interactive
1095 Undead Shadows Feb 2, 2015 $3.99N/A (N/A)0 .. 20,00000:00 (00:00)Ignition Games Inc.Ignition Games Inc.
1096 Curse of the Assassin May 12, 2015 $4.99N/A (N/A)0 .. 20,00000:00 (00:00)Tin Man GamesTin Man Games
1097 Mos Speedrun 2 Sep 3, 2015 $3.99N/A (N/A)0 .. 20,00000:00 (00:00)PhysmoPhysmo
1098 Crystal Towers 2 XL Aug 11, 2015 $7.99N/A (N/A)0 .. 20,00000:00 (00:00)David NewtonDavid Newton
1099 Trigger Saint Oct 9, 2015 $6.99N/A (N/A)0 .. 20,00000:00 (00:00)Aaron ArcandUndergroundies
1100 Light Bound Apr 23, 2015 $9.99N/A (N/A)0 .. 20,00000:00 (00:00)Garden Knight GamesGarden Knight Games
1101 Bocce Revolution Oct 23, 2015 $4.99N/A (N/A)0 .. 20,00000:00 (00:00)DysotekDysotek
1102 Lightbender Dec 17, 2015 $2.99N/A (N/A)0 .. 20,00000:00 (00:00)Math Nerd Productions, LLCMath Nerd Productions, LLC
1103 Hacker Evolution Source Code May 11, 2015 $9.99N/A (N/A)0 .. 20,00000:00 (00:00)exosyphen studiosexosyphen studios
1104 Fairspace Oct 21, 2015 $8.99N/A (N/A)0 .. 20,00000:00 (00:00)Sub Orbital SoftwareSub Orbital Software
1105 ASDAD: All-Stars Dungeons and Diamonds Oct 1, 2015 $4.99N/A (N/A)0 .. 20,00000:00 (00:00)Giant Enemy LabsGiant Enemy Labs
1106 Mondrian - Abstraction in Beauty Sep 21, 2015 $4.99N/A (N/A)0 .. 20,00000:00 (00:00)Lantana GamesLantana Games
1107 Build 'n Bump Jul 22, 2015 $3.99N/A (N/A)20,000 .. 50,00000:00 (00:00)Roppy Chop StudiosRoppy Chop Studios
1108 SWR JST DX Selective Memory Erase Effect Apr 20, 2015 $4.99N/A (N/A)0 .. 20,00000:00 (00:00)Nekomura GamesNekomura Games
1109 Dale Hardshovel HD Sep 22, 2015 $0.99N/A (N/A)20,000 .. 50,00000:00 (00:00)phime studio LLCphime studio LLC
1110 DRIFT 84 Jul 14, 2015 $2.99N/A (N/A)0 .. 20,00000:00 (00:00)Reventador GamesReventador Games
1111 Project Tarvotan Sep 25, 2015 $0.99N/A (N/A)20,000 .. 50,00000:00 (00:00)FlagmanJeremyFlagmanJeremy
1112 Big Journey to Home Aug 20, 2015 $2.99N/A (N/A)20,000 .. 50,00000:00 (00:00)The Light Sword TeamThe Light Sword Team
1113 MadOut Ice Storm Sep 4, 2015 $6.99N/A (N/A)0 .. 20,00000:00 (00:00)Nuligine, MadOut GamesNuligine, MadOut Games
1114 Fireflies Sep 7, 2015 $1.99N/A (N/A)50,000 .. 100,00000:00 (00:00)Phanom GamesPhanom Games
1115 Chunky Orbits Sep 8, 2015 $1.99N/A (N/A)0 .. 20,00000:00 (00:00)Don WhitakerBrain Blinks
1116 ZombieZoid Zenith Sep 30, 2015 $5.99N/A (N/A)0 .. 20,00000:00 (00:00)Adhoc GamesAdhoc Games
1117 Getsuei Gakuen -kou- Nov 3, 2015 $24.99N/A (N/A)0 .. 20,00000:00 (00:00)Arc System WorksArc System Works
1118 Mysterious Space May 15, 2015 $10N/A (N/A)0 .. 20,00000:00 (00:00)Ben Hendel-Doyingbenmakesgames.com
1119 Unfair Jousting Fair Sep 3, 2015 $4.99N/A (N/A)0 .. 20,00000:00 (00:00)RodajaRodaja
1120 Metro Warp Aug 5, 2015 $4.99N/A (N/A)20,000 .. 50,00000:00 (00:00)Another YetiAnother Yeti
1121 Baseball Riot Dec 9, 2015 $4.99N/A (N/A)0 .. 20,00000:00 (00:00)10tons Ltd10tons Ltd
1122 Tisnart Tiles Aug 31, 2015 $0.99N/A (N/A)0 .. 20,00000:00 (00:00)TisnartTisnart
1123 Tenshu General Dec 1, 2015 $5.99N/A (N/A)0 .. 20,00000:00 (00:00)SmartArt Game StudioTenshu General
1124 Threads of Destiny Dec 4, 2015 $4.99N/A (N/A)20,000 .. 50,00000:00 (00:00)Warfare StudiosWarfare Studios
1125 But to Paint a Universe Jan 15, 2015 $4.99N/A (N/A)0 .. 20,00000:00 (00:00)Mårten JonssonJMJ Interactive
1126 Sir! I'd Like To Report A Bug! Oct 19, 2015 $1.99N/A (N/A)0 .. 20,00000:00 (00:00)Lord Puggington GamesLord Puggington Games
1127 The Little Crane That Could Apr 27, 2015 $11.99N/A (N/A)0 .. 20,00000:00 (00:00)Game Studio Abraham Stolk Inc.Game Studio Abraham Stolk Inc.
1128 Lightrise Dec 21, 2015 FreeN/A (N/A)0 .. 20,00000:00 (00:00)Bulkhead Studios CorporationBulkhead Studios Corporation
1129 Infect and Destroy Jan 29, 2015 $6.99N/A (N/A)0 .. 20,00000:00 (00:00)FarrugiaSoftFarrugiaSoft
1130 Age of Castles: Warlords May 15, 2015 $1.94N/A (N/A)0 .. 20,00000:00 (00:00)Anarchy EnterprisesAnarchy Enterprises
1131 Fractured Soul Feb 5, 2015 $9.99N/A (N/A)0 .. 20,00000:00 (00:00)Endgame StudiosEndgame Studios
1132 Melter Man Sep 18, 2015 $1.99N/A (N/A)0 .. 20,00000:00 (00:00)Husky Swim TeamRMM Studios, LLC
1133 Gulf of Aden - Task Force Somalia Dec 14, 2015 $8.99N/A (N/A)0 .. 20,00000:00 (00:00)BlewScreenBlewScreen
1134 Networm Oct 27, 2015 $1.99N/A (N/A)0 .. 20,00000:00 (00:00)Cuddly Zombie GamesCuddly Zombie Games
1135 Lucadian Chronicles Oct 15, 2015 N/AN/A (N/A)0 .. 20,00000:00 (00:00)Dark Roast EntertainmentDark Roast Entertainment
1136 Deity Quest Jan 20, 2015 $3.99N/A (N/A)0 .. 20,00000:00 (00:00)Fancy Fish GamesFancy Fish Games
1137 Let There Be Life Feb 13, 2015 $5.99N/A (N/A)0 .. 20,00000:00 (00:00)Backward pieSBackward pieS
1138 Shoot 'Em Up Kit Jun 5, 2015 $39.99N/A (N/A)0 .. 20,00000:00 (00:00)Tall StudiosTall Studios
1139 Sherlock Holmes Consulting Detective: The Case of the Tin Soldier Jun 8, 2015 $3.99N/A (N/A)20,000 .. 50,00000:00 (00:00)ZojoiZojoi
1140 Superstatic Sep 15, 2015 $4.99N/A (N/A)0 .. 20,00000:00 (00:00)Sleepy StudiosSleepy Studios
1141 Ninjahtic Mind Tricks Jul 16, 2015 $1.99N/A (N/A)0 .. 20,00000:00 (00:00)Blaze EpicBlaze Epic
1142 Crossbow Warrior - The Legend of William Tell Dec 10, 2015 $4.99N/A (N/A)0 .. 20,00000:00 (00:00)MobyDick GamesScherrer Medien GmbH
1143 Ancestory Oct 13, 2015 $14.99N/A (N/A)0 .. 20,00000:00 (00:00)Kajak GamesKajak Games
1144 After All Apr 17, 2015 $2.99N/A (N/A)20,000 .. 50,00000:00 (00:00)JAMgamesW. T. B.
1145 Ashes of Immortality II Aug 28, 2015 $4.99N/A (N/A)50,000 .. 100,00000:00 (00:00)Warfare StudiosWarfare Studios
1146 Undercover Missions: Operation Kursk K-141 Dec 11, 2015 $9.99N/A (N/A)0 .. 20,00000:00 (00:00)The Game SpeciesGrip Games
1147 Just Alone Jul 28, 2015 $12.99N/A (N/A)0 .. 20,00000:00 (00:00)EvergreenEvergreen
1148 Spellcrafter May 4, 2015 $4.99N/A (N/A)0 .. 20,00000:00 (00:00)Jujubee S.A.Jujubee S.A.
1149 500 Years Act 1 Apr 15, 2015 $7.99N/A (N/A)0 .. 20,00000:00 (00:00)Poorwill GamesPoorwill Games
1150 One Final Breath Sep 28, 2015 $3.99N/A (N/A)0 .. 20,00000:00 (00:00)Dark Day InteractiveDark Day Interactive
1151 Reverse x Reverse Dec 10, 2015 $9.99N/A (N/A)0 .. 20,00000:00 (00:00)desunoyaSekai Project
1152 Super Snow Fight Nov 24, 2015 $4.99N/A (N/A)0 .. 20,00000:00 (00:00)Patrick GodPatrick God
1153 Daemon Detective Gaiden Aug 14, 2015 N/AN/A (N/A)0 .. 20,00000:00 (00:00)YalDegica
1154 Dungeon Highway Mar 23, 2015 $3.99N/A (N/A)0 .. 20,00000:00 (00:00)SubstantialSubstantial
1155 Zeuxis : procedural texture generator Jun 2, 2015 $6.99N/A (N/A)0 .. 20,00000:00 (00:00)Martin VeilleuxMartin Veilleux
1156 High Strangeness May 6, 2015 $4.99N/A (N/A)0 .. 20,00000:00 (00:00)Barnyard Intelligence Games, Crystal LabsBarnyard Intelligence Games
1157 Aveyond 3-3: The Lost Orb Jan 16, 2015 $9.99N/A (N/A)0 .. 20,00000:00 (00:00)Amaranth Games, LLCKomodo
1158 The Viceroy Jul 28, 2015 $19.99N/A (N/A)0 .. 20,00000:00 (00:00)Goatee GamesGoatee Games
1159 Unfinished - An Artist's Lament Aug 4, 2015 $4.99N/A (N/A)20,000 .. 50,00000:00 (00:00)Dust Scratch GamesDust Scratch Games
1160 ORBITOR Aug 21, 2015 $14.99N/A (N/A)0 .. 20,00000:00 (00:00)Evil AliensEvil Aliens
1161 Geocore Jul 31, 2015 $2.99N/A (N/A)0 .. 20,00000:00 (00:00)Anarchy InteractiveAnarchy Interactive
1162 The Journey Back Aug 12, 2015 $2.99N/A (N/A)0 .. 20,00000:00 (00:00)Erwin WolfMarWin Studios
1163 Nicolas Eymerich The Inquisitor Book II : The Village Jan 22, 2015 $0.99N/A (N/A)0 .. 20,00000:00 (00:00)TiconBluMicroids Indie
1164 Vicky Saves the Big Dumb World Oct 1, 2015 $0.99N/A (N/A)0 .. 20,00000:00 (00:00)DumbfoundedDumbfounded
1165 Sunken Dec 3, 2015 $9.99N/A (N/A)0 .. 20,00000:00 (00:00)Hit the CrowJenito
1166 Arevan Jul 24, 2015 $4.99N/A (N/A)50,000 .. 100,00000:00 (00:00)Overcloud9Aldorlea Games
1167 A Mass of Dead Jul 15, 2015 $4.99N/A (N/A)0 .. 20,00000:00 (00:00)Dev ArcDev Arc
1168 Forest Warrior Jun 25, 2015 $3.99N/A (N/A)0 .. 20,00000:00 (00:00)Inferno StudioPlug In Digital
1169 Mars Colony: Frontier Sep 25, 2015 $4.99N/A (N/A)0 .. 20,00000:00 (00:00)HyperKat GamesHyperKat Games
1170 MadOut Jun 6, 2015 $9.99N/A (N/A)0 .. 20,00000:00 (00:00)Nuligine, MadOut GamesNuligine, MadOut Games
1171 The Clans - Saga of the Twins Apr 21, 2015 $4.99N/A (N/A)50,000 .. 100,00000:00 (00:00)Supreme Clans EntertainmentSupreme Clans Entertainment
1172 Sim Junta Aug 18, 2015 $1.99N/A (N/A)0 .. 20,00000:00 (00:00)Icehole GamesStrategy First
1173 Legends of Dawn Reborn Oct 20, 2015 $29.99N/A (N/A)20,000 .. 50,00000:00 (00:00)DreamatrixDreamatrix
1174 The Asskickers-Steam Edition Feb 6, 2015 $9.99N/A (N/A)0 .. 20,00000:00 (00:00)AGO GamesAGO Games
1175 SHOFER Race Driver Jun 30, 2015 $8.99N/A (N/A)0 .. 20,00000:00 (00:00)Zhoori Maang EntertainmentZhoori Maang Entertainment
1176 Monstro: Battle Tactics Dec 3, 2015 $5.99N/A (N/A)0 .. 20,00000:00 (00:00)Retrocade.netRetrocade.net
1177 Rainbow Hero Feb 27, 2015 $4.99N/A (N/A)0 .. 20,00000:00 (00:00)Pixel ElephantBigger Boat
1178 Color Guardians May 12, 2015 $14.99N/A (N/A)0 .. 20,00000:00 (00:00)Fair Play LabsNiffler Ltd.
1179 Throbax TD Nov 5, 2015 $2.99N/A (N/A)0 .. 20,00000:00 (00:00)Unterrainer Informatik OGUnterrainer Informatik OG
1180 Kaiju Panic Oct 9, 2015 $9.99N/A (N/A)0 .. 20,00000:00 (00:00)Mechabit LtdMechabit Ltd
1181 Deathless: The City's Thirst Oct 23, 2015 $4.99N/A (N/A)0 .. 20,00000:00 (00:00)Choice of GamesChoice of Games
1182 APT Aug 27, 2015 $14.99N/A (N/A)0 .. 20,00000:00 (00:00)RIP Studios LLCRIP Studios LLC
1183 Musclecar Online Feb 12, 2015 $5.99N/A (N/A)0 .. 20,00000:00 (00:00)Psychic SoftwarePsychic Software
1184 Soul Locus Apr 30, 2015 $9.99N/A (N/A)0 .. 20,00000:00 (00:00)Fat Loot GamesFat Loot Games
1185 Sentris Aug 12, 2015 $14.99N/A (N/A)0 .. 20,00000:00 (00:00)Timbre InteractiveTimbre Interactive
1186 Zombie Killtime Aug 4, 2015 $1.99N/A (N/A)0 .. 20,00000:00 (00:00)Nicholas MalloryNicholas Mallory
1187 Veteran Combat Feb 16, 2015 $1.99N/A (N/A)20,000 .. 50,00000:00 (00:00)CyberphobXCyberphobX
1188 Not without my donuts Apr 28, 2015 $1.99N/A (N/A)0 .. 20,00000:00 (00:00)Ben Aprigliano, Stefan EversEvilized productions, Different donut
1189 D Series OFF ROAD Driving Simulation May 19, 2015 $7.99N/A (N/A)0 .. 20,00000:00 (00:00)devotiddevotid Media
1190 Pirate's Life Apr 17, 2015 $4.99N/A (N/A)0 .. 20,00000:00 (00:00)Team EyepatchNone
1191 A.I. Invasion Sep 30, 2015 $9.99N/A (N/A)0 .. 20,00000:00 (00:00)GameArt Studio GmbHGameArt Studio GmbH
1192 Outpost 13 Oct 26, 2015 $0.99N/A (N/A)0 .. 20,00000:00 (00:00)Cantina Games and Entertainment, Inc.Cantina Games and Entertainment, Inc.
1193 CortexGear: AngryDroids Sep 6, 2015 $5.99N/A (N/A)50,000 .. 100,00000:00 (00:00)JH12world, Jordan BenoitJH12world
1194 Cloudrift Oct 30, 2015 $6.99N/A (N/A)0 .. 20,00000:00 (00:00)friendlyOctopusfriendlyOctopus
1195 Volvox Dec 7, 2015 $9.99N/A (N/A)0 .. 20,00000:00 (00:00)NeoteniaNeotenia
1196 Way to Go! Jun 8, 2015 $4.99N/A (N/A)0 .. 20,00000:00 (00:00)Makivision GamesMakivision Games
1197 Hypnosis Jan 28, 2015 $4.99N/A (N/A)0 .. 20,00000:00 (00:00)NevosoftNevosoft
1198 Xenocide Aug 28, 2015 $2.99N/A (N/A)0 .. 20,00000:00 (00:00)Confused GeniusSpawn Point OSK
1199 Where Angels Cry 2: Tears of the Fallen Collector's Edition Nov 9, 2015 $9.99N/A (N/A)0 .. 20,00000:00 (00:00)Cateia GamesCateia Games
1200 Gran Vitreous May 20, 2015 $4.99N/A (N/A)0 .. 20,00000:00 (00:00)Heliocentric StudiosHeliocentric Studios
1201 Weather Lord: The Successor's Path Apr 8, 2015 $4.99N/A (N/A)0 .. 20,00000:00 (00:00)Yustas Game Studio, Alawar EntertainmentESDigital Games
1202 Illuminascii Aug 11, 2015 $10.99N/A (N/A)0 .. 20,00000:00 (00:00)DDD WaresDDD Wares
1203 Blowy Fish Sep 25, 2015 $1.99N/A (N/A)20,000 .. 50,00000:00 (00:00)One Man Band GamesOne Man Band Games
1204 Knight Adventure Oct 15, 2015 $0.99N/A (N/A)20,000 .. 50,00000:00 (00:00)SyberstudioSyberstudio
1205 Battle For The Sun Jul 22, 2015 $4.99N/A (N/A)0 .. 20,00000:00 (00:00)Appsolutely StudiosAppsolutely Studios
1206 Corona MotorSport Mar 13, 2015 $9.99N/A (N/A)0 .. 20,00000:00 (00:00)LucasGameLucasGame
1207 March of Industry: Very Capitalist Factory Simulator Entertainments Oct 7, 2015 $9.99N/A (N/A)0 .. 20,00000:00 (00:00)Archive EntertainmentArchive Entertainment
1208 Second Warfare Jun 22, 2015 $1.49N/A (N/A)0 .. 20,00000:00 (00:00)Kobra StudioKobra Studio
1209 Professional Lumberjack 2015 Mar 5, 2015 $19.99N/A (N/A)20,000 .. 50,00000:00 (00:00)PlayWay S.A.BANDAI NAMCO Entertainment, United Independent Entertainment
1210 WE ARE DOOMED Apr 21, 2015 $9.99N/A (N/A)20,000 .. 50,00000:00 (00:00)Vertex PopVertex Pop
1211 Area-X Jun 24, 2015 $24.99N/A (N/A)0 .. 20,00000:00 (00:00)Zeiva IncZeiva Inc
1212 ENIGMA : An Illusion Named Family Mar 16, 2015 $4.99N/A (N/A)20,000 .. 50,00000:00 (00:00)AV media labAV media lab
1213 Legends of Pixelia Sep 14, 2015 $4.99N/A (N/A)0 .. 20,00000:00 (00:00)SimaGamesSimaGames
1214 Bit Shifter Nov 2, 2015 $14.99N/A (N/A)0 .. 20,00000:00 (00:00)Plastic GamesPlastic Games
1215 Champions Of Chaos 2 Aug 24, 2015 $1.99N/A (N/A)20,000 .. 50,00000:00 (00:00)Epic LLamaEpic LLama
1216 XLarn May 25, 2015 $4.99N/A (N/A)0 .. 20,00000:00 (00:00)Swinfjord-GamesSwinfjord-Games
1217 Sherlock Holmes Consulting Detective: The Case of the Mystified Murderess Jun 8, 2015 $3.99N/A (N/A)20,000 .. 50,00000:00 (00:00)ZojoiZojoi
1218 Skyflower Jun 25, 2015 $2.99N/A (N/A)20,000 .. 50,00000:00 (00:00)The Taco HeavenKOEI TECMO GAMES CO., LTD.
1219 XenoBloom Sep 23, 2015 $4.99N/A (N/A)0 .. 20,00000:00 (00:00)IBOLOGY LLCIBOLOGY LLC
1220 Match 3 Revolution Sep 11, 2015 $3.99N/A (N/A)20,000 .. 50,00000:00 (00:00)DreamsSoftGamesDreamsSoftGames
1221 Midnight's Blessing May 25, 2015 $4.99N/A (N/A)50,000 .. 100,00000:00 (00:00)Warfare StudiosWarfare Studios
1222 Break_In Apr 29, 2015 $9.99N/A (N/A)0 .. 20,00000:00 (00:00)Craig GibbsCraig Gibbs
1223 Giana Sisters: Dream Runners Aug 26, 2015 $9.99N/A (N/A)0 .. 20,00000:00 (00:00)Black Forest GamesEuroVideo Medien
1224 Hatch and Slay Dec 22, 2015 $1.99N/A (N/A)20,000 .. 50,00000:00 (00:00)Myrolit StudiosMyrolit Studios
1225 President for a Day - Corruption Aug 5, 2015 $0.99N/A (N/A)0 .. 20,00000:00 (00:00)Serious Games InteractiveSerious Games Interactive
1226 ABO MANDO Dec 31, 2015 $0.99N/A (N/A)50,000 .. 100,00000:00 (00:00)UNDEADAndrés Calva, Luis Calva
1227 Age of Survival Aug 25, 2015 $18.99N/A (N/A)0 .. 20,00000:00 (00:00)SeattletekSeattletek
1228 Machineers - Episode 1: Tivoli Town May 14, 2015 $4.99N/A (N/A)0 .. 20,00000:00 (00:00)Lohika GamesLohika Games
1229 Aveyond 3-4: The Darkthrop Prophecy Feb 13, 2015 $9.99N/A (N/A)0 .. 20,00000:00 (00:00)Amaranth Games, LLCKomodo
1230 Damn virgins Jul 31, 2015 $2.99N/A (N/A)0 .. 20,00000:00 (00:00)Luis RuizLuis Ruiz
1231 Viking Saga: New World Nov 5, 2015 $3.99N/A (N/A)0 .. 20,00000:00 (00:00)RealoreQumaron
1232 Megatect Nov 4, 2015 $7.99N/A (N/A)0 .. 20,00000:00 (00:00)Timedrop StudiosTimedrop Studios
1233 Color Assembler Jun 3, 2015 $7.99N/A (N/A)0 .. 20,00000:00 (00:00)Purple NebulaPurple Nebula
1234 Caverns of the Snow Witch (Standalone) Aug 3, 2015 $2.49N/A (N/A)0 .. 20,00000:00 (00:00)Tin Man GamesTin Man Games
1235 Devouring Stars Jul 3, 2015 $9.99N/A (N/A)0 .. 20,00000:00 (00:00)NerialBulkyPix
1236 Stone Tales Dec 11, 2015 $0.99N/A (N/A)0 .. 20,00000:00 (00:00)Yellow Worm StudiosKISS ltd
1237 JUMP Jul 30, 2015 $9.99N/A (N/A)0 .. 20,00000:00 (00:00)Endeavor One Inc.Endeavor One Inc.
1238 Save Halloween: City of Witches Oct 20, 2015 $4.99N/A (N/A)20,000 .. 50,00000:00 (00:00)Quick Click GamesCalenture Remedy Ltd
1239 Rolling Shapes Jun 5, 2015 $0.49N/A (N/A)0 .. 20,00000:00 (00:00)Vertex Games, S.C.Vertex Games, S.C.
1240 GeoVox May 22, 2015 $24.99N/A (N/A)0 .. 20,00000:00 (00:00)Axis Game Factory, Inc.Axis Game Factory, Inc.
1241 ZombieRun Jun 3, 2015 $2.99N/A (N/A)0 .. 20,00000:00 (00:00)Guerrilla BanditGuerrilla Bandit
1242 Princess Kaguya: Legend of the Moon Warrior Aug 4, 2015 $10.99N/A (N/A)0 .. 20,00000:00 (00:00)Zoo CorporationZoo Corporation
1243 Polychromatic Oct 2, 2015 $2.99N/A (N/A)0 .. 20,00000:00 (00:00)Brushfire GamesBrushfire Games
1244 Khaba Jan 12, 2015 $3.99N/A (N/A)0 .. 20,00000:00 (00:00)Hello There GamesHello There Games
1245 TorqueL Jan 22, 2015 $4.99N/A (N/A)0 .. 20,00000:00 (00:00)Nanmo (Takayuki Yanagihara) @ FullPowerSideAttack.com, sanodg (Nobuyoshi Sano), FullPowerSideAttack.comPLAYISM
1246 Robinson Crusoe and the Cursed Pirates Feb 10, 2015 $9.99N/A (N/A)20,000 .. 50,00000:00 (00:00)MagicIndieMumboJumbo
1247 DSY: Don't Shoot Yourself Apr 10, 2015 $4.99N/A (N/A)0 .. 20,00000:00 (00:00)Silverware Games, Inc.Silverware Games, Inc.
1248 Autumn Park Mini Golf Apr 2, 2015 $1.99N/A (N/A)0 .. 20,00000:00 (00:00)Serious TangentsSerious Tangents
1249 Deadlands Noir - That Old Time Religion Jul 3, 2015 $1.99N/A (N/A)0 .. 20,00000:00 (00:00)SmiteWorks USA, LLCSmiteWorks USA, LLC
1250 Capsule Force Aug 25, 2015 $4.99N/A (N/A)0 .. 20,00000:00 (00:00)klobit LLCIron Galaxy
1251 Heroes of Legionwood Jul 24, 2015 $6.99N/A (N/A)0 .. 20,00000:00 (00:00)Dark Gaia StudiosKomodo
1252 Supreme League of Patriots - Episode 3: Ice Cold in Ellis Jan 29, 2015 $5.99N/A (N/A)20,000 .. 50,00000:00 (00:00)No Bull IntentionsPhoenix Online Publishing
1253 President for a Day - Floodings Aug 12, 2015 $0.99N/A (N/A)20,000 .. 50,00000:00 (00:00)Serious Games InteractiveSerious Games Interactive
1254 World War II GI Nov 13, 2015 $6.99N/A (N/A)0 .. 20,00000:00 (00:00)TNT TeamZiggurat
1255 A.R.M. PLANETARY PROSPECTORS EP1 Asteroid Resource Mining Oct 1, 2015 $9.99N/A (N/A)0 .. 20,00000:00 (00:00)Nefarious Dimensions Interactive Games, NDiGNefarious Dimensions Inc.
1256 Atlantis 2: Beyond Atlantis Apr 17, 2015 $0.39N/A (N/A)0 .. 20,00000:00 (00:00)Cryo Interactive, KoalabsMicroids
1257 Dark Years Oct 16, 2015 $14.99N/A (N/A)20,000 .. 50,00000:00 (00:00)RSK EntertainmentKPL
1258 Hack Run ZERO Jul 13, 2015 $2.99N/A (N/A)0 .. 20,00000:00 (00:00)i273 LLCi273 LLC
1259 N2O: Nitrous Oxide Jun 29, 2015 $4.99N/A (N/A)0 .. 20,00000:00 (00:00)UrbanscanConsole Classics
1260 Shu's Garden Aug 11, 2015 $4.99N/A (N/A)0 .. 20,00000:00 (00:00)Colin Sanders, Jason RT BondJason RT Bond
1261 Roads of Rome 3 Oct 19, 2015 $1.99N/A (N/A)0 .. 20,00000:00 (00:00)WhiterraQumaron
1262 Dr.Green Jan 2, 2015 $2.99N/A (N/A)0 .. 20,00000:00 (00:00)Johan AronssonJohan Aronsson
1263 Alarameth TD Jun 23, 2015 N/AN/A (N/A)0 .. 20,00000:00 (00:00)Matt GadientMatt Gadient
1264 Faron's Fate Aug 14, 2015 $0.99N/A (N/A)0 .. 20,00000:00 (00:00)Winter Drake TellerWinter Drake Teller
1265 Castles Oct 9, 2015 $0.99N/A (N/A)20,000 .. 50,00000:00 (00:00)WhootgamesBadLand Publishing
1266 Centauri Sector Jun 24, 2015 $4.99N/A (N/A)0 .. 20,00000:00 (00:00)GNeguceanuGNeguceanu
1267 Drew and the Floating Labyrinth Feb 4, 2015 $4.99N/A (N/A)0 .. 20,00000:00 (00:00)Dust Scratch GamesDust Scratch Games
1268 NOBUNAGA'S AMBITION: Tenshouki with Power Up Kit HD Version Nov 11, 2015 $54.99N/A (N/A)50,000 .. 100,00000:00 (00:00)KOEI TECMO GAMES CO., LTD.KOEI TECMO GAMES CO., LTD.
1269 Goodnight Butcher Dec 18, 2015 $1.99N/A (N/A)0 .. 20,00000:00 (00:00)Perfect Square StudiosPerfect Square Studios
1270 Cyberpunk 3776 Mar 24, 2015 $4.99N/A (N/A)0 .. 20,00000:00 (00:00)Peter HannPeter Hann
1271 Alexia Crow and the Cave of Heroes May 4, 2015 $5.99N/A (N/A)0 .. 20,00000:00 (00:00)QuesttracersQuesttracers
1272 Undeadz! Sep 25, 2015 $0.99N/A (N/A)0 .. 20,00000:00 (00:00)Miguel LlerasMiguel Lleras
1273 3D MiniGolf May 29, 2015 $4.99N/A (N/A)0 .. 20,00000:00 (00:00)Z-Software GmbHfamilyplay
1274 Raywin Jul 29, 2015 $2.99N/A (N/A)100,000 .. 200,00000:00 (00:00)FlatlineVolens Nolens Games
1275 Hypership Out of Control Sep 29, 2015 $1.99N/A (N/A)0 .. 20,00000:00 (00:00)Fun Infused GamesFun Infused Games
1276 Turnover Dec 15, 2015 $1.99N/A (N/A)0 .. 20,00000:00 (00:00)Long Division LLCLong Division LLC
1277 Island Tribe Oct 19, 2015 $2.99N/A (N/A)0 .. 20,00000:00 (00:00)RealoreQumaron
1278 Inside Me Sep 29, 2015 FreeN/A (N/A)0 .. 20,00000:00 (00:00)SnowBiteGamesSnowBiteGames
1279 Zombie Camp: Last Survivor Apr 17, 2015 $1.99N/A (N/A)0 .. 20,00000:00 (00:00)LunagamesLibredia
1280 Inevitability Aug 24, 2015 $4.99N/A (N/A)0 .. 20,00000:00 (00:00)SFS StudiosSFS Studios
1281 Puzzle Ball Oct 1, 2015 $2.99N/A (N/A)20,000 .. 50,00000:00 (00:00)Почежерцев Влад, Кашковский Антон, Бурков НикитаArt-Pulsar
1282 Project Druid - 2D Labyrinth Explorer- Jul 30, 2015 $1.99N/A (N/A)20,000 .. 50,00000:00 (00:00)Cemil TasdemirBack To Basics Gaming
1283 Nubs' Adventure Oct 12, 2015 $6.99N/A (N/A)0 .. 20,00000:00 (00:00)IMakeGamesIMakeGames
1284 Sixth Grade Detective Dec 21, 2015 $4.99N/A (N/A)0 .. 20,00000:00 (00:00)Choice of GamesChoice of Games
1285 The Tiny Tale 2 Jan 30, 2015 $6.99N/A (N/A)0 .. 20,00000:00 (00:00)Running PillowRunning Pillow
1286 quadrant May 1, 2015 $3.99N/A (N/A)0 .. 20,00000:00 (00:00)undefundef
1287 Dwarven Brawl Bros Jun 25, 2015 $4.99N/A (N/A)0 .. 20,00000:00 (00:00)Dwarves Might FlyDwarves Might Fly
1288 The World Named Fred Feb 27, 2015 $0.99N/A (N/A)0 .. 20,00000:00 (00:00)Here Be DragonzHere Be Dragonz
1289 CMYW Oct 16, 2015 $3.99N/A (N/A)0 .. 20,00000:00 (00:00)Shane BerezowskiZen Labs
1290 Wildlife Camp Nov 20, 2015 $6.99N/A (N/A)0 .. 20,00000:00 (00:00)b-alive gmbhb-alive gmbh
1291 Card Dungeon Jun 2, 2015 $5.99N/A (N/A)0 .. 20,00000:00 (00:00)Playtap GamesPlaytap Games
1292 Hacker's Beat Sep 15, 2015 $9.99N/A (N/A)20,000 .. 50,00000:00 (00:00)TEAM TANDS PLUSPLAYISM
1293 MAGIX Music Maker Hip Hop 6 Steam Edition Mar 30, 2015 $39.99N/A (N/A)0 .. 20,00000:00 (00:00)MAGIX Software GmbHMAGIX Software GmbH
1294 CO-OP : Decrypted Apr 6, 2015 $9.99N/A (N/A)0 .. 20,00000:00 (00:00)Pixelz GamesPixelz Games
1295 Trigonarium Aug 31, 2015 $1.99N/A (N/A)0 .. 20,00000:00 (00:00)Kimmo LahtinenKimmo Factor Oy
1296 City Quest Aug 20, 2015 $1.99N/A (N/A)0 .. 20,00000:00 (00:00)Stone Monkey StudiosStone Monkey Studios
1297 Supreme League of Patriots - Episode 2: Patriot Frames Jan 29, 2015 $5.99N/A (N/A)20,000 .. 50,00000:00 (00:00)No Bull IntentionsPhoenix Online Publishing
1298 TREBUCHET Jul 30, 2015 $5.99N/A (N/A)0 .. 20,00000:00 (00:00)iconical Ltd.iconical Ltd.
1299 Entropy Rising Nov 20, 2015 $0.99N/A (N/A)20,000 .. 50,00000:00 (00:00)Autotivity EntertainmentAutotivity Entertainment
1300 Thirty Years' War Sep 3, 2015 $29.99N/A (N/A)0 .. 20,00000:00 (00:00)Ageod, HQSlitherine Ltd.
1301 ASA: A Space Adventure - Remastered Edition Mar 4, 2015 $9.99N/A (N/A)20,000 .. 50,00000:00 (00:00)Simon Says: Play!Simon Says: Play!
1302 Gare Sapphire Mechs Apr 1, 2015 $4.99N/A (N/A)0 .. 20,00000:00 (00:00)Prexen StudiosPrexen Studios
1303 VolChaos Dec 8, 2015 $1.99N/A (N/A)0 .. 20,00000:00 (00:00)Fun Infused GamesFun Infused Games
1304 The Race for the White House Jan 2, 2015 $14.99N/A (N/A)0 .. 20,00000:00 (00:00)EversimEversim
1305 Seeders Aug 21, 2015 $4.99N/A (N/A)20,000 .. 50,00000:00 (00:00)BigosaurBigosaur
1306 Avaris 2: The Return of the Empress Dec 15, 2015 $7.99N/A (N/A)0 .. 20,00000:00 (00:00)StudioGIWZoo Corporation
1307 Pilot Brothers 3: Back Side of the Earth Jan 22, 2015 $4.99N/A (N/A)20,000 .. 50,00000:00 (00:00)1C WirelessFulqrum Publishing
1308 B.A.D Battle Armor Division Aug 18, 2015 $5.99N/A (N/A)0 .. 20,00000:00 (00:00)Crian SoftCrian Soft
1309 Front Wars Aug 17, 2015 $6.99N/A (N/A)0 .. 20,00000:00 (00:00)Homemade GamesHomemade Games
1310 Abduction Action! Plus Sep 1, 2015 $1.99N/A (N/A)0 .. 20,00000:00 (00:00)Fun Infused GamesFun Infused Games
1311 Space - The Return Of The Pixxelfrazzer Nov 2, 2015 $2.99N/A (N/A)0 .. 20,00000:00 (00:00)SørbSørb
1312 DungeonRift Jul 1, 2015 $9.99N/A (N/A)0 .. 20,00000:00 (00:00)RiftyGamesRiftyGames
1313 Super Sky Arena Oct 5, 2015 $14.99N/A (N/A)0 .. 20,00000:00 (00:00)Hammer LabsHammer Labs, Deck13
1314 Starsphere Oct 26, 2015 $3.99N/A (N/A)0 .. 20,00000:00 (00:00)Julia GamesJulia Games
1315 Respawn Man Dec 21, 2015 $2.99N/A (N/A)0 .. 20,00000:00 (00:00)Evan (Solidplasma) PeiperlSolidplasma Studios LLC
1316 Super Slam Dunk Touchdown Dec 16, 2015 $15N/A (N/A)20,000 .. 50,00000:00 (00:00)Tipping Goat LLCTipping Goat LLC
1317 Hypt Apr 23, 2015 $4.99N/A (N/A)20,000 .. 50,00000:00 (00:00)EmpI StudiosCowardly Creations
1318 Teddy Terror May 21, 2015 $4.99N/A (N/A)0 .. 20,00000:00 (00:00)Rage Monster GamesRage Monster Games
1319 Cannibal Oct 28, 2015 $13.99N/A (N/A)0 .. 20,00000:00 (00:00)Gametek BrasilGametek Brasil
1320 The Travels of Marco Polo May 6, 2015 $1.39N/A (N/A)0 .. 20,00000:00 (00:00)Totem StudioPlug In Digital
1321 Alice's Mom's Rescue Sep 3, 2015 $5.99N/A (N/A)0 .. 20,00000:00 (00:00)OrionSoftOrionSoft
1322 Hyperspace Pinball Sep 30, 2015 $2.99N/A (N/A)20,000 .. 50,00000:00 (00:00)Gamieon, Inc.Gamieon, Inc.
1323 The Princess' Heart Jul 30, 2015 $4.99N/A (N/A)0 .. 20,00000:00 (00:00)RosePortal GamesKomodo
1324 Streamline Aug 21, 2015 $2.99N/A (N/A)20,000 .. 50,00000:00 (00:00)Frostcloud StudiosFrostcloud Studios
1325 Castle Chaos Dec 8, 2015 $2.99N/A (N/A)0 .. 20,00000:00 (00:00)Odd Comet GamesOdd Comet Games
1326 Breakout Invaders Apr 24, 2015 $3.99N/A (N/A)20,000 .. 50,00000:00 (00:00)DreamsSoftGamesDreamsSoftGames
1327 The Book of Desires Dec 18, 2015 $6.99N/A (N/A)20,000 .. 50,00000:00 (00:00)Meridian'93Fulqrum Publishing
1328 Barren Roads Jun 1, 2015 $8.99N/A (N/A)0 .. 20,00000:00 (00:00)ForcequitapplicatonsForcequitapplicatons
1329 Blood of Magic Dec 18, 2015 $9.99N/A (N/A)50,000 .. 100,00000:00 (00:00)Stoneworks GamesStoneworks Games
1330 Mayhem Triple Sep 4, 2015 $4.99N/A (N/A)0 .. 20,00000:00 (00:00)Dustin GunnDustin Gunn
1331 Samsa and the Knights of Light Dec 2, 2015 $4.99N/A (N/A)20,000 .. 50,00000:00 (00:00)Atixx, ClorithStudioClorithStudio
1332 Game Type Sep 23, 2015 $2.99N/A (N/A)20,000 .. 50,00000:00 (00:00)Mommy's Best GamesMommy's Best Games
1333 Baseball Mogul Diamond Apr 3, 2015 $11.99N/A (N/A)0 .. 20,00000:00 (00:00)Sports Mogul, Inc.Sports Mogul, Inc.
1334 Spectra Jul 10, 2015 $7.49N/A (N/A)0 .. 20,00000:00 (00:00)Gateway InteractiveMastertronic
1335 My Paper Boat Sep 23, 2015 FreeN/A (N/A)0 .. 20,00000:00 (00:00)TML-StudiosAerosoft GmbH
1336 Exile's End Aug 31, 2015 $9.99N/A (N/A)0 .. 20,00000:00 (00:00)Magnetic RealmsMarvelous
1337 Rugby League Team Manager 2015 Jun 19, 2015 $4.99N/A (N/A)0 .. 20,00000:00 (00:00)Alternative Software LtdAlternative Software Ltd
1338 Herding Dog Dec 25, 2015 $0.99N/A (N/A)0 .. 20,00000:00 (00:00)xixgamesxixgames
1339 Cults and Daggers Feb 12, 2015 $29.99N/A (N/A)0 .. 20,00000:00 (00:00)ChaphatChaphat
1340 Starlaxis Supernova Edition Feb 11, 2015 $9.99N/A (N/A)0 .. 20,00000:00 (00:00)Spiderwork GamesSpiderwork Games
1341 A Sirius Game Aug 21, 2015 $4.99N/A (N/A)20,000 .. 50,00000:00 (00:00)Overcloud9, Phantasm GamesAldorlea Games
1342 Cylne Mar 5, 2015 $3.59N/A (N/A)0 .. 20,00000:00 (00:00)CylneCylne
1343 The Archetype Sep 18, 2015 $4.99N/A (N/A)20,000 .. 50,00000:00 (00:00)Rafael Barreto, MacKenzie KaserSA Industry
1344 Welcome to Boon Hill Oct 31, 2015 $7.99N/A (N/A)0 .. 20,00000:00 (00:00)Matthew Ritter14 Hours Productions
1345 Prismatica Jul 1, 2015 $4.99N/A (N/A)0 .. 20,00000:00 (00:00)Loomus GamesLoomus Games
1346 Cash_Out May 27, 2015 $4.99N/A (N/A)0 .. 20,00000:00 (00:00)UntouchUntouch
1347 Ironclads 2: American Civil War Nov 5, 2015 $9.99N/A (N/A)0 .. 20,00000:00 (00:00)Totem GamesStrategy First
1348 Pillar May 29, 2015 $7.99N/A (N/A)20,000 .. 50,00000:00 (00:00)MichaelArtsMichaelArts
1349 Save Your Mother Dec 3, 2015 $2.99N/A (N/A)20,000 .. 50,00000:00 (00:00)Tuomo LaineTuomo's games
1350 Sister’s Secrecy: Arcanum Bloodlines - Premium Edition May 28, 2015 $6.99N/A (N/A)20,000 .. 50,00000:00 (00:00)Space Monkey International1C Company
1351 Cave Coaster Jun 4, 2015 $0.49N/A (N/A)0 .. 20,00000:00 (00:00)SmyowlStrategy First
1352 Freedom Cry Sep 4, 2015 $4.99N/A (N/A)50,000 .. 100,00000:00 (00:00)Warfare StudiosWarfare Studios
1353 Overruled! Sep 15, 2015 $12.99N/A (N/A)0 .. 20,00000:00 (00:00)Dlala StudiosTeam17 Digital Ltd
1354 Predator Simulator May 11, 2015 $7.99N/A (N/A)20,000 .. 50,00000:00 (00:00)Imran ArafatReality Gameware
1355 Monsterland Dec 14, 2015 $1.99N/A (N/A)20,000 .. 50,00000:00 (00:00)Second Variety GamesSecond Variety Games
1356 Nature's Zombie Apocalypse Jul 23, 2015 $12.99N/A (N/A)0 .. 20,00000:00 (00:00)AniodeAniode
1357 Weather Lord: Following the Princess Collector's Edition Nov 4, 2015 $1.99N/A (N/A)0 .. 20,00000:00 (00:00)Yustas Game StudioAlawar Entertainment
1358 Fermi's Path Apr 20, 2015 $8.99N/A (N/A)0 .. 20,00000:00 (00:00)GameArt Studio GmbHGameArt Studio GmbH
1359 Fated Souls Jul 30, 2015 $4.99N/A (N/A)50,000 .. 100,00000:00 (00:00)Warfare StudiosAldorlea Games
1360 One Hundred Ways Oct 23, 2015 $9.99N/A (N/A)20,000 .. 50,00000:00 (00:00)Sunlight GamesSunlight Games
1361 Deserter Simulator Jul 30, 2015 N/AN/A (N/A)0 .. 20,00000:00 (00:00)Pocket QueriesZoo Corporation
1362 The Land Of Lamia Nov 23, 2015 $0.99N/A (N/A)20,000 .. 50,00000:00 (00:00)Eddy GamesEddy Games
1363 Wrestling Spirit 3 Dec 9, 2015 $19.99N/A (N/A)0 .. 20,00000:00 (00:00)Grey Dog SoftwareViva Media
1364 The Emptiness Deluxe Edition Apr 17, 2015 $9.99N/A (N/A)0 .. 20,00000:00 (00:00)Hooligans EntertainmentViva Media
1365 Dragon Fantasy: The Volumes of Westeria Apr 9, 2015 $9.99N/A (N/A)0 .. 20,00000:00 (00:00)MutekiChoice Provisions
1366 Terraform May 8, 2015 $2.99N/A (N/A)0 .. 20,00000:00 (00:00)Holgersson EntertainmentHolgersson Entertainment
1367 Starchaser: Priestess of the Night Sky Jul 24, 2015 $9.99N/A (N/A)0 .. 20,00000:00 (00:00)NonlinearPLAYISM
1368 Serafina's Crown May 26, 2015 $7.99N/A (N/A)20,000 .. 50,00000:00 (00:00)Woodsy StudioThesis Games
1369 Lootfest Mar 14, 2015 FreeN/A (N/A)0 .. 20,00000:00 (00:00)vikingfabian.comvikingfabian.com
1370 Lost Labyrinth Extended Version Nov 24, 2015 $4.99N/A (N/A)0 .. 20,00000:00 (00:00)Markus DöbeleFlying Interactive
1371 R.O.O.T.S Sep 6, 2015 $1.99N/A (N/A)20,000 .. 50,00000:00 (00:00)reMaginariumreMaginarium
1372 An Imp? A Fiend! Mar 16, 2015 $0.99N/A (N/A)20,000 .. 50,00000:00 (00:00)Blaze EpicBlaze Epic
1373 Hydraulic Empire Jul 31, 2015 $7.99N/A (N/A)0 .. 20,00000:00 (00:00)Batholith EntertainmentBatholith Entertainment
1374 Street Arena Jul 10, 2015 $6.99N/A (N/A)20,000 .. 50,00000:00 (00:00)Blossom GamesGlob Games Studio
1375 Space Station Alpha Feb 27, 2015 $5.99N/A (N/A)20,000 .. 50,00000:00 (00:00)NuclearFirecrackerNuclearFirecracker
1376 Astro Emporia Feb 2, 2015 $0.51N/A (N/A)50,000 .. 100,00000:00 (00:00)Squirrelbot GamesSquirrelbot Games
1377 Tompi Jones May 22, 2015 $3.99N/A (N/A)20,000 .. 50,00000:00 (00:00)DreamsSoftGamesDreamsSoftGames
1378 Goscurry Jan 16, 2015 $4.99N/A (N/A)0 .. 20,00000:00 (00:00)Demigiant, Isak J MartinssonDemigiant
1379 Combat Cats Mar 2, 2015 $2.99N/A (N/A)0 .. 20,00000:00 (00:00)Dingo DangoDingo Dango
1380 Wimp: Who Stole My Pants? Jun 5, 2015 $3.99N/A (N/A)0 .. 20,00000:00 (00:00)FlexileStudioFlexileStudio
1381 Dandy: Or a Brief Glimpse Into the Life of the Candy Alchemist Aug 4, 2015 $9.99N/A (N/A)0 .. 20,00000:00 (00:00)wefiends, Inc.wefiends, Inc.
1382 Cute Things Dying Violently Sep 2, 2015 $2.99N/A (N/A)0 .. 20,00000:00 (00:00)ApathyWorks, LLCApathyWorks, LLC
1383 Ladra Nov 13, 2015 $1.99N/A (N/A)20,000 .. 50,00000:00 (00:00)Bright Flask GamesBright Flask Games
1384 WonderCat Adventures Sep 11, 2015 $2.99N/A (N/A)0 .. 20,00000:00 (00:00)Obscure CloudObscure Cloud
1385 CopperCube 5 Game Engine May 1, 2015 $19.99N/A (N/A)0 .. 20,00000:00 (00:00)Ambiera e.U.Ambiera e.U.
1386 Deadly Sin Mar 27, 2015 $4.99N/A (N/A)20,000 .. 50,00000:00 (00:00)Dancing Dragon GamesKomodo
1387 Galactic Inheritors Jun 9, 2015 $3.99N/A (N/A)50,000 .. 100,00000:00 (00:00)Crispon GamesPlug In Digital, Argonauts Interactive
1388 liteCam Game 5: 120 FPS Game Capture + Streamer Dec 18, 2015 $19.99N/A (N/A)0 .. 20,00000:00 (00:00)Rsupport Inc.Rsupport Inc.
1389 Moonbase 332 May 20, 2015 $4.99N/A (N/A)20,000 .. 50,00000:00 (00:00)camefrom.space, Marco Sadowskicamefrom.space
1390 Nusantara: Legend of The Winged Ones Dec 13, 2015 $4.99N/A (N/A)0 .. 20,00000:00 (00:00)SweetChielSweetChiel
1391 Wave Mechanics Apr 23, 2015 $3.99N/A (N/A)0 .. 20,00000:00 (00:00)Adam TarnowskiAdam Tarnowski
1392 Mighty Switch Force! Academy Nov 23, 2015 $9.99N/A (N/A)0 .. 20,00000:00 (00:00)WayForwardWayForward
1393 Eternal Step Oct 16, 2015 $0.99N/A (N/A)20,000 .. 50,00000:00 (00:00)Once More With GustoGreen Man Gaming Publishing
1394 Astronaut Simulator Apr 2, 2015 $1.99N/A (N/A)0 .. 20,00000:00 (00:00)AstrosimerAstrosimer
1395 Shadowgate: MacVenture Series Jan 26, 2015 $2.99N/A (N/A)20,000 .. 50,00000:00 (00:00)ZojoiZojoi
1396 Treeker: The Lost Glasses Remake May 13, 2015 $2.99N/A (N/A)0 .. 20,00000:00 (00:00)Fernando PauloFernando Paulo
1397 Dead But Alive! Southern England Oct 2, 2015 $14.99N/A (N/A)20,000 .. 50,00000:00 (00:00)Niels Bauer GamesNiels Bauer Games
1398 Dungeon Crawlers HD Jun 1, 2015 $4.99N/A (N/A)0 .. 20,00000:00 (00:00)Drowning Monkeys GamesDrowning Monkeys Games
1399 Minimon Mar 25, 2015 $9.99N/A (N/A)0 .. 20,00000:00 (00:00)Lunar LabsLunar Labs
1400 True Bliss May 22, 2015 $5.99N/A (N/A)20,000 .. 50,00000:00 (00:00)Artur MandasKPL
1401 Switch Galaxy Ultra Nov 20, 2015 $0.99N/A (N/A)20,000 .. 50,00000:00 (00:00)Atomicom LimitedGreen Man Gaming Publishing
1402 Ratings War Oct 2, 2015 $4.99N/A (N/A)0 .. 20,00000:00 (00:00)Choice of GamesChoice of Games
1403 Crayon Chronicles Mar 2, 2015 $3.99N/A (N/A)0 .. 20,00000:00 (00:00)Outer Grid Games LLCOuter Grid Games LLC
1404 Déjà Vu: MacVenture Series Jan 26, 2015 $2.99N/A (N/A)20,000 .. 50,00000:00 (00:00)ZojoiZojoi
1405 Buff Knight Advanced Sep 4, 2015 $2.99N/A (N/A)0 .. 20,00000:00 (00:00)Buff Studio Co.,Ltd.Buff Studio Co.,Ltd.
1406 Sherlock Holmes Consulting Detective: The Case of the Mummy's Curse Jun 8, 2015 $3.99N/A (N/A)20,000 .. 50,00000:00 (00:00)ZojoiZojoi
1407 Crystal Catacombs Jan 15, 2015 $7.99N/A (N/A)0 .. 20,00000:00 (00:00)Levels or Lives, Super Fun GamesCrescent Moon Games
1408 Arson and Plunder: Unleashed Sep 25, 2015 $4.99N/A (N/A)20,000 .. 50,00000:00 (00:00)Chainsaw SyndicateHeadup Games
1409 Roads of Rome 2 Oct 16, 2015 $3.99N/A (N/A)0 .. 20,00000:00 (00:00)WhiterraQumaron
1410 Scarab Tales Jul 1, 2015 $4.99N/A (N/A)20,000 .. 50,00000:00 (00:00)Playito.comPlayito.com
1411 ルナティックドーン 前途への道標 Jan 8, 2015 $15.99N/A (N/A)0 .. 20,00000:00 (00:00)ARTDINKKomodo
1412 Valiant: Resurrection May 8, 2015 $4.99N/A (N/A)20,000 .. 50,00000:00 (00:00)Warfare StudiosAldorlea Games
1413 Lost in Paradise Aug 20, 2015 $2.99N/A (N/A)100,000 .. 200,00000:00 (00:00)Elev8 GamesElev8 Games
1414 TownCraft Feb 25, 2015 $9.99N/A (N/A)0 .. 20,00000:00 (00:00)Flat Earth Games, Epiphany GamesFlat Earth Games
1415 Replay - VHS is not dead Jul 9, 2015 $9.99N/A (N/A)20,000 .. 50,00000:00 (00:00)Team Repla